Darstellungsparameter: Aktuell verwendete Einstellungen:
Skalierung der Graphiken ... ?
xyx+y,   Skalierungsfaktor:      Skalierung: Modus: x, Faktor: 1
Darstellungszeitraum ... ?
Vom - - bis: - -   Zeitraum: 22.04.2020 - 21.07.2020
Min/Max/Avg-Anzeige ... ?
Zeige MMA aktuell
Zeige MMA Monat
Zeige MMA alles
Zeige --A aktuell
Zeige --A Monat
Zeige --A alles
Keine MMA-Anzeige
MMA:
Average (ber die Originaldaten)
MMA-Basis: 23.02.2003 - 03.08.2020
Quicknavigation für Darstellung... ?
Tage:      1T, 2T, 3T, 5T -1T -2T -3T -5T +1T +2T +3T +5T
Wochen: 1W, 2W, 3W -1W -2W -3W +1W +2W +3W
Monate: 1M, 3M, 6M -1M -3M -6M +1M +3M +6M
Jahre:    1J, 3J, 5J, 10J -1J -3J -5J -10J +1J +3J +5J +10J
Nutze für die Darstellung ... ?
Originaldaten oder ...
Mittelwerte Minima Maxima auf...
Stundenbasis Tagesbasis Wochenbasis
Monatsbasis Jahresbasis      Datenbasis: Mittelwerte auf Stundenbasis
Darstellen als:
Statistik (Auto) Statistik J:M      Darstellung:
Zur Graphik,    zurück zur Übersicht aller Sensoren.
 
Tabellarische Datenbersicht: ?
 
Sensor: Nr:Datum:Temp:Abs-Feuchte:Windchill:Wind:
Aussen-T/F 1 22-04-2020 00:00:00 11.28333 C 5.94 g/m*3 11.28 C 2.93333 km/h
2 22-04-2020 01:00:00 10.53333 C 5.95 g/m*3 10.53 C 2.14167 km/h
3 22-04-2020 02:00:00 9.98333 C 5.92 g/m*3 9.98 C 2.93333 km/h
4 22-04-2020 03:00:00 9.25833 C 5.89 g/m*3 9.26 C 0.93333 km/h
5 22-04-2020 04:00:00 8.41667 C 5.78 g/m*3 8.42 C 0.8 km/h
6 22-04-2020 05:00:00 7.49167 C 5.71 g/m*3 7.49 C 1.06667 km/h
7 22-04-2020 06:00:00 6.575 C 5.65 g/m*3 6.58 C 1.46667 km/h
8 22-04-2020 07:00:00 6.19167 C 5.83 g/m*3 6.19 C 2.53333 km/h
9 22-04-2020 08:00:00 7.35833 C 6.05 g/m*3 7.36 C 3.75 km/h
10 22-04-2020 09:00:00 10.36667 C 6.02 g/m*3 10.03 C 5.49167 km/h
11 22-04-2020 10:00:00 13.09167 C 5.88 g/m*3 13.09 C 8.06667 km/h
12 22-04-2020 11:00:00 15.875 C 5.68 g/m*3 15.88 C 11.15 km/h
13 22-04-2020 12:00:00 17.65 C 5.35 g/m*3 17.65 C 16.9 km/h
14 22-04-2020 13:00:00 18.93333 C 5.55 g/m*3 18.93 C 12.63333 km/h
15 22-04-2020 14:00:00 20.18333 C 5.74 g/m*3 20.18 C 14.23333 km/h
16 22-04-2020 15:00:00 21.40833 C 5.75 g/m*3 21.41 C 15.56667 km/h
17 22-04-2020 16:00:00 22.575 C 5.77 g/m*3 22.58 C 17.3 km/h
18 22-04-2020 17:00:00 22.65833 C 5.69 g/m*3 22.66 C 20.11667 km/h
19 22-04-2020 18:00:00 22.38333 C 5.59 g/m*3 22.38 C 18.50833 km/h
20 22-04-2020 19:00:00 21.275 C 5.58 g/m*3 21.28 C 12.09167 km/h
21 22-04-2020 20:00:00 18.38333 C 6.04 g/m*3 18.38 C 2.94167 km/h
22 22-04-2020 21:00:00 14.96667 C 6.03 g/m*3 14.97 C 1.46667 km/h
23 22-04-2020 22:00:00 13.81667 C 6.08 g/m*3 13.82 C 2.4 km/h
24 22-04-2020 23:00:00 13.74167 C 6.1 g/m*3 13.74 C 3.33333 km/h
25 23-04-2020 00:00:00 12.85 C 6.12 g/m*3 12.85 C 3.46667 km/h
Sensor: Nr:Datum:Temp:Abs-Feuchte:Windchill:Wind:
Aussen-T/F 26 23-04-2020 01:00:00 12.08333 C 6.14 g/m*3 12.08 C 3.34167 km/h
27 23-04-2020 02:00:00 10.35833 C 6.15 g/m*3 10.36 C 2 km/h
28 23-04-2020 03:00:00 9.51667 C 6.13 g/m*3 9.52 C 1.6 km/h
29 23-04-2020 04:00:00 8.39167 C 6.05 g/m*3 8.39 C 0.8 km/h
30 23-04-2020 05:00:00 6.975 C 5.97 g/m*3 6.98 C 0.26667 km/h
31 23-04-2020 06:00:00 6.3 C 5.9 g/m*3 6.3 C 0.13333 km/h
32 23-04-2020 07:00:00 5.95833 C 6.06 g/m*3 5.96 C 0.13333 km/h
33 23-04-2020 08:00:00 6.26667 C 6.41 g/m*3 6.27 C 0.8 km/h
34 23-04-2020 09:00:00 8.35 C 7.02 g/m*3 8.35 C 1.46667 km/h
35 23-04-2020 10:00:00 11.61667 C 7.35 g/m*3 11.62 C 2.00833 km/h
36 23-04-2020 11:00:00 16.36667 C 6.94 g/m*3 16.37 C 8.19167 km/h
37 23-04-2020 12:00:00 18.08333 C 6.71 g/m*3 18.08 C 10.48333 km/h
38 23-04-2020 13:00:00 19.425 C 5.88 g/m*3 19.43 C 9.675 km/h
39 23-04-2020 14:00:00 20.66667 C 5.93 g/m*3 20.67 C 9.55833 km/h
40 23-04-2020 15:00:00 22 C 5.97 g/m*3 22 C 8.475 km/h
41 23-04-2020 16:00:00 23.20833 C 6.07 g/m*3 23.21 C 10.225 km/h
42 23-04-2020 17:00:00 24.35833 C 6.12 g/m*3 24.36 C 7.24167 km/h
43 23-04-2020 18:00:00 25.35833 C 6.18 g/m*3 25.36 C 5.36667 km/h
44 23-04-2020 19:00:00 22.41667 C 8.81 g/m*3 22.42 C 3.875 km/h
45 23-04-2020 20:00:00 14.64167 C 8.41 g/m*3 14.64 C 6.85833 km/h
46 23-04-2020 21:00:00 12.975 C 7.37 g/m*3 12.98 C 1.6 km/h
47 23-04-2020 22:00:00 11.525 C 7.02 g/m*3 11.53 C 0 km/h
48 23-04-2020 23:00:00 10.15833 C 6.76 g/m*3 10.16 C 0 km/h
49 24-04-2020 00:00:00 9.33333 C 6.63 g/m*3 9.33 C 0.4 km/h
50 24-04-2020 01:00:00 8.5 C 6.57 g/m*3 8.5 C 0.8 km/h
Sensor: Nr:Datum:Temp:Abs-Feuchte:Windchill:Wind:
Aussen-T/F 51 24-04-2020 02:00:00 7.70833 C 6.46 g/m*3 7.71 C 0.4 km/h
52 24-04-2020 03:00:00 6.975 C 6.41 g/m*3 6.98 C 0.4 km/h
53 24-04-2020 04:00:00 6.50833 C 6.39 g/m*3 6.51 C 0.53333 km/h
54 24-04-2020 05:00:00 6.41667 C 6.43 g/m*3 6.42 C 0.4 km/h
55 24-04-2020 06:00:00 6.36667 C 6.47 g/m*3 6.37 C 0.66667 km/h
56 24-04-2020 07:00:00 6.59167 C 6.63 g/m*3 6.59 C 0.13333 km/h
57 24-04-2020 08:00:00 7.83333 C 7.04 g/m*3 7.83 C 0.4 km/h
58 24-04-2020 09:00:00 10.66667 C 7.6 g/m*3 10.67 C 0.26667 km/h
59 24-04-2020 10:00:00 12.975 C 8.09 g/m*3 12.98 C 2.13333 km/h
60 24-04-2020 11:00:00 15.21667 C 8.39 g/m*3 15.22 C 1.46667 km/h
61 24-04-2020 12:00:00 17.58333 C 8.57 g/m*3 17.58 C 5.1 km/h
62 24-04-2020 13:00:00 20.025 C 7.18 g/m*3 20.02 C 9.825 km/h
63 24-04-2020 14:00:00 21.325 C 7.67 g/m*3 21.33 C 10.23333 km/h
64 24-04-2020 15:00:00 22.06667 C 7.35 g/m*3 22.07 C 11.03333 km/h
65 24-04-2020 16:00:00 22.84167 C 6.48 g/m*3 22.84 C 11.69167 km/h
66 24-04-2020 17:00:00 22.55 C 5.98 g/m*3 22.55 C 14.36667 km/h
67 24-04-2020 18:00:00 21.59167 C 6.68 g/m*3 21.59 C 14.23333 km/h
68 24-04-2020 19:00:00 20.31667 C 7.25 g/m*3 20.32 C 12.9 km/h
69 24-04-2020 20:00:00 18.15833 C 7.43 g/m*3 18.16 C 5.50833 km/h
70 24-04-2020 21:00:00 15.80833 C 7.19 g/m*3 15.81 C 3.2 km/h
71 24-04-2020 22:00:00 14.64167 C 6.99 g/m*3 14.64 C 3.20833 km/h
72 24-04-2020 23:00:00 13.10833 C 6.03 g/m*3 13.11 C 2.675 km/h
73 25-04-2020 00:00:00 12.88333 C 6.03 g/m*3 12.88 C 5.89167 km/h
74 25-04-2020 01:00:00 11.725 C 6.53 g/m*3 11.73 C 5.61667 km/h
75 25-04-2020 02:00:00 10.53333 C 6.62 g/m*3 10.53 C 3.875 km/h
Sensor: Nr:Datum:Temp:Abs-Feuchte:Windchill:Wind:
Aussen-T/F 76 25-04-2020 03:00:00 10.20833 C 6.64 g/m*3 9.74 C 5.9 km/h
77 25-04-2020 04:00:00 9.44167 C 6.57 g/m*3 8.55 C 7.10833 km/h
78 25-04-2020 05:00:00 8.28333 C 6.77 g/m*3 8.28 C 4.68333 km/h
79 25-04-2020 06:00:00 8.35833 C 6.96 g/m*3 7.1 C 7.91667 km/h
80 25-04-2020 07:00:00 8.49167 C 6.76 g/m*3 7.31 C 7.65833 km/h
81 25-04-2020 08:00:00 8.59167 C 6.61 g/m*3 7.19 C 8.74167 km/h
82 25-04-2020 09:00:00 9.025 C 6.45 g/m*3 7.68 C 8.88333 km/h
83 25-04-2020 10:00:00 9.625 C 6.37 g/m*3 8.7 C 7.39167 km/h
84 25-04-2020 11:00:00 10.43333 C 6.37 g/m*3 9.5 C 8.075 km/h
85 25-04-2020 12:00:00 11.21667 C 6.37 g/m*3 11.22 C 8.725 km/h
86 25-04-2020 13:00:00 12.575 C 6.45 g/m*3 12.58 C 7.66667 km/h
87 25-04-2020 14:00:00 13.925 C 6.51 g/m*3 13.93 C 8.18333 km/h
88 25-04-2020 15:00:00 15.71667 C 6.65 g/m*3 15.72 C 7.79167 km/h
89 25-04-2020 16:00:00 17.66667 C 6.61 g/m*3 17.67 C 8.19167 km/h
90 25-04-2020 17:00:00 19.04167 C 6.55 g/m*3 19.04 C 7.8 km/h
91 25-04-2020 18:00:00 18.825 C 6.69 g/m*3 18.83 C 9.28333 km/h
92 25-04-2020 19:00:00 17.125 C 6.61 g/m*3 17.13 C 6.975 km/h
93 25-04-2020 20:00:00 14.51667 C 6.57 g/m*3 14.52 C 3.73333 km/h
94 25-04-2020 21:00:00 11.65 C 6.43 g/m*3 11.65 C 3.73333 km/h
95 25-04-2020 22:00:00 10.49167 C 6.37 g/m*3 10.21 C 5.35 km/h
96 25-04-2020 23:00:00 9.18333 C 6.37 g/m*3 9.18 C 2.53333 km/h
97 26-04-2020 00:00:00 7.45 C 6.24 g/m*3 7.45 C 0.13333 km/h
98 26-04-2020 01:00:00 6.125 C 6.1 g/m*3 6.13 C 0.13333 km/h
99 26-04-2020 02:00:00 5.325 C 6 g/m*3 5.33 C 0.53333 km/h
100 26-04-2020 03:00:00 4.76667 C 5.89 g/m*3 4.77 C 0.4 km/h
Sensor: Nr:Datum:Temp:Abs-Feuchte:Windchill:Wind:
Aussen-T/F 101 26-04-2020 04:00:00 4.03333 C 5.72 g/m*3 4.03 C 0 km/h
102 26-04-2020 05:00:00 3.475 C 5.61 g/m*3 3.48 C 0 km/h
103 26-04-2020 06:00:00 2.925 C 5.46 g/m*3 2.93 C 0 km/h
104 26-04-2020 07:00:00 3.09167 C 5.58 g/m*3 3.09 C 0 km/h
105 26-04-2020 08:00:00 3.94167 C 5.97 g/m*3 3.94 C 0.13333 km/h
106 26-04-2020 09:00:00 5.61667 C 6.72 g/m*3 5.62 C 0 km/h
107 26-04-2020 10:00:00 8.06667 C 7.53 g/m*3 8.07 C 0.4 km/h
108 26-04-2020 11:00:00 12.21667 C 7.72 g/m*3 12.22 C 1.73333 km/h
109 26-04-2020 12:00:00 15.26667 C 6.94 g/m*3 15.27 C 4.825 km/h
110 26-04-2020 13:00:00 16.9 C 6.56 g/m*3 16.9 C 7.79167 km/h
111 26-04-2020 14:00:00 17.8 C 6.73 g/m*3 17.8 C 9.00833 km/h
112 26-04-2020 15:00:00 19.10833 C 6.59 g/m*3 19.11 C 7.10833 km/h
113 26-04-2020 16:00:00 21.13333 C 6.43 g/m*3 21.13 C 7.24167 km/h
114 26-04-2020 17:00:00 22.33333 C 5.95 g/m*3 22.33 C 6.15 km/h
115 26-04-2020 18:00:00 22.68333 C 5.48 g/m*3 22.68 C 5.06667 km/h
116 26-04-2020 19:00:00 21.1 C 5.65 g/m*3 21.1 C 3.2 km/h
117 26-04-2020 20:00:00 17.01667 C 6.39 g/m*3 17.02 C 4.66667 km/h
118 26-04-2020 21:00:00 13.325 C 6.34 g/m*3 13.33 C 4.4 km/h
119 26-04-2020 22:00:00 11.36667 C 6.72 g/m*3 11.37 C 0.4 km/h
120 26-04-2020 23:00:00 9.58333 C 6.4 g/m*3 9.58 C 0.4 km/h
121 27-04-2020 00:00:00 8.48333 C 6.3 g/m*3 8.48 C 0.13333 km/h
122 27-04-2020 01:00:00 7.49167 C 6.25 g/m*3 7.49 C 0 km/h
123 27-04-2020 02:00:00 6.675 C 6.16 g/m*3 6.68 C 0.26667 km/h
124 27-04-2020 03:00:00 6.125 C 6.16 g/m*3 6.13 C 0.4 km/h
125 27-04-2020 04:00:00 5.38333 C 6 g/m*3 5.38 C 0 km/h
Sensor: Nr:Datum:Temp:Abs-Feuchte:Windchill:Wind:
Aussen-T/F 126 27-04-2020 05:00:00 4.51667 C 5.85 g/m*3 4.52 C 0 km/h
127 27-04-2020 06:00:00 4.23333 C 5.86 g/m*3 4.23 C 0.13333 km/h
128 27-04-2020 07:00:00 4.48333 C 6.02 g/m*3 4.48 C 0.26667 km/h
129 27-04-2020 08:00:00 5.44167 C 6.44 g/m*3 5.44 C 0.66667 km/h
130 27-04-2020 09:00:00 6.91667 C 7.03 g/m*3 6.92 C 0.13333 km/h
131 27-04-2020 10:00:00 9.85 C 8.03 g/m*3 9.85 C 0.26667 km/h
132 27-04-2020 11:00:00 15.41667 C 7.76 g/m*3 15.42 C 4 km/h
133 27-04-2020 12:00:00 18.025 C 7.43 g/m*3 18.02 C 4.94167 km/h
134 27-04-2020 13:00:00 19.6 C 6.92 g/m*3 19.6 C 9 km/h
135 27-04-2020 14:00:00 20.8 C 7.05 g/m*3 20.8 C 10.08333 km/h
136 27-04-2020 15:00:00 22.41667 C 6.91 g/m*3 22.42 C 11.03333 km/h
137 27-04-2020 16:00:00 22.7 C 6.94 g/m*3 22.7 C 12.63333 km/h
138 27-04-2020 17:00:00 21.45833 C 7.34 g/m*3 21.46 C 10.475 km/h
139 27-04-2020 18:00:00 22.59167 C 7.73 g/m*3 22.59 C 6.96667 km/h
140 27-04-2020 19:00:00 20.38333 C 8.48 g/m*3 20.38 C 5.475 km/h
141 27-04-2020 20:00:00 16.55 C 8.26 g/m*3 16.55 C 6 km/h
142 27-04-2020 21:00:00 14.55 C 8.22 g/m*3 14.55 C 4.26667 km/h
143 27-04-2020 22:00:00 13.2 C 8.18 g/m*3 13.2 C 1.46667 km/h
144 27-04-2020 23:00:00 12.11667 C 8.05 g/m*3 12.12 C 0 km/h
145 28-04-2020 00:00:00 10.725 C 7.89 g/m*3 10.73 C 0 km/h
146 28-04-2020 01:00:00 9.875 C 7.75 g/m*3 9.88 C 0 km/h
147 28-04-2020 02:00:00 9.11667 C 7.63 g/m*3 9.12 C 0.26667 km/h
148 28-04-2020 03:00:00 8.80833 C 7.62 g/m*3 8.81 C 0.4 km/h
149 28-04-2020 04:00:00 8.05 C 7.43 g/m*3 8.05 C 2.15 km/h
150 28-04-2020 05:00:00 8.14167 C 7.59 g/m*3 8.14 C 1.33333 km/h
Sensor: Nr:Datum:Temp:Abs-Feuchte:Windchill:Wind:
Aussen-T/F 151 28-04-2020 06:00:00 7.875 C 7.49 g/m*3 7.88 C 0 km/h
152 28-04-2020 07:00:00 8.86667 C 8.02 g/m*3 8.87 C 0.26667 km/h
153 28-04-2020 08:00:00 10.00833 C 8.62 g/m*3 10.01 C 0.13333 km/h
154 28-04-2020 09:00:00 11.13333 C 9.26 g/m*3 11.13 C 0.4 km/h
155 28-04-2020 10:00:00 12.60833 C 9.99 g/m*3 12.61 C 0 km/h
156 28-04-2020 11:00:00 14.01667 C 11.02 g/m*3 14.02 C 0.53333 km/h
157 28-04-2020 12:00:00 14.95833 C 11.85 g/m*3 14.96 C 0.26667 km/h
158 28-04-2020 13:00:00 15.05833 C 12 g/m*3 15.06 C 4.7 km/h
159 28-04-2020 14:00:00 16.275 C 12.58 g/m*3 16.27 C 13.69167 km/h
160 28-04-2020 15:00:00 16.24167 C 12.15 g/m*3 16.24 C 15.43333 km/h
161 28-04-2020 16:00:00 16.81667 C 11.91 g/m*3 16.82 C 17.3 km/h
162 28-04-2020 17:00:00 16.90833 C 11.26 g/m*3 16.91 C 13.56667 km/h
163 28-04-2020 18:00:00 17.675 C 10.97 g/m*3 17.68 C 12.09167 km/h
164 28-04-2020 19:00:00 16.925 C 10.77 g/m*3 16.93 C 6.43333 km/h
165 28-04-2020 20:00:00 14.95833 C 10.45 g/m*3 14.96 C 5.46667 km/h
166 28-04-2020 21:00:00 13.4 C 10.01 g/m*3 13.4 C 9.675 km/h
167 28-04-2020 22:00:00 13.30833 C 10 g/m*3 13.31 C 3.86667 km/h
168 28-04-2020 23:00:00 12.88333 C 10.03 g/m*3 12.88 C 1.33333 km/h
169 29-04-2020 00:00:00 12.35833 C 9.81 g/m*3 12.36 C 1.73333 km/h
170 29-04-2020 01:00:00 11.95833 C 9.73 g/m*3 11.96 C 1.6 km/h
171 29-04-2020 02:00:00 12.05833 C 9.66 g/m*3 12.06 C 7.11667 km/h
172 29-04-2020 03:00:00 12.025 C 9.4 g/m*3 12.03 C 3.86667 km/h
173 29-04-2020 04:00:00 12.00833 C 9.49 g/m*3 12.01 C 1.33333 km/h
174 29-04-2020 05:00:00 11.8 C 9.38 g/m*3 11.8 C 1.46667 km/h
175 29-04-2020 06:00:00 11.65833 C 9.35 g/m*3 11.66 C 1.60833 km/h
Sensor: Nr:Datum:Temp:Abs-Feuchte:Windchill:Wind:
Aussen-T/F 176 29-04-2020 07:00:00 12.03333 C 9.48 g/m*3 12.03 C 4.96667 km/h
177 29-04-2020 08:00:00 12.81667 C 9.47 g/m*3 12.82 C 9.68333 km/h
178 29-04-2020 09:00:00 13.40833 C 9.28 g/m*3 13.41 C 15.56667 km/h
179 29-04-2020 10:00:00 14.65 C 9.11 g/m*3 14.65 C 13.43333 km/h
180 29-04-2020 11:00:00 15.75833 C 9.06 g/m*3 15.76 C 16.10833 km/h
181 29-04-2020 12:00:00 16 C 8.8 g/m*3 16 C 14.9 km/h
182 29-04-2020 13:00:00 16.225 C 8.99 g/m*3 16.23 C 16.63333 km/h
183 29-04-2020 14:00:00 15.96667 C 9.23 g/m*3 15.97 C 13.83333 km/h
184 29-04-2020 15:00:00 17.4 C 9.41 g/m*3 17.4 C 13.96667 km/h
185 29-04-2020 16:00:00 17.14167 C 9.28 g/m*3 17.14 C 13.56667 km/h
186 29-04-2020 17:00:00 17.875 C 9.67 g/m*3 17.88 C 10.49167 km/h
187 29-04-2020 18:00:00 17.85833 C 9.23 g/m*3 17.86 C 10.21667 km/h
188 29-04-2020 19:00:00 17.35 C 9.38 g/m*3 17.35 C 7.65833 km/h
189 29-04-2020 20:00:00 15.3 C 9.11 g/m*3 15.3 C 2.66667 km/h
190 29-04-2020 21:00:00 13.6 C 9.05 g/m*3 13.6 C 2 km/h
191 29-04-2020 22:00:00 13.275 C 9.18 g/m*3 13.28 C 2 km/h
192 29-04-2020 23:00:00 13.15 C 9.36 g/m*3 13.15 C 0.93333 km/h
193 30-04-2020 00:00:00 13.225 C 9.32 g/m*3 13.23 C 3.625 km/h
194 30-04-2020 01:00:00 13.43333 C 9.22 g/m*3 13.43 C 5.35833 km/h
195 30-04-2020 02:00:00 12.70833 C 9.33 g/m*3 12.71 C 4.95 km/h
196 30-04-2020 03:00:00 12.00833 C 9.07 g/m*3 12.01 C 2.8 km/h
197 30-04-2020 04:00:00 11.49167 C 9.32 g/m*3 11.49 C 0.53333 km/h
198 30-04-2020 05:00:00 11.29167 C 9.52 g/m*3 11.29 C 1.2 km/h
199 30-04-2020 06:00:00 11.2 C 9.54 g/m*3 11.2 C 2.54167 km/h
200 30-04-2020 07:00:00 10.71667 C 9.25 g/m*3 10.06 C 6.98333 km/h
Sensor: Nr:Datum:Temp:Abs-Feuchte:Windchill:Wind:
Aussen-T/F 201 30-04-2020 08:00:00 10.475 C 9.09 g/m*3 9.5 C 8.33333 km/h
202 30-04-2020 09:00:00 11.65833 C 9.44 g/m*3 11.66 C 9.69167 km/h
203 30-04-2020 10:00:00 13.16667 C 9.41 g/m*3 13.17 C 13.43333 km/h
204 30-04-2020 11:00:00 13.85833 C 9.25 g/m*3 13.86 C 10.09167 km/h
205 30-04-2020 12:00:00 13.925 C 8.65 g/m*3 13.93 C 16.375 km/h
206 30-04-2020 13:00:00 14.075 C 8.1 g/m*3 14.08 C 16.775 km/h
207 30-04-2020 14:00:00 15.525 C 8.05 g/m*3 15.53 C 17.03333 km/h
208 30-04-2020 15:00:00 15.88333 C 7.98 g/m*3 15.88 C 11.01667 km/h
209 30-04-2020 16:00:00 15.61667 C 8.24 g/m*3 15.62 C 6.29167 km/h
210 30-04-2020 17:00:00 13.375 C 9.09 g/m*3 13.38 C 9.54167 km/h
211 30-04-2020 18:00:00 10.88333 C 8.99 g/m*3 9.63 C 10.34167 km/h
212 30-04-2020 19:00:00 10.65833 C 8.96 g/m*3 10.06 C 6.7 km/h
213 30-04-2020 20:00:00 10.375 C 8.76 g/m*3 10.38 C 1.73333 km/h
214 30-04-2020 21:00:00 9.425 C 8.45 g/m*3 9.43 C 1.06667 km/h
215 30-04-2020 22:00:00 9.23333 C 8.46 g/m*3 9.23 C 2.26667 km/h
216 30-04-2020 23:00:00 8.98333 C 8.39 g/m*3 8.57 C 5.1 km/h
217 01-05-2020 00:00:00 8.93333 C 8.34 g/m*3 8.13 C 6.425 km/h
218 01-05-2020 01:00:00 8.325 C 8.01 g/m*3 6.69 C 9.66667 km/h
219 01-05-2020 02:00:00 8.15833 C 7.85 g/m*3 6.8 C 8.18333 km/h
220 01-05-2020 03:00:00 8.075 C 7.84 g/m*3 7.45 C 5.35833 km/h
221 01-05-2020 04:00:00 7.825 C 7.72 g/m*3 7.83 C 1.6 km/h
222 01-05-2020 05:00:00 8.525 C 8.17 g/m*3 7.45 C 7.24167 km/h
223 01-05-2020 06:00:00 8.38333 C 7.93 g/m*3 7.72 C 5.625 km/h
224 01-05-2020 07:00:00 8.05833 C 7.85 g/m*3 8.06 C 1.88333 km/h
225 01-05-2020 08:00:00 8.84167 C 8.25 g/m*3 8.84 C 1.06667 km/h
Sensor: Nr:Datum:Temp:Abs-Feuchte:Windchill:Wind:
Aussen-T/F 226 01-05-2020 09:00:00 9.925 C 8.78 g/m*3 9.34 C 6.16667 km/h
227 01-05-2020 10:00:00 10.80833 C 8.73 g/m*3 9.61 C 9.94167 km/h
228 01-05-2020 11:00:00 12.25 C 8.63 g/m*3 12.25 C 12.76667 km/h
229 01-05-2020 12:00:00 11.96667 C 8.74 g/m*3 11.97 C 9.68333 km/h
230 01-05-2020 13:00:00 11.11667 C 8.59 g/m*3 11.12 C 11.28333 km/h
231 01-05-2020 14:00:00 12.925 C 8.57 g/m*3 12.93 C 14.5 km/h
232 01-05-2020 15:00:00 13.96667 C 8.46 g/m*3 13.97 C 13.825 km/h
233 01-05-2020 16:00:00 14.46667 C 9.13 g/m*3 14.47 C 13.43333 km/h
234 01-05-2020 17:00:00 14.76667 C 9.05 g/m*3 14.77 C 13.16667 km/h
235 01-05-2020 18:00:00 13.45 C 9.33 g/m*3 13.45 C 5.89167 km/h
236 01-05-2020 19:00:00 12.66667 C 8.77 g/m*3 12.67 C 6.83333 km/h
237 01-05-2020 20:00:00 11.25833 C 8.26 g/m*3 11.26 C 7.4 km/h
238 01-05-2020 21:00:00 10.26667 C 8.18 g/m*3 10.03 C 5.08333 km/h
239 01-05-2020 22:00:00 9.28333 C 7.96 g/m*3 8.91 C 5.09167 km/h
240 01-05-2020 23:00:00 9.6 C 8.12 g/m*3 8.31 C 9.14167 km/h
241 02-05-2020 00:00:00 9.41667 C 8.06 g/m*3 9.42 C 4.28333 km/h
242 02-05-2020 01:00:00 9.3 C 8.02 g/m*3 8.03 C 8.75833 km/h
243 02-05-2020 02:00:00 8.85833 C 7.91 g/m*3 8.07 C 6.30833 km/h
244 02-05-2020 03:00:00 9.33333 C 7.94 g/m*3 8.81 C 5.63333 km/h
245 02-05-2020 04:00:00 9.05833 C 7.86 g/m*3 9.06 C 3.88333 km/h
246 02-05-2020 05:00:00 8.96667 C 7.7 g/m*3 7.75 C 8.20833 km/h
247 02-05-2020 06:00:00 8.25833 C 7.38 g/m*3 6.66 C 9.41667 km/h
248 02-05-2020 07:00:00 8.49167 C 7.42 g/m*3 6.5 C 11.95 km/h
249 02-05-2020 08:00:00 9.28333 C 7.63 g/m*3 7.49 C 11.7 km/h
250 02-05-2020 09:00:00 10.19167 C 7.64 g/m*3 7.82 C 17.96667 km/h
Sensor: Nr:Datum:Temp:Abs-Feuchte:Windchill:Wind:
Aussen-T/F 251 02-05-2020 10:00:00 8.675 C 7.47 g/m*3 6.76 C 11.68333 km/h
252 02-05-2020 11:00:00 8.6 C 8.01 g/m*3 7.5 C 7.38333 km/h
253 02-05-2020 12:00:00 10.09167 C 8.16 g/m*3 8.49 C 11.55 km/h
254 02-05-2020 13:00:00 11.49167 C 7.99 g/m*3 11.49 C 16.23333 km/h
255 02-05-2020 14:00:00 11.825 C 7.82 g/m*3 11.83 C 18.90833 km/h
256 02-05-2020 15:00:00 9.575 C 8.24 g/m*3 8.44 C 8.325 km/h
257 02-05-2020 16:00:00 13.45 C 9.07 g/m*3 13.45 C 7.90833 km/h
258 02-05-2020 17:00:00 14.04167 C 8.79 g/m*3 14.04 C 7.93333 km/h
259 02-05-2020 18:00:00 13.38333 C 7.71 g/m*3 13.38 C 13.03333 km/h
260 02-05-2020 19:00:00 11.7 C 7.57 g/m*3 11.7 C 10.34167 km/h
261 02-05-2020 20:00:00 11.43333 C 7.69 g/m*3 11.43 C 6.03333 km/h
262 02-05-2020 21:00:00 8.71667 C 7.42 g/m*3 7.88 C 6.43333 km/h
263 02-05-2020 22:00:00 7.43333 C 7.15 g/m*3 7.43 C 1.86667 km/h
264 02-05-2020 23:00:00 6.875 C 7.06 g/m*3 6.88 C 3.33333 km/h
265 03-05-2020 00:00:00 6.375 C 6.89 g/m*3 6.38 C 2.66667 km/h
266 03-05-2020 01:00:00 5.60833 C 6.6 g/m*3 5.61 C 0.8 km/h
267 03-05-2020 02:00:00 5.26667 C 6.5 g/m*3 5.27 C 1.46667 km/h
268 03-05-2020 03:00:00 4.81667 C 6.35 g/m*3 4.82 C 2.13333 km/h
269 03-05-2020 04:00:00 4.23333 C 6.12 g/m*3 4.23 C 0.26667 km/h
270 03-05-2020 05:00:00 3.53333 C 5.86 g/m*3 3.53 C 0.4 km/h
271 03-05-2020 06:00:00 4.21667 C 6.19 g/m*3 4.22 C 0.93333 km/h
272 03-05-2020 07:00:00 4.5 C 6.31 g/m*3 4.5 C 4.40833 km/h
273 03-05-2020 08:00:00 4.94167 C 6.52 g/m*3 4.94 C 2.13333 km/h
274 03-05-2020 09:00:00 6.21667 C 7.14 g/m*3 6.22 C 2.53333 km/h
275 03-05-2020 10:00:00 8.56667 C 8.17 g/m*3 8.57 C 0.8 km/h
Sensor: Nr:Datum:Temp:Abs-Feuchte:Windchill:Wind:
Aussen-T/F 276 03-05-2020 11:00:00 12.21667 C 8.49 g/m*3 12.22 C 6.16667 km/h
277 03-05-2020 12:00:00 14.23333 C 7.22 g/m*3 14.23 C 8.88333 km/h
278 03-05-2020 13:00:00 15.40833 C 6.64 g/m*3 15.41 C 10.75833 km/h
279 03-05-2020 14:00:00 16.23333 C 6.6 g/m*3 16.23 C 9.41667 km/h
280 03-05-2020 15:00:00 17.39167 C 6.83 g/m*3 17.39 C 9.825 km/h
281 03-05-2020 16:00:00 17.38333 C 7.07 g/m*3 17.38 C 8.875 km/h
282 03-05-2020 17:00:00 16.975 C 7.13 g/m*3 16.98 C 8.2 km/h
283 03-05-2020 18:00:00 16.625 C 7.57 g/m*3 16.63 C 4.94167 km/h
284 03-05-2020 19:00:00 15.84167 C 8.7 g/m*3 15.84 C 3.86667 km/h
285 03-05-2020 20:00:00 13.48333 C 8.62 g/m*3 13.48 C 5.6 km/h
286 03-05-2020 21:00:00 12.08333 C 8.36 g/m*3 12.08 C 3.33333 km/h
287 03-05-2020 22:00:00 11.75 C 8.37 g/m*3 11.75 C 0.4 km/h
288 03-05-2020 23:00:00 11.46667 C 8.28 g/m*3 11.47 C 1.2 km/h
289 04-05-2020 00:00:00 11.31667 C 8.3 g/m*3 11.32 C 0 km/h
290 04-05-2020 01:00:00 11.075 C 8.2 g/m*3 11.08 C 0.53333 km/h
291 04-05-2020 02:00:00 11.025 C 8.33 g/m*3 11.03 C 0 km/h
292 04-05-2020 03:00:00 10 C 7.89 g/m*3 10 C 0.66667 km/h
293 04-05-2020 04:00:00 9.28333 C 7.82 g/m*3 9.28 C 0 km/h
294 04-05-2020 05:00:00 9.71667 C 8.13 g/m*3 9.72 C 0 km/h
295 04-05-2020 06:00:00 9.875 C 8.3 g/m*3 9.88 C 0 km/h
296 04-05-2020 07:00:00 10.49167 C 8.64 g/m*3 10.49 C 1.875 km/h
297 04-05-2020 08:00:00 11.59167 C 9.38 g/m*3 11.59 C 3.20833 km/h
298 04-05-2020 09:00:00 11.86667 C 9.8 g/m*3 11.87 C 1.46667 km/h
299 04-05-2020 10:00:00 13.20833 C 10.36 g/m*3 13.21 C 6.44167 km/h
300 04-05-2020 11:00:00 13.23333 C 10.31 g/m*3 13.23 C 6.44167 km/h
Sensor: Nr:Datum:Temp:Abs-Feuchte:Windchill:Wind:
Aussen-T/F 301 04-05-2020 12:00:00 12.65 C 10.19 g/m*3 12.65 C 9 km/h
302 04-05-2020 13:00:00 14.00833 C 10.36 g/m*3 14.01 C 7.79167 km/h
303 04-05-2020 14:00:00 14.725 C 10.21 g/m*3 14.73 C 12.1 km/h
304 04-05-2020 15:00:00 14.33333 C 9.85 g/m*3 14.33 C 8.88333 km/h
305 04-05-2020 16:00:00 14.59167 C 9.28 g/m*3 14.59 C 11.43333 km/h
306 04-05-2020 17:00:00 14.3 C 8.87 g/m*3 14.3 C 11.28333 km/h
307 04-05-2020 18:00:00 14.05833 C 8.52 g/m*3 14.06 C 5.475 km/h
308 04-05-2020 19:00:00 13.45 C 9.03 g/m*3 13.45 C 0.66667 km/h
309 04-05-2020 20:00:00 12.61667 C 9.07 g/m*3 12.62 C 1.73333 km/h
310 04-05-2020 21:00:00 10.54167 C 7.76 g/m*3 10.54 C 1.06667 km/h
311 04-05-2020 22:00:00 8.55 C 7.16 g/m*3 8.55 C 0.93333 km/h
312 04-05-2020 23:00:00 7.25833 C 6.87 g/m*3 7.26 C 2.4 km/h
313 05-05-2020 00:00:00 6.40833 C 6.65 g/m*3 6.41 C 1.33333 km/h
314 05-05-2020 01:00:00 5.625 C 6.46 g/m*3 5.63 C 0 km/h
315 05-05-2020 02:00:00 4.9 C 6.26 g/m*3 4.9 C 0 km/h
316 05-05-2020 03:00:00 4.81667 C 6.3 g/m*3 4.82 C 0.53333 km/h
317 05-05-2020 04:00:00 4.51667 C 6.2 g/m*3 4.52 C 0 km/h
318 05-05-2020 05:00:00 4.23333 C 6.13 g/m*3 4.23 C 0 km/h
319 05-05-2020 06:00:00 4.39167 C 6.22 g/m*3 4.39 C 0 km/h
320 05-05-2020 07:00:00 5.38333 C 6.69 g/m*3 5.38 C 0 km/h
321 05-05-2020 08:00:00 6.54167 C 7.19 g/m*3 6.54 C 0.8 km/h
322 05-05-2020 09:00:00 7.90833 C 7.27 g/m*3 7.18 C 5.61667 km/h
323 05-05-2020 10:00:00 9.675 C 7.07 g/m*3 9.12 C 5.90833 km/h
324 05-05-2020 11:00:00 11.85833 C 7.03 g/m*3 11.86 C 8.33333 km/h
325 05-05-2020 12:00:00 12.825 C 7.11 g/m*3 12.83 C 7.50833 km/h
Sensor: Nr:Datum:Temp:Abs-Feuchte:Windchill:Wind:
Aussen-T/F 326 05-05-2020 13:00:00 13.35833 C 6.97 g/m*3 13.36 C 7.10833 km/h
327 05-05-2020 14:00:00 14.09167 C 6.5 g/m*3 14.09 C 7.24167 km/h
328 05-05-2020 15:00:00 16.15 C 5.81 g/m*3 16.15 C 11.425 km/h
329 05-05-2020 16:00:00 17.71667 C 5.41 g/m*3 17.72 C 9.8 km/h
330 05-05-2020 17:00:00 18.20833 C 4.99 g/m*3 18.21 C 10.21667 km/h
331 05-05-2020 18:00:00 18.11667 C 4.67 g/m*3 18.12 C 10.21667 km/h
332 05-05-2020 19:00:00 17.075 C 4.51 g/m*3 17.08 C 10.09167 km/h
333 05-05-2020 20:00:00 15.075 C 4.86 g/m*3 15.08 C 6.98333 km/h
334 05-05-2020 21:00:00 11.24167 C 5.89 g/m*3 11.24 C 3.6 km/h
335 05-05-2020 22:00:00 9.13333 C 5.8 g/m*3 9.13 C 3.6 km/h
336 05-05-2020 23:00:00 8.15 C 5.65 g/m*3 8.15 C 2.53333 km/h
337 06-05-2020 00:00:00 7.225 C 5.63 g/m*3 7.23 C 2.13333 km/h
338 06-05-2020 01:00:00 5.90833 C 5.55 g/m*3 5.91 C 1.33333 km/h
339 06-05-2020 02:00:00 4.51667 C 5.43 g/m*3 4.52 C 0 km/h
340 06-05-2020 03:00:00 3.55 C 5.3 g/m*3 3.55 C 0 km/h
341 06-05-2020 04:00:00 3.01667 C 5.25 g/m*3 3.02 C 0 km/h
342 06-05-2020 05:00:00 2.55833 C 5.19 g/m*3 2.56 C 0.13333 km/h
343 06-05-2020 06:00:00 2.1 C 5.12 g/m*3 2.1 C 0 km/h
344 06-05-2020 07:00:00 2.43333 C 5.32 g/m*3 2.43 C 0.26667 km/h
345 06-05-2020 08:00:00 3.50833 C 5.78 g/m*3 3.51 C 0.13333 km/h
346 06-05-2020 09:00:00 5.75 C 6.6 g/m*3 5.75 C 0.53333 km/h
347 06-05-2020 10:00:00 9.43333 C 6.4 g/m*3 8.39 C 7.79167 km/h
348 06-05-2020 11:00:00 12.89167 C 4.86 g/m*3 12.89 C 9.80833 km/h
349 06-05-2020 12:00:00 13.75 C 4.66 g/m*3 13.75 C 9.125 km/h
350 06-05-2020 13:00:00 14.6 C 4.97 g/m*3 14.6 C 10.35 km/h
Sensor: Nr:Datum:Temp:Abs-Feuchte:Windchill:Wind:
Aussen-T/F 351 06-05-2020 14:00:00 15.80833 C 4.81 g/m*3 15.81 C 11.15833 km/h
352 06-05-2020 15:00:00 17.31667 C 4.82 g/m*3 17.32 C 11.15833 km/h
353 06-05-2020 16:00:00 18.90833 C 4.97 g/m*3 18.91 C 10.34167 km/h
354 06-05-2020 17:00:00 19.7 C 5.17 g/m*3 19.7 C 7.10833 km/h
355 06-05-2020 18:00:00 20.23333 C 5.27 g/m*3 20.23 C 6.28333 km/h
356 06-05-2020 19:00:00 19.125 C 5.42 g/m*3 19.13 C 4.95 km/h
357 06-05-2020 20:00:00 16.2 C 6.88 g/m*3 16.2 C 5.225 km/h
358 06-05-2020 21:00:00 12.05 C 6.59 g/m*3 12.05 C 5.51667 km/h
359 06-05-2020 22:00:00 9.7 C 6.55 g/m*3 9.7 C 1.86667 km/h
360 06-05-2020 23:00:00 8.04167 C 6.33 g/m*3 8.04 C 0 km/h
361 07-05-2020 00:00:00 6.85833 C 6.16 g/m*3 6.86 C 0.53333 km/h
362 07-05-2020 01:00:00 6.425 C 6.14 g/m*3 6.43 C 0.66667 km/h
363 07-05-2020 02:00:00 5.54167 C 5.99 g/m*3 5.54 C 0 km/h
364 07-05-2020 03:00:00 4.825 C 5.89 g/m*3 4.83 C 0 km/h
365 07-05-2020 04:00:00 4.26667 C 5.78 g/m*3 4.27 C 0 km/h
366 07-05-2020 05:00:00 3.675 C 5.65 g/m*3 3.68 C 0.4 km/h
367 07-05-2020 06:00:00 3.4 C 5.62 g/m*3 3.4 C 0.13333 km/h
368 07-05-2020 07:00:00 3.575 C 5.75 g/m*3 3.58 C 0.13333 km/h
369 07-05-2020 08:00:00 4.40833 C 6.12 g/m*3 4.41 C 0.13333 km/h
370 07-05-2020 09:00:00 6.24167 C 6.91 g/m*3 6.24 C 0 km/h
371 07-05-2020 10:00:00 9.14167 C 7.81 g/m*3 9.14 C 0.8 km/h
372 07-05-2020 11:00:00 13.8 C 7.87 g/m*3 13.8 C 2 km/h
373 07-05-2020 12:00:00 16.45 C 6.5 g/m*3 16.45 C 6.03333 km/h
374 07-05-2020 13:00:00 17.80833 C 6.93 g/m*3 17.81 C 8.46667 km/h
375 07-05-2020 14:00:00 19.06667 C 6.69 g/m*3 19.07 C 7.38333 km/h
Sensor: Nr:Datum:Temp:Abs-Feuchte:Windchill:Wind:
Aussen-T/F 376 07-05-2020 15:00:00 20.79167 C 6.7 g/m*3 20.79 C 7.38333 km/h
377 07-05-2020 16:00:00 22.85833 C 6.95 g/m*3 22.86 C 6.425 km/h
378 07-05-2020 17:00:00 23.225 C 6.84 g/m*3 23.23 C 6.70833 km/h
379 07-05-2020 18:00:00 23.425 C 6.86 g/m*3 23.43 C 6.7 km/h
380 07-05-2020 19:00:00 22.66667 C 7.9 g/m*3 22.67 C 4.54167 km/h
381 07-05-2020 20:00:00 18.3 C 8.22 g/m*3 18.3 C 6.29167 km/h
382 07-05-2020 21:00:00 15.26667 C 8.04 g/m*3 15.27 C 3.86667 km/h
383 07-05-2020 22:00:00 13.04167 C 8.02 g/m*3 13.04 C 0.13333 km/h
384 07-05-2020 23:00:00 11.76667 C 7.73 g/m*3 11.77 C 0.13333 km/h
385 08-05-2020 00:00:00 10.66667 C 7.47 g/m*3 10.67 C 0 km/h
386 08-05-2020 01:00:00 9.825 C 7.45 g/m*3 9.82 C 0.66667 km/h
387 08-05-2020 02:00:00 9.275 C 7.4 g/m*3 9.28 C 0 km/h
388 08-05-2020 03:00:00 8.275 C 7.21 g/m*3 8.28 C 0 km/h
389 08-05-2020 04:00:00 7.61667 C 7.08 g/m*3 7.62 C 0 km/h
390 08-05-2020 05:00:00 7.65 C 7.22 g/m*3 7.65 C 0.4 km/h
391 08-05-2020 06:00:00 7.20833 C 7.08 g/m*3 7.21 C 0.13333 km/h
392 08-05-2020 07:00:00 7.275 C 7.25 g/m*3 7.28 C 0.4 km/h
393 08-05-2020 08:00:00 8.43333 C 7.79 g/m*3 8.43 C 0.13333 km/h
394 08-05-2020 09:00:00 9.88333 C 8.39 g/m*3 9.88 C 0.53333 km/h
395 08-05-2020 10:00:00 12.45833 C 9.17 g/m*3 12.46 C 0.26667 km/h
396 08-05-2020 11:00:00 16.40833 C 9.44 g/m*3 16.41 C 1.6 km/h
397 08-05-2020 12:00:00 19.05833 C 8.07 g/m*3 19.06 C 2.66667 km/h
398 08-05-2020 13:00:00 20.78333 C 7.61 g/m*3 20.78 C 5.49167 km/h
399 08-05-2020 14:00:00 22.25833 C 7.06 g/m*3 22.26 C 6.15833 km/h
400 08-05-2020 15:00:00 23.13333 C 7.01 g/m*3 23.13 C 4.8 km/h
Sensor: Nr:Datum:Temp:Abs-Feuchte:Windchill:Wind:
Aussen-T/F 401 08-05-2020 16:00:00 24.94167 C 6.71 g/m*3 24.94 C 4.81667 km/h
402 08-05-2020 17:00:00 24.59167 C 7.29 g/m*3 24.59 C 4.66667 km/h
403 08-05-2020 18:00:00 24.575 C 7.25 g/m*3 24.58 C 6.01667 km/h
404 08-05-2020 19:00:00 23.51667 C 7.34 g/m*3 23.52 C 6.175 km/h
405 08-05-2020 20:00:00 19.40833 C 8.51 g/m*3 19.41 C 3.2 km/h
406 08-05-2020 21:00:00 16.575 C 8.4 g/m*3 16.58 C 3.86667 km/h
407 08-05-2020 22:00:00 14.98333 C 8.64 g/m*3 14.98 C 0.8 km/h
408 08-05-2020 23:00:00 13.875 C 8.37 g/m*3 13.88 C 0 km/h
409 09-05-2020 00:00:00 12.69167 C 8.09 g/m*3 12.69 C 0 km/h
410 09-05-2020 01:00:00 11.875 C 8.11 g/m*3 11.88 C 0 km/h
411 09-05-2020 02:00:00 11.85 C 8.38 g/m*3 11.85 C 0 km/h
412 09-05-2020 03:00:00 11.29167 C 8.33 g/m*3 11.29 C 0 km/h
413 09-05-2020 04:00:00 9.99167 C 7.82 g/m*3 9.99 C 0 km/h
414 09-05-2020 05:00:00 9.425 C 7.81 g/m*3 9.43 C 0 km/h
415 09-05-2020 06:00:00 9.925 C 8.2 g/m*3 9.93 C 0.26667 km/h
416 09-05-2020 07:00:00 11.175 C 8.65 g/m*3 11.18 C 0 km/h
417 09-05-2020 08:00:00 12.55 C 8.95 g/m*3 12.55 C 0.13333 km/h
418 09-05-2020 09:00:00 14.8 C 9.45 g/m*3 14.8 C 1.06667 km/h
419 09-05-2020 10:00:00 16.65833 C 8.9 g/m*3 16.66 C 3.075 km/h
420 09-05-2020 11:00:00 17.99167 C 8.85 g/m*3 17.99 C 5.48333 km/h
421 09-05-2020 12:00:00 19.55 C 9.1 g/m*3 19.55 C 4.94167 km/h
422 09-05-2020 13:00:00 20.79167 C 9.68 g/m*3 20.79 C 5.21667 km/h
423 09-05-2020 14:00:00 21.06667 C 10.21 g/m*3 21.07 C 5.61667 km/h
424 09-05-2020 15:00:00 20.23333 C 11.24 g/m*3 20.23 C 7.125 km/h
425 09-05-2020 16:00:00 21.25 C 11.65 g/m*3 21.25 C 4.675 km/h
Sensor: Nr:Datum:Temp:Abs-Feuchte:Windchill:Wind:
Aussen-T/F 426 09-05-2020 17:00:00 21.28333 C 11.47 g/m*3 21.28 C 4.95833 km/h
427 09-05-2020 18:00:00 22.2 C 11.8 g/m*3 22.2 C 7.11667 km/h
428 09-05-2020 19:00:00 21.95833 C 11.41 g/m*3 21.96 C 4.41667 km/h
429 09-05-2020 20:00:00 20.21667 C 11.99 g/m*3 20.22 C 2.66667 km/h
430 09-05-2020 21:00:00 16.65 C 11.3 g/m*3 16.65 C 3.73333 km/h
431 09-05-2020 22:00:00 14.53333 C 10.74 g/m*3 14.53 C 2.93333 km/h
432 09-05-2020 23:00:00 13.41667 C 10.34 g/m*3 13.42 C 1.73333 km/h
433 10-05-2020 00:00:00 12.45 C 9.94 g/m*3 12.45 C 0.26667 km/h
434 10-05-2020 01:00:00 11.74167 C 9.58 g/m*3 11.74 C 0 km/h
435 10-05-2020 02:00:00 11.34167 C 9.41 g/m*3 11.34 C 0 km/h
436 10-05-2020 03:00:00 10.90833 C 9.29 g/m*3 10.91 C 0 km/h
437 10-05-2020 04:00:00 10.8 C 9.29 g/m*3 10.8 C 0.13333 km/h
438 10-05-2020 05:00:00 10.9 C 9.44 g/m*3 10.9 C 0.53333 km/h
439 10-05-2020 06:00:00 11.10833 C 9.57 g/m*3 11.11 C 0 km/h
440 10-05-2020 07:00:00 11.6 C 9.9 g/m*3 11.6 C 0 km/h
441 10-05-2020 08:00:00 12.075 C 10.19 g/m*3 12.08 C 0.13333 km/h
442 10-05-2020 09:00:00 12.9 C 10.63 g/m*3 12.9 C 0.53333 km/h
443 10-05-2020 10:00:00 14.68333 C 11.47 g/m*3 14.68 C 0.53333 km/h
444 10-05-2020 11:00:00 17.80833 C 12.45 g/m*3 17.81 C 2 km/h
445 10-05-2020 12:00:00 19.84167 C 12.88 g/m*3 19.84 C 5.49167 km/h
446 10-05-2020 13:00:00 21.11667 C 13.49 g/m*3 21.12 C 5.21667 km/h
447 10-05-2020 14:00:00 22.225 C 13.68 g/m*3 22.23 C 6.55833 km/h
448 10-05-2020 15:00:00 20.58333 C 12.93 g/m*3 20.58 C 7.10833 km/h
449 10-05-2020 16:00:00 19.69167 C 13.15 g/m*3 19.69 C 8.85 km/h
450 10-05-2020 17:00:00 18.26667 C 12.95 g/m*3 18.27 C 3.33333 km/h
Sensor: Nr:Datum:Temp:Abs-Feuchte:Windchill:Wind:
Aussen-T/F 451 10-05-2020 18:00:00 18.63333 C 13.17 g/m*3 18.63 C 2.53333 km/h
452 10-05-2020 19:00:00 18.44167 C 13.43 g/m*3 18.44 C 2.26667 km/h
453 10-05-2020 20:00:00 17.7 C 13.2 g/m*3 17.7 C 0.66667 km/h
454 10-05-2020 21:00:00 16.78333 C 12.83 g/m*3 16.78 C 1.06667 km/h
455 10-05-2020 22:00:00 15.84167 C 12.37 g/m*3 15.84 C 2.13333 km/h
456 10-05-2020 23:00:00 15.61667 C 12.38 g/m*3 15.62 C 0.53333 km/h
457 11-05-2020 00:00:00 15.9 C 12.14 g/m*3 15.9 C 10.075 km/h
458 11-05-2020 01:00:00 14.44167 C 10.55 g/m*3 14.44 C 13.7 km/h
459 11-05-2020 02:00:00 12.51667 C 9.39 g/m*3 12.52 C 14.76667 km/h
460 11-05-2020 03:00:00 10.8 C 8.34 g/m*3 8.9 C 15.03333 km/h
461 11-05-2020 04:00:00 8.78333 C 7.8 g/m*3 6.67 C 13.16667 km/h
462 11-05-2020 05:00:00 7.41667 C 7.36 g/m*3 4.63 C 15.7 km/h
463 11-05-2020 06:00:00 6.79167 C 7.11 g/m*3 4.95 C 9.29167 km/h
464 11-05-2020 07:00:00 6.19167 C 6.77 g/m*3 3.96 C 10.625 km/h
465 11-05-2020 08:00:00 5.8 C 6.67 g/m*3 2.98 C 13.425 km/h
466 11-05-2020 09:00:00 5.38333 C 6.15 g/m*3 1.8 C 17.975 km/h
467 11-05-2020 10:00:00 5.68333 C 6.14 g/m*3 2.77 C 13.83333 km/h
468 11-05-2020 11:00:00 6.16667 C 5.98 g/m*3 2.99 C 16.36667 km/h
469 11-05-2020 12:00:00 6.775 C 6.01 g/m*3 3.68 C 16.90833 km/h
470 11-05-2020 13:00:00 7.65 C 5.85 g/m*3 4.69 C 17.56667 km/h
471 11-05-2020 14:00:00 8.975 C 5.57 g/m*3 6.22 C 18.63333 km/h
472 11-05-2020 15:00:00 11.125 C 5.67 g/m*3 11.13 C 21.18333 km/h
473 11-05-2020 16:00:00 12.23333 C 5.51 g/m*3 12.23 C 24.14167 km/h
474 11-05-2020 17:00:00 12.16667 C 5.22 g/m*3 12.17 C 21.84167 km/h
475 11-05-2020 18:00:00 11.63333 C 4.98 g/m*3 11.63 C 20.78333 km/h
Sensor: Nr:Datum:Temp:Abs-Feuchte:Windchill:Wind:
Aussen-T/F 476 11-05-2020 19:00:00 11.625 C 4.88 g/m*3 11.63 C 19.04167 km/h
477 11-05-2020 20:00:00 10.9 C 4.67 g/m*3 8.96 C 15.56667 km/h
478 11-05-2020 21:00:00 9.975 C 4.54 g/m*3 8.54 C 10.35 km/h
479 11-05-2020 22:00:00 9.34167 C 5 g/m*3 9.34 C 3.06667 km/h
480 11-05-2020 23:00:00 7.56667 C 5.45 g/m*3 7.57 C 0.8 km/h
481 12-05-2020 00:00:00 5.375 C 5.19 g/m*3 5.38 C 2.4 km/h
482 12-05-2020 01:00:00 4.10833 C 4.99 g/m*3 4.11 C 2 km/h
483 12-05-2020 02:00:00 4.15 C 4.86 g/m*3 4.15 C 3.73333 km/h
484 12-05-2020 03:00:00 2.98333 C 4.75 g/m*3 1.65 C 5.34167 km/h
485 12-05-2020 04:00:00 2.43333 C 4.68 g/m*3 0.76 C 6.025 km/h
486 12-05-2020 05:00:00 2.01667 C 4.63 g/m*3 2.02 C 4.29167 km/h
487 12-05-2020 06:00:00 1.14167 C 4.56 g/m*3 1.14 C 0.26667 km/h
488 12-05-2020 07:00:00 1.29167 C 4.78 g/m*3 1.29 C 0.4 km/h
489 12-05-2020 08:00:00 2.49167 C 5.2 g/m*3 2.49 C 0.4 km/h
490 12-05-2020 09:00:00 4.41667 C 5.59 g/m*3 4.42 C 0.66667 km/h
491 12-05-2020 10:00:00 7.05 C 5.51 g/m*3 7.05 C 3.75 km/h
492 12-05-2020 11:00:00 9.075 C 5.03 g/m*3 8.36 C 6.175 km/h
493 12-05-2020 12:00:00 9.925 C 4.14 g/m*3 8.72 C 9.025 km/h
494 12-05-2020 13:00:00 10.93333 C 4.11 g/m*3 9.92 C 9 km/h
495 12-05-2020 14:00:00 12.06667 C 4.67 g/m*3 12.07 C 10.21667 km/h
496 12-05-2020 15:00:00 13.10833 C 4.97 g/m*3 13.11 C 11.29167 km/h
497 12-05-2020 16:00:00 14.075 C 5.11 g/m*3 14.08 C 9.14167 km/h
498 12-05-2020 17:00:00 14.19167 C 5.25 g/m*3 14.19 C 9.15 km/h
499 12-05-2020 18:00:00 14.98333 C 5.36 g/m*3 14.98 C 7.38333 km/h
500 12-05-2020 19:00:00 13.53333 C 5.25 g/m*3 13.53 C 6.56667 km/h
Sensor: Nr:Datum:Temp:Abs-Feuchte:Windchill:Wind:
Aussen-T/F 501 12-05-2020 20:00:00 11.91667 C 5.68 g/m*3 11.92 C 2.53333 km/h
502 12-05-2020 21:00:00 8.88333 C 5.86 g/m*3 8.88 C 1.6 km/h
503 12-05-2020 22:00:00 7.41667 C 5.55 g/m*3 7.42 C 4 km/h
504 12-05-2020 23:00:00 6.675 C 5.53 g/m*3 6.68 C 4.675 km/h
505 13-05-2020 00:00:00 5.56667 C 5.53 g/m*3 5.57 C 0.26667 km/h
506 13-05-2020 01:00:00 4.23333 C 5.34 g/m*3 4.23 C 0 km/h
507 13-05-2020 02:00:00 3.325 C 5.18 g/m*3 3.33 C 0.13333 km/h
508 13-05-2020 03:00:00 2.66667 C 5.11 g/m*3 2.67 C 0.13333 km/h
509 13-05-2020 04:00:00 2.14167 C 5.04 g/m*3 2.14 C 0.26667 km/h
510 13-05-2020 05:00:00 2.05833 C 5.12 g/m*3 2.06 C 0.13333 km/h
511 13-05-2020 06:00:00 2.91667 C 5.44 g/m*3 2.92 C 0.8 km/h
512 13-05-2020 07:00:00 3.74167 C 5.62 g/m*3 3.74 C 2.93333 km/h
513 13-05-2020 08:00:00 5.33333 C 5.88 g/m*3 5.33 C 1.33333 km/h
514 13-05-2020 09:00:00 6.41667 C 6.27 g/m*3 6.42 C 0.66667 km/h
515 13-05-2020 10:00:00 8.96667 C 6.02 g/m*3 8.97 C 2.53333 km/h
516 13-05-2020 11:00:00 11.75 C 5.9 g/m*3 11.75 C 7.1 km/h
517 13-05-2020 12:00:00 13.05 C 5.69 g/m*3 13.05 C 8.475 km/h
518 13-05-2020 13:00:00 13.64167 C 5.89 g/m*3 13.64 C 10.60833 km/h
519 13-05-2020 14:00:00 14.16667 C 5.83 g/m*3 14.17 C 10.08333 km/h
520 13-05-2020 15:00:00 14.65 C 5.77 g/m*3 14.65 C 13.43333 km/h
521 13-05-2020 16:00:00 14.875 C 5.68 g/m*3 14.88 C 11.55833 km/h
522 13-05-2020 17:00:00 14.58333 C 5.64 g/m*3 14.58 C 10.625 km/h
523 13-05-2020 18:00:00 13.725 C 5.46 g/m*3 13.73 C 11.025 km/h
524 13-05-2020 19:00:00 12.9 C 5.41 g/m*3 12.9 C 8.875 km/h
525 13-05-2020 20:00:00 12.8 C 5.54 g/m*3 12.8 C 4.93333 km/h
Sensor: Nr:Datum:Temp:Abs-Feuchte:Windchill:Wind:
Aussen-T/F 526 13-05-2020 21:00:00 11.775 C 6.06 g/m*3 11.78 C 8.06667 km/h
527 13-05-2020 22:00:00 10.10833 C 6.65 g/m*3 9.27 C 7.375 km/h
528 13-05-2020 23:00:00 8.83333 C 6.47 g/m*3 7.91 C 6.84167 km/h
529 14-05-2020 00:00:00 8.14167 C 6.35 g/m*3 6.66 C 8.74167 km/h
530 14-05-2020 01:00:00 7.41667 C 6.14 g/m*3 7.42 C 4.825 km/h
531 14-05-2020 02:00:00 6.325 C 6.01 g/m*3 6.33 C 3.475 km/h
532 14-05-2020 03:00:00 6.225 C 6.06 g/m*3 6.23 C 2 km/h
533 14-05-2020 04:00:00 6.075 C 6.02 g/m*3 6.08 C 2.4 km/h
534 14-05-2020 05:00:00 5.85833 C 5.97 g/m*3 4.93 C 5.35 km/h
535 14-05-2020 06:00:00 5.05833 C 5.81 g/m*3 5.06 C 2 km/h
536 14-05-2020 07:00:00 4.64167 C 5.89 g/m*3 4.64 C 3.21667 km/h
537 14-05-2020 08:00:00 6.58333 C 6.1 g/m*3 5.08 C 7.64167 km/h
538 14-05-2020 09:00:00 7.775 C 6.1 g/m*3 6.55 C 7.36667 km/h
539 14-05-2020 10:00:00 9.075 C 6.17 g/m*3 8.03 C 7.50833 km/h
540 14-05-2020 11:00:00 10.89167 C 6.24 g/m*3 9.8 C 9.4 km/h
541 14-05-2020 12:00:00 12.19167 C 6.17 g/m*3 12.19 C 11.425 km/h
542 14-05-2020 13:00:00 13.35 C 6.12 g/m*3 13.35 C 11.29167 km/h
543 14-05-2020 14:00:00 14.15 C 5.88 g/m*3 14.15 C 8.58333 km/h
544 14-05-2020 15:00:00 14.40833 C 5.82 g/m*3 14.41 C 8.19167 km/h
545 14-05-2020 16:00:00 14.88333 C 5.68 g/m*3 14.88 C 11.3 km/h
546 14-05-2020 17:00:00 14.39167 C 5.71 g/m*3 14.39 C 13.96667 km/h
547 14-05-2020 18:00:00 14.85833 C 5.71 g/m*3 14.86 C 13.3 km/h
548 14-05-2020 19:00:00 14.79167 C 5.69 g/m*3 14.79 C 5.23333 km/h
549 14-05-2020 20:00:00 11.91667 C 6.06 g/m*3 11.92 C 2.13333 km/h
550 14-05-2020 21:00:00 9.2 C 5.71 g/m*3 9.2 C 2.66667 km/h
Sensor: Nr:Datum:Temp:Abs-Feuchte:Windchill:Wind:
Aussen-T/F 551 14-05-2020 22:00:00 7.80833 C 5.56 g/m*3 7.81 C 3.46667 km/h
552 14-05-2020 23:00:00 7.11667 C 5.49 g/m*3 6.41 C 5.20833 km/h
553 15-05-2020 00:00:00 6.325 C 5.5 g/m*3 6.33 C 2.8 km/h
554 15-05-2020 01:00:00 5.45 C 5.43 g/m*3 5.45 C 3.73333 km/h
555 15-05-2020 02:00:00 5.125 C 5.29 g/m*3 4.2 C 5.06667 km/h
556 15-05-2020 03:00:00 4.26667 C 5.19 g/m*3 4.27 C 0.66667 km/h
557 15-05-2020 04:00:00 3.48333 C 5.1 g/m*3 3.48 C 0.26667 km/h
558 15-05-2020 05:00:00 2.50833 C 4.98 g/m*3 2.51 C 0 km/h
559 15-05-2020 06:00:00 2.15 C 5.02 g/m*3 2.15 C 0 km/h
560 15-05-2020 07:00:00 3.15833 C 5.4 g/m*3 3.16 C 1.2 km/h
561 15-05-2020 08:00:00 4.925 C 5.79 g/m*3 4.93 C 2.53333 km/h
562 15-05-2020 09:00:00 7.46667 C 6.02 g/m*3 6.85 C 5.08333 km/h
563 15-05-2020 10:00:00 10.51667 C 6.06 g/m*3 10.06 C 6.03333 km/h
564 15-05-2020 11:00:00 12.88333 C 5.97 g/m*3 12.88 C 9.11667 km/h
565 15-05-2020 12:00:00 14.1 C 5.46 g/m*3 14.1 C 13.825 km/h
566 15-05-2020 13:00:00 14.91667 C 5.69 g/m*3 14.92 C 10.88333 km/h
567 15-05-2020 14:00:00 16.00833 C 5.85 g/m*3 16.01 C 10.75833 km/h
568 15-05-2020 15:00:00 17.775 C 5.78 g/m*3 17.77 C 13.025 km/h
569 15-05-2020 16:00:00 18.525 C 5.64 g/m*3 18.52 C 14.23333 km/h
570 15-05-2020 17:00:00 18.55 C 5.34 g/m*3 18.55 C 11.83333 km/h
571 15-05-2020 18:00:00 18.05833 C 5.25 g/m*3 18.06 C 11.56667 km/h
572 15-05-2020 19:00:00 17.35833 C 5.03 g/m*3 17.36 C 9.825 km/h
573 15-05-2020 20:00:00 15.7 C 5.16 g/m*3 15.7 C 4.675 km/h
574 15-05-2020 21:00:00 12.11667 C 5.62 g/m*3 12.12 C 4.14167 km/h
575 15-05-2020 22:00:00 10.10833 C 5.85 g/m*3 10.11 C 3.2 km/h
Sensor: Nr:Datum:Temp:Abs-Feuchte:Windchill:Wind:
Aussen-T/F 576 15-05-2020 23:00:00 8.90833 C 5.88 g/m*3 8.91 C 2 km/h
577 16-05-2020 00:00:00 7.76667 C 5.7 g/m*3 7.77 C 3.06667 km/h
578 16-05-2020 01:00:00 6.21667 C 5.65 g/m*3 6.22 C 0.13333 km/h
579 16-05-2020 02:00:00 4.8 C 5.5 g/m*3 4.8 C 0 km/h
580 16-05-2020 03:00:00 4 C 5.43 g/m*3 4 C 0 km/h
581 16-05-2020 04:00:00 3.375 C 5.35 g/m*3 3.38 C 0 km/h
582 16-05-2020 05:00:00 2.86667 C 5.28 g/m*3 2.87 C 0.13333 km/h
583 16-05-2020 06:00:00 2.6 C 5.27 g/m*3 2.6 C 0 km/h
584 16-05-2020 07:00:00 2.98333 C 5.49 g/m*3 2.98 C 0 km/h
585 16-05-2020 08:00:00 4.275 C 6 g/m*3 4.28 C 0.4 km/h
586 16-05-2020 09:00:00 6.35 C 6.72 g/m*3 6.35 C 0 km/h
587 16-05-2020 10:00:00 9.875 C 6.95 g/m*3 9.88 C 1.2 km/h
588 16-05-2020 11:00:00 13.58333 C 6.17 g/m*3 13.58 C 6.71667 km/h
589 16-05-2020 12:00:00 14.65 C 6 g/m*3 14.65 C 7.375 km/h
590 16-05-2020 13:00:00 15.65833 C 6.04 g/m*3 15.66 C 7.11667 km/h
591 16-05-2020 14:00:00 17.03333 C 5.99 g/m*3 17.03 C 9 km/h
592 16-05-2020 15:00:00 18.6 C 5.7 g/m*3 18.6 C 9.95 km/h
593 16-05-2020 16:00:00 19.85833 C 6.14 g/m*3 19.86 C 7.51667 km/h
594 16-05-2020 17:00:00 18.875 C 6.28 g/m*3 18.88 C 4.41667 km/h
595 16-05-2020 18:00:00 19.41667 C 6.32 g/m*3 19.42 C 7.38333 km/h
596 16-05-2020 19:00:00 18.58333 C 6.47 g/m*3 18.58 C 6.56667 km/h
597 16-05-2020 20:00:00 17.54167 C 6.7 g/m*3 17.54 C 4.66667 km/h
598 16-05-2020 21:00:00 14.28333 C 7.11 g/m*3 14.28 C 2.26667 km/h
599 16-05-2020 22:00:00 12.81667 C 6.99 g/m*3 12.82 C 6.41667 km/h
600 16-05-2020 23:00:00 12.16667 C 7.05 g/m*3 12.17 C 4.54167 km/h
Sensor: Nr:Datum:Temp:Abs-Feuchte:Windchill:Wind:
Aussen-T/F 601 17-05-2020 00:00:00 11.31667 C 7.09 g/m*3 11.32 C 3.46667 km/h
602 17-05-2020 01:00:00 9.85833 C 6.99 g/m*3 9.86 C 3.73333 km/h
603 17-05-2020 02:00:00 9.14167 C 6.89 g/m*3 8.67 C 5.35833 km/h
604 17-05-2020 03:00:00 8.625 C 6.98 g/m*3 8.63 C 3.74167 km/h
605 17-05-2020 04:00:00 8.25833 C 6.97 g/m*3 8.26 C 3.6 km/h
606 17-05-2020 05:00:00 7.18333 C 6.78 g/m*3 7.18 C 3.6 km/h
607 17-05-2020 06:00:00 6.70833 C 6.68 g/m*3 6.71 C 3.6 km/h
608 17-05-2020 07:00:00 6.93333 C 6.84 g/m*3 6.93 C 1.73333 km/h
609 17-05-2020 08:00:00 7.49167 C 7.11 g/m*3 7.49 C 0.8 km/h
610 17-05-2020 09:00:00 9.96667 C 7.33 g/m*3 9.97 C 4.40833 km/h
611 17-05-2020 10:00:00 12.21667 C 7.06 g/m*3 12.22 C 7.50833 km/h
612 17-05-2020 11:00:00 13.23333 C 7.02 g/m*3 13.23 C 6.15833 km/h
613 17-05-2020 12:00:00 14.25833 C 6.92 g/m*3 14.26 C 7.79167 km/h
614 17-05-2020 13:00:00 15.35833 C 6.86 g/m*3 15.36 C 8.73333 km/h
615 17-05-2020 14:00:00 16.85 C 6.76 g/m*3 16.85 C 8.725 km/h
616 17-05-2020 15:00:00 18.625 C 6.59 g/m*3 18.63 C 8.74167 km/h
617 17-05-2020 16:00:00 20.13333 C 6.52 g/m*3 20.13 C 10.35833 km/h
618 17-05-2020 17:00:00 20.69167 C 6.24 g/m*3 20.69 C 9.80833 km/h
619 17-05-2020 18:00:00 20.95833 C 6.5 g/m*3 20.96 C 7.94167 km/h
620 17-05-2020 19:00:00 20.00833 C 6.5 g/m*3 20.01 C 5.89167 km/h
621 17-05-2020 20:00:00 18.46667 C 6.92 g/m*3 18.47 C 3.34167 km/h
622 17-05-2020 21:00:00 14.75833 C 7.22 g/m*3 14.76 C 6.99167 km/h
623 17-05-2020 22:00:00 12.99167 C 7.1 g/m*3 12.99 C 4.81667 km/h
624 17-05-2020 23:00:00 10.73333 C 7.14 g/m*3 10.73 C 0 km/h
625 18-05-2020 00:00:00 9.35 C 7.01 g/m*3 9.35 C 0.4 km/h
Sensor: Nr:Datum:Temp:Abs-Feuchte:Windchill:Wind:
Aussen-T/F 626 18-05-2020 01:00:00 8.54167 C 6.93 g/m*3 8.54 C 0.26667 km/h
627 18-05-2020 02:00:00 7.95 C 6.86 g/m*3 7.95 C 0.66667 km/h
628 18-05-2020 03:00:00 7.16667 C 6.74 g/m*3 7.17 C 0.13333 km/h
629 18-05-2020 04:00:00 6.60833 C 6.62 g/m*3 6.61 C 0.26667 km/h
630 18-05-2020 05:00:00 6.04167 C 6.5 g/m*3 6.04 C 0.66667 km/h
631 18-05-2020 06:00:00 5.925 C 6.56 g/m*3 5.93 C 0 km/h
632 18-05-2020 07:00:00 6.7 C 6.99 g/m*3 6.7 C 0.13333 km/h
633 18-05-2020 08:00:00 8.125 C 7.67 g/m*3 8.13 C 0 km/h
634 18-05-2020 09:00:00 10.525 C 8.51 g/m*3 10.53 C 0 km/h
635 18-05-2020 10:00:00 13.975 C 8.99 g/m*3 13.98 C 2.40833 km/h
636 18-05-2020 11:00:00 18.925 C 8.22 g/m*3 18.93 C 7.24167 km/h
637 18-05-2020 12:00:00 20.225 C 8.23 g/m*3 20.23 C 9.26667 km/h
638 18-05-2020 13:00:00 21.45 C 8.1 g/m*3 21.45 C 10.74167 km/h
639 18-05-2020 14:00:00 22.80833 C 8.11 g/m*3 22.81 C 9.94167 km/h
640 18-05-2020 15:00:00 24.43333 C 8.29 g/m*3 24.43 C 9.28333 km/h
641 18-05-2020 16:00:00 25.59167 C 8.39 g/m*3 25.59 C 10.225 km/h
642 18-05-2020 17:00:00 25.86667 C 8.64 g/m*3 25.87 C 9.80833 km/h
643 18-05-2020 18:00:00 26.05 C 9.24 g/m*3 26.05 C 8.875 km/h
644 18-05-2020 19:00:00 24.85 C 9.61 g/m*3 24.85 C 8.075 km/h
645 18-05-2020 20:00:00 22.89167 C 9.91 g/m*3 22.89 C 5.21667 km/h
646 18-05-2020 21:00:00 19.43333 C 9.89 g/m*3 19.43 C 4.95833 km/h
647 18-05-2020 22:00:00 17.025 C 9.73 g/m*3 17.02 C 5.625 km/h
648 18-05-2020 23:00:00 15.69167 C 9.68 g/m*3 15.69 C 4.80833 km/h
649 19-05-2020 00:00:00 13.85833 C 9.28 g/m*3 13.86 C 0.26667 km/h
650 19-05-2020 01:00:00 12.08333 C 8.96 g/m*3 12.08 C 2 km/h
Sensor: Nr:Datum:Temp:Abs-Feuchte:Windchill:Wind:
Aussen-T/F 651 19-05-2020 02:00:00 11.03333 C 8.53 g/m*3 11.03 C 1.06667 km/h
652 19-05-2020 03:00:00 9.825 C 8.16 g/m*3 9.82 C 0 km/h
653 19-05-2020 04:00:00 8.89167 C 7.92 g/m*3 8.89 C 1.46667 km/h
654 19-05-2020 05:00:00 8.31667 C 7.64 g/m*3 8.32 C 0.66667 km/h
655 19-05-2020 06:00:00 8.125 C 7.62 g/m*3 8.13 C 0.53333 km/h
656 19-05-2020 07:00:00 8.35 C 7.78 g/m*3 8.35 C 0.13333 km/h
657 19-05-2020 08:00:00 9.29167 C 8.29 g/m*3 9.29 C 0.53333 km/h
658 19-05-2020 09:00:00 11.55833 C 9.12 g/m*3 11.56 C 0.4 km/h
659 19-05-2020 10:00:00 15.025 C 8.71 g/m*3 15.03 C 1.46667 km/h
660 19-05-2020 11:00:00 19.51667 C 7.64 g/m*3 19.52 C 4.00833 km/h
661 19-05-2020 12:00:00 20.34167 C 7.13 g/m*3 20.34 C 3.33333 km/h
662 19-05-2020 13:00:00 21.75 C 7.16 g/m*3 21.75 C 9.54167 km/h
663 19-05-2020 14:00:00 23.225 C 7.69 g/m*3 23.23 C 11.425 km/h
664 19-05-2020 15:00:00 24.11667 C 8.58 g/m*3 24.12 C 11.7 km/h
665 19-05-2020 16:00:00 24.61667 C 9.07 g/m*3 24.62 C 14.76667 km/h
666 19-05-2020 17:00:00 25.26667 C 9.62 g/m*3 25.27 C 13.7 km/h
667 19-05-2020 18:00:00 25.43333 C 9.81 g/m*3 25.43 C 13.03333 km/h
668 19-05-2020 19:00:00 24.35 C 10.12 g/m*3 24.35 C 9.83333 km/h
669 19-05-2020 20:00:00 21.79167 C 10.45 g/m*3 21.79 C 5.75833 km/h
670 19-05-2020 21:00:00 19.225 C 10.53 g/m*3 19.23 C 2.4 km/h
671 19-05-2020 22:00:00 17 C 10.24 g/m*3 17 C 4.13333 km/h
672 19-05-2020 23:00:00 15.58333 C 10.21 g/m*3 15.58 C 0.8 km/h
673 20-05-2020 00:00:00 14.90833 C 10.32 g/m*3 14.91 C 0 km/h
674 20-05-2020 01:00:00 13.65833 C 9.9 g/m*3 13.66 C 0 km/h
675 20-05-2020 02:00:00 12.825 C 9.73 g/m*3 12.83 C 0.4 km/h
Sensor: Nr:Datum:Temp:Abs-Feuchte:Windchill:Wind:
Aussen-T/F 676 20-05-2020 03:00:00 12.25833 C 9.61 g/m*3 12.26 C 1.60833 km/h
677 20-05-2020 04:00:00 11.91667 C 9.58 g/m*3 11.92 C 2.28333 km/h
678 20-05-2020 05:00:00 11.3 C 9.31 g/m*3 11.3 C 0.26667 km/h
679 20-05-2020 06:00:00 11.45 C 9.49 g/m*3 11.45 C 0.13333 km/h
680 20-05-2020 07:00:00 11.975 C 9.89 g/m*3 11.98 C 2.26667 km/h
681 20-05-2020 08:00:00 14.78333 C 10.99 g/m*3 14.78 C 7.25 km/h
682 20-05-2020 09:00:00 16.96667 C 11.25 g/m*3 16.97 C 8.33333 km/h
683 20-05-2020 10:00:00 18.60833 C 11.47 g/m*3 18.61 C 8.88333 km/h
684 20-05-2020 11:00:00 19.60833 C 11.5 g/m*3 19.61 C 10.225 km/h
685 20-05-2020 12:00:00 20.25 C 11.53 g/m*3 20.25 C 9.80833 km/h
686 20-05-2020 13:00:00 21.15 C 11.43 g/m*3 21.15 C 11.29167 km/h
687 20-05-2020 14:00:00 21.89167 C 11.44 g/m*3 21.89 C 12.23333 km/h
688 20-05-2020 15:00:00 23.225 C 11.5 g/m*3 23.23 C 9.81667 km/h
689 20-05-2020 16:00:00 24.25 C 11.13 g/m*3 24.25 C 11.95833 km/h
690 20-05-2020 17:00:00 24.525 C 11.04 g/m*3 24.53 C 11.68333 km/h
691 20-05-2020 18:00:00 24.51667 C 10.85 g/m*3 24.52 C 8.75 km/h
692 20-05-2020 19:00:00 23.55 C 10.82 g/m*3 23.55 C 8.88333 km/h
693 20-05-2020 20:00:00 21.93333 C 10.78 g/m*3 21.93 C 4.8 km/h
694 20-05-2020 21:00:00 19.30833 C 10.73 g/m*3 19.31 C 4.40833 km/h
695 20-05-2020 22:00:00 16.49167 C 10.5 g/m*3 16.49 C 2.93333 km/h
696 20-05-2020 23:00:00 15.35 C 10.25 g/m*3 15.35 C 0.93333 km/h
697 21-05-2020 00:00:00 14.55 C 9.98 g/m*3 14.55 C 1.86667 km/h
698 21-05-2020 01:00:00 14.6 C 9.89 g/m*3 14.6 C 2.66667 km/h
699 21-05-2020 02:00:00 13.16667 C 9.63 g/m*3 13.17 C 4 km/h
700 21-05-2020 03:00:00 12.43333 C 9.51 g/m*3 12.43 C 2.93333 km/h
Sensor: Nr:Datum:Temp:Abs-Feuchte:Windchill:Wind:
Aussen-T/F 701 21-05-2020 04:00:00 11.41667 C 9.15 g/m*3 11.42 C 0.26667 km/h
702 21-05-2020 05:00:00 10.575 C 8.91 g/m*3 10.58 C 0 km/h
703 21-05-2020 06:00:00 10.25833 C 8.88 g/m*3 10.26 C 0 km/h
704 21-05-2020 07:00:00 10.675 C 9.23 g/m*3 10.68 C 0 km/h
705 21-05-2020 08:00:00 11.78333 C 9.99 g/m*3 11.78 C 0.4 km/h
706 21-05-2020 09:00:00 13.89167 C 11.05 g/m*3 13.89 C 0.66667 km/h
707 21-05-2020 10:00:00 17.70833 C 11.75 g/m*3 17.71 C 4.83333 km/h
708 21-05-2020 11:00:00 21.23333 C 11.7 g/m*3 21.23 C 10.75833 km/h
709 21-05-2020 12:00:00 22.15833 C 11.47 g/m*3 22.16 C 8.06667 km/h
710 21-05-2020 13:00:00 23.24167 C 11.48 g/m*3 23.24 C 7.90833 km/h
711 21-05-2020 14:00:00 24.625 C 11.76 g/m*3 24.63 C 7.525 km/h
712 21-05-2020 15:00:00 26.85833 C 11.66 g/m*3 26.86 C 7.25833 km/h
713 21-05-2020 16:00:00 28.06667 C 11.3 g/m*3 28.07 C 7.93333 km/h
714 21-05-2020 17:00:00 28.7 C 10.83 g/m*3 28.7 C 7.93333 km/h
715 21-05-2020 18:00:00 28.06667 C 10.62 g/m*3 28.07 C 7.65 km/h
716 21-05-2020 19:00:00 28.08333 C 11.45 g/m*3 28.08 C 4.26667 km/h
717 21-05-2020 20:00:00 25.30833 C 12.57 g/m*3 25.31 C 2.4 km/h
718 21-05-2020 21:00:00 21.2 C 12.06 g/m*3 21.2 C 5.08333 km/h
719 21-05-2020 22:00:00 19.1 C 11.87 g/m*3 19.1 C 5.075 km/h
720 21-05-2020 23:00:00 18.675 C 11.71 g/m*3 18.68 C 2.8 km/h
721 22-05-2020 00:00:00 17.55833 C 11.37 g/m*3 17.56 C 1.2 km/h
722 22-05-2020 01:00:00 16.225 C 11.03 g/m*3 16.23 C 0 km/h
723 22-05-2020 02:00:00 15.3 C 10.99 g/m*3 15.3 C 0 km/h
724 22-05-2020 03:00:00 14.60833 C 10.76 g/m*3 14.61 C 0 km/h
725 22-05-2020 04:00:00 13.58333 C 10.41 g/m*3 13.58 C 0 km/h
Sensor: Nr:Datum:Temp:Abs-Feuchte:Windchill:Wind:
Aussen-T/F 726 22-05-2020 05:00:00 12.95 C 10.3 g/m*3 12.95 C 0 km/h
727 22-05-2020 06:00:00 13.25 C 10.73 g/m*3 13.25 C 0 km/h
728 22-05-2020 07:00:00 14.95 C 11.81 g/m*3 14.95 C 0 km/h
729 22-05-2020 08:00:00 17.55833 C 12.5 g/m*3 17.56 C 3.86667 km/h
730 22-05-2020 09:00:00 19.91667 C 12.96 g/m*3 19.92 C 6.175 km/h
731 22-05-2020 10:00:00 21.65 C 13.66 g/m*3 21.65 C 1.06667 km/h
732 22-05-2020 11:00:00 23.675 C 13.88 g/m*3 23.68 C 6.85 km/h
733 22-05-2020 12:00:00 24.51667 C 13.65 g/m*3 24.52 C 7.64167 km/h
734 22-05-2020 13:00:00 25.15833 C 14.19 g/m*3 25.16 C 6.05 km/h
735 22-05-2020 14:00:00 26.25833 C 14.22 g/m*3 26.26 C 8.05 km/h
736 22-05-2020 15:00:00 26.36667 C 13.5 g/m*3 26.37 C 11.96667 km/h
737 22-05-2020 16:00:00 26.08333 C 13.55 g/m*3 26.08 C 12.23333 km/h
738 22-05-2020 17:00:00 26.23333 C 13.89 g/m*3 26.23 C 7.375 km/h
739 22-05-2020 18:00:00 25.11667 C 14.48 g/m*3 25.12 C 7.79167 km/h
740 22-05-2020 19:00:00 24.275 C 14.16 g/m*3 24.28 C 7.65833 km/h
741 22-05-2020 20:00:00 21.25833 C 13.84 g/m*3 21.26 C 13.15833 km/h
742 22-05-2020 21:00:00 18.35 C 13.6 g/m*3 18.35 C 3.08333 km/h
743 22-05-2020 22:00:00 17.5 C 13.73 g/m*3 17.5 C 1.86667 km/h
744 22-05-2020 23:00:00 17.09167 C 13.63 g/m*3 17.09 C 2.4 km/h
745 23-05-2020 00:00:00 16.7 C 13.45 g/m*3 16.7 C 1.86667 km/h
746 23-05-2020 01:00:00 16.125 C 12.95 g/m*3 16.13 C 1.86667 km/h
747 23-05-2020 02:00:00 14.2 C 11.47 g/m*3 14.2 C 4.80833 km/h
748 23-05-2020 03:00:00 13.65833 C 11.22 g/m*3 13.66 C 4.68333 km/h
749 23-05-2020 04:00:00 13.66667 C 11.32 g/m*3 13.67 C 4.95 km/h
750 23-05-2020 05:00:00 12.01667 C 10.11 g/m*3 12.02 C 8.75833 km/h
Sensor: Nr:Datum:Temp:Abs-Feuchte:Windchill:Wind:
Aussen-T/F 751 23-05-2020 06:00:00 11.6 C 9.94 g/m*3 11.6 C 5.23333 km/h
752 23-05-2020 07:00:00 12.35 C 10.48 g/m*3 12.35 C 2.53333 km/h
753 23-05-2020 08:00:00 13.06667 C 10.94 g/m*3 13.07 C 1.6 km/h
754 23-05-2020 09:00:00 12.975 C 10.76 g/m*3 12.98 C 3.875 km/h
755 23-05-2020 10:00:00 12.5 C 10.04 g/m*3 12.5 C 8.16667 km/h
756 23-05-2020 11:00:00 11.89167 C 9.74 g/m*3 11.89 C 7.51667 km/h
757 23-05-2020 12:00:00 12.325 C 9.72 g/m*3 12.33 C 7.51667 km/h
758 23-05-2020 13:00:00 12.91667 C 9.88 g/m*3 12.92 C 8.6 km/h
759 23-05-2020 14:00:00 13.71667 C 9.9 g/m*3 13.72 C 11.825 km/h
760 23-05-2020 15:00:00 14.925 C 10.02 g/m*3 14.93 C 14.23333 km/h
761 23-05-2020 16:00:00 15.95833 C 9.83 g/m*3 15.96 C 11.425 km/h
762 23-05-2020 17:00:00 15.81667 C 10.05 g/m*3 15.82 C 12.63333 km/h
763 23-05-2020 18:00:00 15.925 C 10.18 g/m*3 15.93 C 11.69167 km/h
764 23-05-2020 19:00:00 15.40833 C 9.96 g/m*3 15.41 C 11.03333 km/h
765 23-05-2020 20:00:00 14.66667 C 9.81 g/m*3 14.67 C 10.35 km/h
766 23-05-2020 21:00:00 13.24167 C 9.35 g/m*3 13.24 C 8.45833 km/h
767 23-05-2020 22:00:00 11.91667 C 8.97 g/m*3 11.92 C 6.84167 km/h
768 23-05-2020 23:00:00 11.05 C 8.78 g/m*3 11.05 C 5.23333 km/h
769 24-05-2020 00:00:00 10.48333 C 8.62 g/m*3 10.48 C 4.00833 km/h
770 24-05-2020 01:00:00 10.13333 C 8.32 g/m*3 10.13 C 4.14167 km/h
771 24-05-2020 02:00:00 10.18333 C 7.87 g/m*3 9.26 C 7.8 km/h
772 24-05-2020 03:00:00 10.46667 C 7.77 g/m*3 9.32 C 9.26667 km/h
773 24-05-2020 04:00:00 10.30833 C 7.6 g/m*3 9.2 C 8.875 km/h
774 24-05-2020 05:00:00 10.21667 C 7.6 g/m*3 8.51 C 12.5 km/h
775 24-05-2020 06:00:00 10.25833 C 7.76 g/m*3 9.35 C 7.8 km/h
Sensor: Nr:Datum:Temp:Abs-Feuchte:Windchill:Wind:
Aussen-T/F 776 24-05-2020 07:00:00 10.3 C 7.86 g/m*3 8.98 C 10.075 km/h
777 24-05-2020 08:00:00 11.14167 C 8.16 g/m*3 11.14 C 9.55 km/h
778 24-05-2020 09:00:00 12.74167 C 8.58 g/m*3 12.74 C 13.15833 km/h
779 24-05-2020 10:00:00 14.41667 C 8.86 g/m*3 14.42 C 13.3 km/h
780 24-05-2020 11:00:00 15.55 C 8.19 g/m*3 15.55 C 11.69167 km/h
781 24-05-2020 12:00:00 16.83333 C 8.02 g/m*3 16.83 C 13.7 km/h
782 24-05-2020 13:00:00 17.54167 C 8.06 g/m*3 17.54 C 12.23333 km/h
783 24-05-2020 14:00:00 17.00833 C 8.16 g/m*3 17.01 C 11.83333 km/h
784 24-05-2020 15:00:00 16.89167 C 8.46 g/m*3 16.89 C 12.1 km/h
785 24-05-2020 16:00:00 16.65833 C 8.85 g/m*3 16.66 C 13.43333 km/h
786 24-05-2020 17:00:00 16.64167 C 9.15 g/m*3 16.64 C 9.68333 km/h
787 24-05-2020 18:00:00 16.14167 C 9.7 g/m*3 16.14 C 8.06667 km/h
788 24-05-2020 19:00:00 14.50833 C 10.45 g/m*3 14.51 C 2.26667 km/h
789 24-05-2020 20:00:00 14.75 C 10.33 g/m*3 14.75 C 6.175 km/h
790 24-05-2020 21:00:00 14.65833 C 10.17 g/m*3 14.66 C 3.88333 km/h
791 24-05-2020 22:00:00 14.13333 C 10.15 g/m*3 14.13 C 3.46667 km/h
792 24-05-2020 23:00:00 14.08333 C 10.15 g/m*3 14.08 C 3.74167 km/h
793 25-05-2020 00:00:00 13.525 C 10.14 g/m*3 13.53 C 1.46667 km/h
794 25-05-2020 01:00:00 13 C 10.05 g/m*3 13 C 0.8 km/h
795 25-05-2020 02:00:00 12.93333 C 10.05 g/m*3 12.93 C 1.86667 km/h
796 25-05-2020 03:00:00 13.275 C 10.11 g/m*3 13.28 C 2.26667 km/h
797 25-05-2020 04:00:00 13.30833 C 10.07 g/m*3 13.31 C 2.4 km/h
798 25-05-2020 05:00:00 13.24167 C 10.06 g/m*3 13.24 C 1.86667 km/h
799 25-05-2020 06:00:00 13.3 C 10.16 g/m*3 13.3 C 1.06667 km/h
800 25-05-2020 07:00:00 13.8 C 10.32 g/m*3 13.8 C 3.61667 km/h
Sensor: Nr:Datum:Temp:Abs-Feuchte:Windchill:Wind:
Aussen-T/F 801 25-05-2020 08:00:00 14.68333 C 10.43 g/m*3 14.68 C 6.45 km/h
802 25-05-2020 09:00:00 15.45 C 10.53 g/m*3 15.45 C 8.45833 km/h
803 25-05-2020 10:00:00 15.89167 C 10.5 g/m*3 15.89 C 11.56667 km/h
804 25-05-2020 11:00:00 16.48333 C 10.54 g/m*3 16.48 C 9.69167 km/h
805 25-05-2020 12:00:00 17.05833 C 10.49 g/m*3 17.06 C 11.43333 km/h
806 25-05-2020 13:00:00 17.56667 C 10.38 g/m*3 17.57 C 9.7 km/h
807 25-05-2020 14:00:00 18.04167 C 10.18 g/m*3 18.04 C 11.025 km/h
808 25-05-2020 15:00:00 18.49167 C 10.19 g/m*3 18.49 C 11.68333 km/h
809 25-05-2020 16:00:00 19.775 C 10.15 g/m*3 19.77 C 15.03333 km/h
810 25-05-2020 17:00:00 20.46667 C 10.29 g/m*3 20.47 C 12.35833 km/h
811 25-05-2020 18:00:00 20.41667 C 10.14 g/m*3 20.42 C 11.3 km/h
812 25-05-2020 19:00:00 20.03333 C 9.62 g/m*3 20.03 C 11.825 km/h
813 25-05-2020 20:00:00 18.81667 C 9.38 g/m*3 18.82 C 6.3 km/h
814 25-05-2020 21:00:00 16.50833 C 9.25 g/m*3 16.51 C 1.06667 km/h
815 25-05-2020 22:00:00 13.975 C 9.1 g/m*3 13.98 C 1.06667 km/h
816 25-05-2020 23:00:00 12.48333 C 8.84 g/m*3 12.48 C 0.13333 km/h
817 26-05-2020 00:00:00 11.04167 C 8.56 g/m*3 11.04 C 0 km/h
818 26-05-2020 01:00:00 9.83333 C 8.24 g/m*3 9.83 C 0 km/h
819 26-05-2020 02:00:00 8.75833 C 7.9 g/m*3 8.76 C 0 km/h
820 26-05-2020 03:00:00 8.13333 C 7.73 g/m*3 8.13 C 0 km/h
821 26-05-2020 04:00:00 7.71667 C 7.62 g/m*3 7.72 C 0 km/h
822 26-05-2020 05:00:00 7.34167 C 7.47 g/m*3 7.34 C 0 km/h
823 26-05-2020 06:00:00 7.3 C 7.51 g/m*3 7.3 C 0 km/h
824 26-05-2020 07:00:00 7.74167 C 7.76 g/m*3 7.74 C 0 km/h
825 26-05-2020 08:00:00 8.825 C 8.37 g/m*3 8.82 C 0 km/h
Sensor: Nr:Datum:Temp:Abs-Feuchte:Windchill:Wind:
Aussen-T/F 826 26-05-2020 09:00:00 10.41667 C 9.23 g/m*3 10.42 C 0.13333 km/h
827 26-05-2020 10:00:00 13.96667 C 9.69 g/m*3 13.97 C 4.55833 km/h
828 26-05-2020 11:00:00 16.83333 C 9.13 g/m*3 16.83 C 7.51667 km/h
829 26-05-2020 12:00:00 18.05 C 8.61 g/m*3 18.05 C 8.6 km/h
830 26-05-2020 13:00:00 18.89167 C 8.45 g/m*3 18.89 C 10.49167 km/h
831 26-05-2020 14:00:00 19.84167 C 8.56 g/m*3 19.84 C 11.28333 km/h
832 26-05-2020 15:00:00 21.475 C 8.77 g/m*3 21.48 C 10.63333 km/h
833 26-05-2020 16:00:00 22.18333 C 8.99 g/m*3 22.18 C 9.93333 km/h
834 26-05-2020 17:00:00 22.55 C 9.21 g/m*3 22.55 C 8.71667 km/h
835 26-05-2020 18:00:00 22.99167 C 9.28 g/m*3 22.99 C 9.81667 km/h
836 26-05-2020 19:00:00 21.80833 C 8.91 g/m*3 21.81 C 8.875 km/h
837 26-05-2020 20:00:00 20.13333 C 9.22 g/m*3 20.13 C 4.825 km/h
838 26-05-2020 21:00:00 16.51667 C 8.97 g/m*3 16.52 C 3.73333 km/h
839 26-05-2020 22:00:00 14.61667 C 8.79 g/m*3 14.62 C 3.6 km/h
840 26-05-2020 23:00:00 13.05833 C 8.66 g/m*3 13.06 C 0 km/h
841 27-05-2020 00:00:00 11.75833 C 8.49 g/m*3 11.76 C 0 km/h
842 27-05-2020 01:00:00 10.675 C 8.2 g/m*3 10.68 C 0 km/h
843 27-05-2020 02:00:00 9.75 C 8.01 g/m*3 9.75 C 0 km/h
844 27-05-2020 03:00:00 9.25833 C 7.92 g/m*3 9.26 C 0 km/h
845 27-05-2020 04:00:00 8.6 C 7.77 g/m*3 8.6 C 0 km/h
846 27-05-2020 05:00:00 7.93333 C 7.55 g/m*3 7.93 C 0 km/h
847 27-05-2020 06:00:00 7.98333 C 7.69 g/m*3 7.98 C 0 km/h
848 27-05-2020 07:00:00 8.35833 C 7.95 g/m*3 8.36 C 0 km/h
849 27-05-2020 08:00:00 9.49167 C 8.57 g/m*3 9.49 C 0 km/h
850 27-05-2020 09:00:00 11.275 C 9.48 g/m*3 11.28 C 0 km/h
Sensor: Nr:Datum:Temp:Abs-Feuchte:Windchill:Wind:
Aussen-T/F 851 27-05-2020 10:00:00 15.03333 C 10.25 g/m*3 15.03 C 0.93333 km/h
852 27-05-2020 11:00:00 19.08333 C 8.71 g/m*3 19.08 C 6.56667 km/h
853 27-05-2020 12:00:00 20.35833 C 7.88 g/m*3 20.36 C 9.28333 km/h
854 27-05-2020 13:00:00 21.125 C 7.84 g/m*3 21.13 C 8.33333 km/h
855 27-05-2020 14:00:00 22.14167 C 7.55 g/m*3 22.14 C 8.48333 km/h
856 27-05-2020 15:00:00 24 C 6.91 g/m*3 24 C 8.06667 km/h
857 27-05-2020 16:00:00 25.45 C 7.52 g/m*3 25.45 C 7.925 km/h
858 27-05-2020 17:00:00 26.05833 C 8.16 g/m*3 26.06 C 8.06667 km/h
859 27-05-2020 18:00:00 25.3 C 8.6 g/m*3 25.3 C 5.23333 km/h
860 27-05-2020 19:00:00 23.89167 C 8.69 g/m*3 23.89 C 6.71667 km/h
861 27-05-2020 20:00:00 22.9 C 8.99 g/m*3 22.9 C 6.85 km/h
862 27-05-2020 21:00:00 20.225 C 9.51 g/m*3 20.23 C 4.40833 km/h
863 27-05-2020 22:00:00 18.30833 C 9.62 g/m*3 18.31 C 2.66667 km/h
864 27-05-2020 23:00:00 16.70833 C 9.82 g/m*3 16.71 C 3.6 km/h
865 28-05-2020 00:00:00 15.59167 C 9.86 g/m*3 15.59 C 2.13333 km/h
866 28-05-2020 01:00:00 15.71667 C 9.91 g/m*3 15.72 C 2.8 km/h
867 28-05-2020 02:00:00 15.44167 C 10 g/m*3 15.44 C 0.8 km/h
868 28-05-2020 03:00:00 15.21667 C 10.11 g/m*3 15.22 C 1.33333 km/h
869 28-05-2020 04:00:00 15.13333 C 9.86 g/m*3 15.13 C 2.40833 km/h
870 28-05-2020 05:00:00 13.75 C 8.77 g/m*3 13.75 C 2.93333 km/h
871 28-05-2020 06:00:00 12.64167 C 8.44 g/m*3 12.64 C 2.8 km/h
872 28-05-2020 07:00:00 12.56667 C 8.36 g/m*3 12.57 C 3.61667 km/h
873 28-05-2020 08:00:00 13.58333 C 8.38 g/m*3 13.58 C 8.60833 km/h
874 28-05-2020 09:00:00 14.50833 C 8.68 g/m*3 14.51 C 4.80833 km/h
875 28-05-2020 10:00:00 16.475 C 8.62 g/m*3 16.48 C 5.21667 km/h
Sensor: Nr:Datum:Temp:Abs-Feuchte:Windchill:Wind:
Aussen-T/F 876 28-05-2020 11:00:00 18.35 C 7.02 g/m*3 18.35 C 10.49167 km/h
877 28-05-2020 12:00:00 18.95 C 7.22 g/m*3 18.95 C 11.81667 km/h
878 28-05-2020 13:00:00 19.69167 C 7.19 g/m*3 19.69 C 10.06667 km/h
879 28-05-2020 14:00:00 20.875 C 6.7 g/m*3 20.88 C 12.48333 km/h
880 28-05-2020 15:00:00 22.25833 C 6.25 g/m*3 22.26 C 14.36667 km/h
881 28-05-2020 16:00:00 23.41667 C 5.86 g/m*3 23.42 C 15.56667 km/h
882 28-05-2020 17:00:00 23.61667 C 5.64 g/m*3 23.62 C 15.56667 km/h
883 28-05-2020 18:00:00 23.45833 C 5.49 g/m*3 23.46 C 15.7 km/h
884 28-05-2020 19:00:00 22.11667 C 5.58 g/m*3 22.12 C 16.63333 km/h
885 28-05-2020 20:00:00 20.70833 C 5.73 g/m*3 20.71 C 12.5 km/h
886 28-05-2020 21:00:00 18.46667 C 6.29 g/m*3 18.47 C 5.24167 km/h
887 28-05-2020 22:00:00 14.53333 C 6.66 g/m*3 14.53 C 0.93333 km/h
888 28-05-2020 23:00:00 12.725 C 6.75 g/m*3 12.73 C 3.06667 km/h
889 29-05-2020 00:00:00 11.64167 C 6.84 g/m*3 11.64 C 2.13333 km/h
890 29-05-2020 01:00:00 10.325 C 6.81 g/m*3 10.33 C 0.13333 km/h
891 29-05-2020 02:00:00 9.21667 C 6.76 g/m*3 9.22 C 0 km/h
892 29-05-2020 03:00:00 8.15833 C 6.67 g/m*3 8.16 C 0 km/h
893 29-05-2020 04:00:00 7.36667 C 6.63 g/m*3 7.37 C 0 km/h
894 29-05-2020 05:00:00 6.81667 C 6.61 g/m*3 6.82 C 0.13333 km/h
895 29-05-2020 06:00:00 6.75 C 6.74 g/m*3 6.75 C 0 km/h
896 29-05-2020 07:00:00 7.325 C 7.12 g/m*3 7.33 C 0 km/h
897 29-05-2020 08:00:00 8.75833 C 7.78 g/m*3 8.76 C 0 km/h
898 29-05-2020 09:00:00 11.33333 C 8.45 g/m*3 11.33 C 0.66667 km/h
899 29-05-2020 10:00:00 16.325 C 8.46 g/m*3 16.33 C 6.95833 km/h
900 29-05-2020 11:00:00 18.86667 C 7.68 g/m*3 18.87 C 13.025 km/h
Sensor: Nr:Datum:Temp:Abs-Feuchte:Windchill:Wind:
Aussen-T/F 901 29-05-2020 12:00:00 19.23333 C 7.01 g/m*3 19.23 C 12.89167 km/h
902 29-05-2020 13:00:00 20.00833 C 6.79 g/m*3 20.01 C 14.36667 km/h
903 29-05-2020 14:00:00 20.7 C 6.96 g/m*3 20.7 C 13.96667 km/h
904 29-05-2020 15:00:00 22.11667 C 7.08 g/m*3 22.12 C 12.225 km/h
905 29-05-2020 16:00:00 23.10833 C 7 g/m*3 23.11 C 12.23333 km/h
906 29-05-2020 17:00:00 23.25833 C 7.02 g/m*3 23.26 C 9.66667 km/h
907 29-05-2020 18:00:00 23.49167 C 6.5 g/m*3 23.49 C 13.83333 km/h
908 29-05-2020 19:00:00 22.7 C 5.96 g/m*3 22.7 C 10.225 km/h
909 29-05-2020 20:00:00 21.45833 C 6.02 g/m*3 21.46 C 5.225 km/h
910 29-05-2020 21:00:00 17.75 C 6.81 g/m*3 17.75 C 3.06667 km/h
911 29-05-2020 22:00:00 14.65833 C 6.38 g/m*3 14.66 C 4.95 km/h
912 29-05-2020 23:00:00 13.61667 C 6.67 g/m*3 13.62 C 4.275 km/h
913 30-05-2020 00:00:00 13.125 C 6.94 g/m*3 13.13 C 2.26667 km/h
914 30-05-2020 01:00:00 12.29167 C 6.86 g/m*3 12.29 C 2.4 km/h
915 30-05-2020 02:00:00 11.275 C 6.8 g/m*3 11.28 C 1.86667 km/h
916 30-05-2020 03:00:00 10.55833 C 6.71 g/m*3 10.56 C 2.66667 km/h
917 30-05-2020 04:00:00 9.63333 C 6.69 g/m*3 9.63 C 2.4 km/h
918 30-05-2020 05:00:00 8.675 C 6.69 g/m*3 8.68 C 0 km/h
919 30-05-2020 06:00:00 8.11667 C 6.89 g/m*3 8.12 C 0 km/h
920 30-05-2020 07:00:00 8.61667 C 7.34 g/m*3 8.62 C 0 km/h
921 30-05-2020 08:00:00 10.175 C 7.97 g/m*3 10.18 C 0.13333 km/h
922 30-05-2020 09:00:00 13.26667 C 8.38 g/m*3 13.27 C 3.36667 km/h
923 30-05-2020 10:00:00 18.24167 C 7.8 g/m*3 18.24 C 9.825 km/h
924 30-05-2020 11:00:00 19.325 C 6.78 g/m*3 19.33 C 20.24167 km/h
925 30-05-2020 12:00:00 19.71667 C 6.81 g/m*3 19.72 C 15.7 km/h
Sensor: Nr:Datum:Temp:Abs-Feuchte:Windchill:Wind:
Aussen-T/F 926 30-05-2020 13:00:00 20.275 C 6.89 g/m*3 20.27 C 18.36667 km/h
927 30-05-2020 14:00:00 21.1 C 6.76 g/m*3 21.1 C 16.23333 km/h
928 30-05-2020 15:00:00 22.05 C 6.97 g/m*3 22.05 C 15.15833 km/h
929 30-05-2020 16:00:00 22.44167 C 7.05 g/m*3 22.44 C 19.7 km/h
930 30-05-2020 17:00:00 22.36667 C 6.81 g/m*3 22.37 C 18.23333 km/h
931 30-05-2020 18:00:00 21.54167 C 7.07 g/m*3 21.54 C 11.14167 km/h
932 30-05-2020 19:00:00 20.35 C 7.35 g/m*3 20.35 C 8.2 km/h
933 30-05-2020 20:00:00 19.51667 C 7.14 g/m*3 19.52 C 3.89167 km/h
934 30-05-2020 21:00:00 16.59167 C 6.99 g/m*3 16.59 C 1.6 km/h
935 30-05-2020 22:00:00 14.08333 C 6.83 g/m*3 14.08 C 3.2 km/h
936 30-05-2020 23:00:00 13.325 C 6.74 g/m*3 13.33 C 4.53333 km/h
937 31-05-2020 00:00:00 12.18333 C 6.84 g/m*3 12.18 C 3.2 km/h
938 31-05-2020 01:00:00 10.56667 C 6.89 g/m*3 10.57 C 0.8 km/h
939 31-05-2020 02:00:00 9.41667 C 6.84 g/m*3 9.42 C 0 km/h
940 31-05-2020 03:00:00 8.5 C 6.83 g/m*3 8.5 C 0 km/h
941 31-05-2020 04:00:00 8.9 C 7.15 g/m*3 8.9 C 0 km/h
942 31-05-2020 05:00:00 9.11667 C 7.31 g/m*3 9.12 C 0.13333 km/h
943 31-05-2020 06:00:00 8.63333 C 7.19 g/m*3 8.63 C 0.26667 km/h
944 31-05-2020 07:00:00 8.4 C 7.44 g/m*3 8.4 C 0 km/h
945 31-05-2020 08:00:00 10.375 C 8.24 g/m*3 10.38 C 0.13333 km/h
946 31-05-2020 09:00:00 12.8 C 8.55 g/m*3 12.8 C 2.41667 km/h
947 31-05-2020 10:00:00 16.09167 C 7.68 g/m*3 16.09 C 10.875 km/h
948 31-05-2020 11:00:00 17.45 C 7.47 g/m*3 17.45 C 13.16667 km/h
949 31-05-2020 12:00:00 17.825 C 7.16 g/m*3 17.83 C 12.76667 km/h
950 31-05-2020 13:00:00 18.775 C 6.9 g/m*3 18.77 C 12.75833 km/h
Sensor: Nr:Datum:Temp:Abs-Feuchte:Windchill:Wind:
Aussen-T/F 951 31-05-2020 14:00:00 19.7 C 7.16 g/m*3 19.7 C 17.03333 km/h
952 31-05-2020 15:00:00 20.88333 C 7.73 g/m*3 20.88 C 15.43333 km/h
953 31-05-2020 16:00:00 21.35 C 7.93 g/m*3 21.35 C 14.49167 km/h
954 31-05-2020 17:00:00 21.60833 C 7.72 g/m*3 21.61 C 15.425 km/h
955 31-05-2020 18:00:00 21.86667 C 7.66 g/m*3 21.87 C 14.36667 km/h
956 31-05-2020 19:00:00 21.2 C 7.63 g/m*3 21.2 C 11.43333 km/h
957 31-05-2020 20:00:00 20.3 C 7.89 g/m*3 20.3 C 7.24167 km/h
958 31-05-2020 21:00:00 17.84167 C 8.18 g/m*3 17.84 C 2.4 km/h
959 31-05-2020 22:00:00 15.11667 C 8.01 g/m*3 15.12 C 2 km/h
960 31-05-2020 23:00:00 13.88333 C 7.94 g/m*3 13.88 C 1.33333 km/h
961 01-06-2020 00:00:00 12.99167 C 7.88 g/m*3 12.99 C 3.2 km/h
962 01-06-2020 01:00:00 11.89167 C 7.84 g/m*3 11.89 C 1.33333 km/h
963 01-06-2020 02:00:00 10.68333 C 7.72 g/m*3 10.68 C 0 km/h
964 01-06-2020 03:00:00 9.95 C 7.64 g/m*3 9.95 C 0 km/h
965 01-06-2020 04:00:00 9.19167 C 7.52 g/m*3 9.19 C 0 km/h
966 01-06-2020 05:00:00 8.53333 C 7.44 g/m*3 8.53 C 0 km/h
967 01-06-2020 06:00:00 8.45 C 7.6 g/m*3 8.45 C 0 km/h
968 01-06-2020 07:00:00 9.125 C 8.1 g/m*3 9.13 C 0 km/h
969 01-06-2020 08:00:00 10.675 C 8.9 g/m*3 10.68 C 0.4 km/h
970 01-06-2020 09:00:00 14.175 C 9.59 g/m*3 14.18 C 3.20833 km/h
971 01-06-2020 10:00:00 18.43333 C 9.77 g/m*3 18.43 C 6.975 km/h
972 01-06-2020 11:00:00 21.175 C 9.31 g/m*3 21.18 C 7.65 km/h
973 01-06-2020 12:00:00 22.375 C 9.22 g/m*3 22.38 C 10.225 km/h
974 01-06-2020 13:00:00 23.23333 C 9.34 g/m*3 23.23 C 10.88333 km/h
975 01-06-2020 14:00:00 24.26667 C 9.15 g/m*3 24.27 C 11.29167 km/h
Sensor: Nr:Datum:Temp:Abs-Feuchte:Windchill:Wind:
Aussen-T/F 976 01-06-2020 15:00:00 25.64167 C 8.91 g/m*3 25.64 C 12.5 km/h
977 01-06-2020 16:00:00 26.86667 C 8.83 g/m*3 26.87 C 12.35833 km/h
978 01-06-2020 17:00:00 26.975 C 8.91 g/m*3 26.98 C 13.3 km/h
979 01-06-2020 18:00:00 27.04167 C 8.79 g/m*3 27.04 C 12.9 km/h
980 01-06-2020 19:00:00 26.13333 C 8.77 g/m*3 26.13 C 12.63333 km/h
981 01-06-2020 20:00:00 25.04167 C 9.56 g/m*3 25.04 C 6.7 km/h
982 01-06-2020 21:00:00 21.15833 C 8.92 g/m*3 21.16 C 4.28333 km/h
983 01-06-2020 22:00:00 18.5 C 8.31 g/m*3 18.5 C 4.4 km/h
984 01-06-2020 23:00:00 16.43333 C 8.45 g/m*3 16.43 C 2 km/h
985 02-06-2020 00:00:00 16.1 C 8.53 g/m*3 16.1 C 1.6 km/h
986 02-06-2020 01:00:00 15.44167 C 8.48 g/m*3 15.44 C 2.8 km/h
987 02-06-2020 02:00:00 14.21667 C 8.52 g/m*3 14.22 C 1.33333 km/h
988 02-06-2020 03:00:00 12.66667 C 8.44 g/m*3 12.67 C 0 km/h
989 02-06-2020 04:00:00 11.31667 C 8.34 g/m*3 11.32 C 0 km/h
990 02-06-2020 05:00:00 10.60833 C 8.3 g/m*3 10.61 C 0.26667 km/h
991 02-06-2020 06:00:00 10.6 C 8.56 g/m*3 10.6 C 0.13333 km/h
992 02-06-2020 07:00:00 11.075 C 8.92 g/m*3 11.08 C 0.26667 km/h
993 02-06-2020 08:00:00 12.39167 C 9.57 g/m*3 12.39 C 0 km/h
994 02-06-2020 09:00:00 14.75833 C 10.37 g/m*3 14.76 C 0 km/h
995 02-06-2020 10:00:00 19.225 C 10.53 g/m*3 19.23 C 4.025 km/h
996 02-06-2020 11:00:00 23 C 9.51 g/m*3 23 C 8.60833 km/h
997 02-06-2020 12:00:00 23.95833 C 9.35 g/m*3 23.96 C 11.025 km/h
998 02-06-2020 13:00:00 25.10833 C 9.53 g/m*3 25.11 C 9.26667 km/h
999 02-06-2020 14:00:00 26.29167 C 9.28 g/m*3 26.29 C 12.35833 km/h
1000 02-06-2020 15:00:00 27.96667 C 9.07 g/m*3 27.97 C 9.8 km/h
Sensor: Nr:Datum:Temp:Abs-Feuchte:Windchill:Wind:
Aussen-T/F 1001 02-06-2020 16:00:00 29.26667 C 8.84 g/m*3 29.27 C 9.28333 km/h
1002 02-06-2020 17:00:00 30.33333 C 8.57 g/m*3 30.33 C 6.69167 km/h
1003 02-06-2020 18:00:00 28.85 C 8.55 g/m*3 28.85 C 7.11667 km/h
1004 02-06-2020 19:00:00 28.41667 C 9.6 g/m*3 28.42 C 4.01667 km/h
1005 02-06-2020 20:00:00 24.4 C 10.07 g/m*3 24.4 C 5.6 km/h
1006 02-06-2020 21:00:00 21.53333 C 9.27 g/m*3 21.53 C 5.74167 km/h
1007 02-06-2020 22:00:00 19.28333 C 9.45 g/m*3 19.28 C 1.2 km/h
1008 02-06-2020 23:00:00 17.6 C 9.55 g/m*3 17.6 C 0 km/h
1009 03-06-2020 00:00:00 16.41667 C 9.35 g/m*3 16.42 C 0 km/h
1010 03-06-2020 01:00:00 15.61667 C 9.54 g/m*3 15.62 C 2.675 km/h
1011 03-06-2020 02:00:00 15.58333 C 9.82 g/m*3 15.58 C 0.93333 km/h
1012 03-06-2020 03:00:00 14.60833 C 9.81 g/m*3 14.61 C 0.26667 km/h
1013 03-06-2020 04:00:00 14.075 C 9.82 g/m*3 14.08 C 0 km/h
1014 03-06-2020 05:00:00 14 C 9.85 g/m*3 14 C 0.13333 km/h
1015 03-06-2020 06:00:00 13.65 C 9.89 g/m*3 13.65 C 0 km/h
1016 03-06-2020 07:00:00 14.20833 C 10.52 g/m*3 14.21 C 0 km/h
1017 03-06-2020 08:00:00 15.79167 C 11.26 g/m*3 15.79 C 0.26667 km/h
1018 03-06-2020 09:00:00 18.18333 C 11.15 g/m*3 18.18 C 0.93333 km/h
1019 03-06-2020 10:00:00 20.725 C 10.74 g/m*3 20.73 C 2.66667 km/h
1020 03-06-2020 11:00:00 23.15833 C 9.71 g/m*3 23.16 C 5.49167 km/h
1021 03-06-2020 12:00:00 24.21667 C 9.51 g/m*3 24.22 C 7.10833 km/h
1022 03-06-2020 13:00:00 25.38333 C 9.41 g/m*3 25.38 C 9.16667 km/h
1023 03-06-2020 14:00:00 23.54167 C 9.43 g/m*3 23.54 C 12.35 km/h
1024 03-06-2020 15:00:00 24.125 C 9.7 g/m*3 24.13 C 7.25 km/h
1025 03-06-2020 16:00:00 26.66667 C 9.22 g/m*3 26.67 C 7.1 km/h
Sensor: Nr:Datum:Temp:Abs-Feuchte:Windchill:Wind:
Aussen-T/F 1026 03-06-2020 17:00:00 26.85 C 9.53 g/m*3 26.85 C 6.58333 km/h
1027 03-06-2020 18:00:00 25.325 C 9.57 g/m*3 25.33 C 4.80833 km/h
1028 03-06-2020 19:00:00 25.55 C 10.07 g/m*3 25.55 C 3.74167 km/h
1029 03-06-2020 20:00:00 24.35 C 9.88 g/m*3 24.35 C 3.46667 km/h
1030 03-06-2020 21:00:00 21.14167 C 10.33 g/m*3 21.14 C 4.4 km/h
1031 03-06-2020 22:00:00 18.875 C 10.19 g/m*3 18.88 C 4.275 km/h
1032 03-06-2020 23:00:00 17.15833 C 10.27 g/m*3 17.16 C 2.4 km/h
1033 04-06-2020 00:00:00 18.2 C 11.22 g/m*3 18.2 C 8.6 km/h
1034 04-06-2020 01:00:00 17.51667 C 11.99 g/m*3 17.52 C 9.95833 km/h
1035 04-06-2020 02:00:00 15.65 C 11.93 g/m*3 15.65 C 6.84167 km/h
1036 04-06-2020 03:00:00 14.91667 C 11.82 g/m*3 14.92 C 0.66667 km/h
1037 04-06-2020 04:00:00 14.79167 C 11.9 g/m*3 14.79 C 1.46667 km/h
1038 04-06-2020 05:00:00 14.54167 C 11.73 g/m*3 14.54 C 0.93333 km/h
1039 04-06-2020 06:00:00 14.3 C 11.67 g/m*3 14.3 C 0 km/h
1040 04-06-2020 07:00:00 14.46667 C 11.82 g/m*3 14.47 C 0 km/h
1041 04-06-2020 08:00:00 14.625 C 12.03 g/m*3 14.63 C 0 km/h
1042 04-06-2020 09:00:00 14.93333 C 12.26 g/m*3 14.93 C 0 km/h
1043 04-06-2020 10:00:00 15.125 C 12.4 g/m*3 15.13 C 0.26667 km/h
1044 04-06-2020 11:00:00 15.8 C 12.92 g/m*3 15.8 C 1.06667 km/h
1045 04-06-2020 12:00:00 15.80833 C 12.68 g/m*3 15.81 C 2.26667 km/h
1046 04-06-2020 13:00:00 16.41667 C 12.45 g/m*3 16.42 C 5.49167 km/h
1047 04-06-2020 14:00:00 15.34167 C 11.95 g/m*3 15.34 C 4.41667 km/h
1048 04-06-2020 15:00:00 15.19167 C 11.92 g/m*3 15.19 C 7.11667 km/h
1049 04-06-2020 16:00:00 15.1 C 11.69 g/m*3 15.1 C 7.65833 km/h
1050 04-06-2020 17:00:00 14.625 C 11.19 g/m*3 14.63 C 11.675 km/h
Sensor: Nr:Datum:Temp:Abs-Feuchte:Windchill:Wind:
Aussen-T/F 1051 04-06-2020 18:00:00 13.65 C 10.59 g/m*3 13.65 C 6.03333 km/h
1052 04-06-2020 19:00:00 13.14167 C 10.57 g/m*3 13.14 C 1.73333 km/h
1053 04-06-2020 20:00:00 12.75 C 10.33 g/m*3 12.75 C 3.475 km/h
1054 04-06-2020 21:00:00 12.39167 C 9.96 g/m*3 12.39 C 5.08333 km/h
1055 04-06-2020 22:00:00 11.69167 C 9.68 g/m*3 11.69 C 5.075 km/h
1056 04-06-2020 23:00:00 11.16667 C 9.51 g/m*3 11.17 C 4.66667 km/h
1057 05-06-2020 00:00:00 11.18333 C 9.38 g/m*3 11.18 C 4.95 km/h
1058 05-06-2020 01:00:00 11.05 C 9.05 g/m*3 11.05 C 4.95 km/h
1059 05-06-2020 02:00:00 11 C 8.62 g/m*3 10.75 C 5.5 km/h
1060 05-06-2020 03:00:00 10.53333 C 8.54 g/m*3 10.53 C 2 km/h
1061 05-06-2020 04:00:00 9.48333 C 8.16 g/m*3 9.48 C 3.46667 km/h
1062 05-06-2020 05:00:00 8.925 C 8.17 g/m*3 8.93 C 1.33333 km/h
1063 05-06-2020 06:00:00 9.375 C 8.37 g/m*3 9.38 C 2.66667 km/h
1064 05-06-2020 07:00:00 10.14167 C 8.5 g/m*3 9.89 C 5.1 km/h
1065 05-06-2020 08:00:00 10.775 C 8.61 g/m*3 10.25 C 6.45 km/h
1066 05-06-2020 09:00:00 11.74167 C 8.83 g/m*3 11.74 C 9.275 km/h
1067 05-06-2020 10:00:00 12.7 C 8.97 g/m*3 12.7 C 8.19167 km/h
1068 05-06-2020 11:00:00 13.93333 C 8.79 g/m*3 13.93 C 13.83333 km/h
1069 05-06-2020 12:00:00 14.4 C 8.8 g/m*3 14.4 C 11.55 km/h
1070 05-06-2020 13:00:00 14.175 C 8.66 g/m*3 14.18 C 13.96667 km/h
1071 05-06-2020 14:00:00 13.70833 C 9.3 g/m*3 13.71 C 13.41667 km/h
1072 05-06-2020 15:00:00 13.725 C 10.11 g/m*3 13.73 C 11.14167 km/h
1073 05-06-2020 16:00:00 12.61667 C 9.79 g/m*3 12.62 C 16.90833 km/h
1074 05-06-2020 17:00:00 12.20833 C 9.91 g/m*3 12.21 C 9.81667 km/h
1075 05-06-2020 18:00:00 11.525 C 9.24 g/m*3 11.53 C 11.675 km/h
Sensor: Nr:Datum:Temp:Abs-Feuchte:Windchill:Wind:
Aussen-T/F 1076 05-06-2020 19:00:00 11.49167 C 9.33 g/m*3 11.49 C 8.325 km/h
1077 05-06-2020 20:00:00 11.225 C 8.89 g/m*3 11.23 C 7.25 km/h
1078 05-06-2020 21:00:00 10.4 C 8.51 g/m*3 9.28 C 9.00833 km/h
1079 05-06-2020 22:00:00 10.15 C 8.27 g/m*3 8.89 C 9.53333 km/h
1080 05-06-2020 23:00:00 9.8 C 8.1 g/m*3 8.68 C 8.45833 km/h
1081 06-06-2020 00:00:00 9.66667 C 7.87 g/m*3 8.55 C 8.325 km/h
1082 06-06-2020 01:00:00 9.15833 C 7.72 g/m*3 8.57 C 5.75 km/h
1083 06-06-2020 02:00:00 8.34167 C 7.56 g/m*3 7.48 C 6.29167 km/h
1084 06-06-2020 03:00:00 8.04167 C 7.62 g/m*3 8.04 C 3.33333 km/h
1085 06-06-2020 04:00:00 8.53333 C 7.91 g/m*3 8.53 C 3.35 km/h
1086 06-06-2020 05:00:00 8.6 C 7.89 g/m*3 8.6 C 1.46667 km/h
1087 06-06-2020 06:00:00 8.96667 C 8.18 g/m*3 8.97 C 3.46667 km/h
1088 06-06-2020 07:00:00 10.39167 C 8.67 g/m*3 8.85 C 11.55833 km/h
1089 06-06-2020 08:00:00 11.35833 C 8.74 g/m*3 11.36 C 10.20833 km/h
1090 06-06-2020 09:00:00 12.55 C 8.96 g/m*3 12.55 C 14.23333 km/h
1091 06-06-2020 10:00:00 13.29167 C 9.33 g/m*3 13.29 C 11.40833 km/h
1092 06-06-2020 11:00:00 12.6 C 9.97 g/m*3 12.6 C 2.68333 km/h
1093 06-06-2020 12:00:00 12.73333 C 10.04 g/m*3 12.73 C 9.525 km/h
1094 06-06-2020 13:00:00 12.55833 C 9.72 g/m*3 12.56 C 6.7 km/h
1095 06-06-2020 14:00:00 14.05 C 10.01 g/m*3 14.05 C 9.675 km/h
1096 06-06-2020 15:00:00 15.2 C 10.42 g/m*3 15.2 C 8.89167 km/h
1097 06-06-2020 16:00:00 17.225 C 10.34 g/m*3 17.23 C 14.76667 km/h
1098 06-06-2020 17:00:00 16.93333 C 9.2 g/m*3 16.93 C 11.14167 km/h
1099 06-06-2020 18:00:00 17.64167 C 8.49 g/m*3 17.64 C 15.96667 km/h
1100 06-06-2020 19:00:00 18.29167 C 8.2 g/m*3 18.29 C 11.425 km/h
Sensor: Nr:Datum:Temp:Abs-Feuchte:Windchill:Wind:
Aussen-T/F 1101 06-06-2020 20:00:00 17.20833 C 8.89 g/m*3 17.21 C 5.35 km/h
1102 06-06-2020 21:00:00 13.58333 C 8.84 g/m*3 13.58 C 4.8 km/h
1103 06-06-2020 22:00:00 11.725 C 8.71 g/m*3 11.73 C 1.73333 km/h
1104 06-06-2020 23:00:00 10.59167 C 8.43 g/m*3 10.59 C 1.33333 km/h
1105 07-06-2020 00:00:00 10.18333 C 8.2 g/m*3 10.18 C 0.93333 km/h
1106 07-06-2020 01:00:00 9.99167 C 8.19 g/m*3 9.99 C 1.2 km/h
1107 07-06-2020 02:00:00 10.05833 C 8.14 g/m*3 10.06 C 1.86667 km/h
1108 07-06-2020 03:00:00 9.74167 C 7.93 g/m*3 9.74 C 1.86667 km/h
1109 07-06-2020 04:00:00 8.425 C 7.54 g/m*3 8.43 C 1.33333 km/h
1110 07-06-2020 05:00:00 8.08333 C 7.62 g/m*3 8.08 C 3.2 km/h
1111 07-06-2020 06:00:00 7.70833 C 7.48 g/m*3 7.71 C 1.46667 km/h
1112 07-06-2020 07:00:00 7.85 C 7.67 g/m*3 7.85 C 0 km/h
1113 07-06-2020 08:00:00 9.98333 C 8.17 g/m*3 9.24 C 6.85833 km/h
1114 07-06-2020 09:00:00 13.76667 C 8.38 g/m*3 13.77 C 13.96667 km/h
1115 07-06-2020 10:00:00 14.80833 C 8.63 g/m*3 14.81 C 14.23333 km/h
1116 07-06-2020 11:00:00 15.09167 C 8.88 g/m*3 15.09 C 9.94167 km/h
1117 07-06-2020 12:00:00 15.89167 C 9 g/m*3 15.89 C 12.9 km/h
1118 07-06-2020 13:00:00 16.40833 C 8.9 g/m*3 16.41 C 12.49167 km/h
1119 07-06-2020 14:00:00 17.06667 C 9.13 g/m*3 17.07 C 10.88333 km/h
1120 07-06-2020 15:00:00 18.48333 C 9.34 g/m*3 18.48 C 11.96667 km/h
1121 07-06-2020 16:00:00 17.89167 C 9.04 g/m*3 17.89 C 9.28333 km/h
1122 07-06-2020 17:00:00 19.675 C 8.12 g/m*3 19.68 C 8.2 km/h
1123 07-06-2020 18:00:00 18.925 C 8.06 g/m*3 18.93 C 6.15833 km/h
1124 07-06-2020 19:00:00 18.65 C 9.21 g/m*3 18.65 C 1.60833 km/h
1125 07-06-2020 20:00:00 16.225 C 9.29 g/m*3 16.23 C 6.70833 km/h
Sensor: Nr:Datum:Temp:Abs-Feuchte:Windchill:Wind:
Aussen-T/F 1126 07-06-2020 21:00:00 13.73333 C 8.95 g/m*3 13.73 C 4.68333 km/h
1127 07-06-2020 22:00:00 11.675 C 8.66 g/m*3 11.68 C 0.66667 km/h
1128 07-06-2020 23:00:00 11.25 C 8.64 g/m*3 11.25 C 2.14167 km/h
1129 08-06-2020 00:00:00 11.44167 C 8.77 g/m*3 11.44 C 1.2 km/h
1130 08-06-2020 01:00:00 11.475 C 9.06 g/m*3 11.48 C 1.06667 km/h
1131 08-06-2020 02:00:00 9.91667 C 8.4 g/m*3 9.92 C 2.53333 km/h
1132 08-06-2020 03:00:00 8.93333 C 8.07 g/m*3 8.93 C 0.53333 km/h
1133 08-06-2020 04:00:00 8.85 C 8.16 g/m*3 8.85 C 0.26667 km/h
1134 08-06-2020 05:00:00 8.21667 C 7.83 g/m*3 8.22 C 0.26667 km/h
1135 08-06-2020 06:00:00 8.375 C 8.02 g/m*3 8.38 C 0.66667 km/h
1136 08-06-2020 07:00:00 9.75 C 8.66 g/m*3 9.75 C 4.41667 km/h
1137 08-06-2020 08:00:00 11.425 C 9.12 g/m*3 11.43 C 4.26667 km/h
1138 08-06-2020 09:00:00 13.40833 C 9.63 g/m*3 13.41 C 2.4 km/h
1139 08-06-2020 10:00:00 15.5 C 9.95 g/m*3 15.5 C 4.81667 km/h
1140 08-06-2020 11:00:00 17.18333 C 9.79 g/m*3 17.18 C 4.53333 km/h
1141 08-06-2020 12:00:00 18.41667 C 9.33 g/m*3 18.42 C 8.04167 km/h
1142 08-06-2020 13:00:00 19.30833 C 8.88 g/m*3 19.31 C 10.21667 km/h
1143 08-06-2020 14:00:00 20.44167 C 8.14 g/m*3 20.44 C 9.15 km/h
1144 08-06-2020 15:00:00 20.24167 C 8.44 g/m*3 20.24 C 8.2 km/h
1145 08-06-2020 16:00:00 19.475 C 8.92 g/m*3 19.48 C 6.425 km/h
1146 08-06-2020 17:00:00 20.60833 C 9.07 g/m*3 20.61 C 2.4 km/h
1147 08-06-2020 18:00:00 20.725 C 9.34 g/m*3 20.73 C 6.725 km/h
1148 08-06-2020 19:00:00 19.80833 C 9.27 g/m*3 19.81 C 4.55 km/h
1149 08-06-2020 20:00:00 18.53333 C 9.49 g/m*3 18.53 C 6.975 km/h
1150 08-06-2020 21:00:00 16.11667 C 9.67 g/m*3 16.12 C 8.59167 km/h
Sensor: Nr:Datum:Temp:Abs-Feuchte:Windchill:Wind:
Aussen-T/F 1151 08-06-2020 22:00:00 13.8 C 9.17 g/m*3 13.8 C 2.66667 km/h
1152 08-06-2020 23:00:00 12.05833 C 8.82 g/m*3 12.06 C 4.26667 km/h
1153 09-06-2020 00:00:00 11.575 C 8.86 g/m*3 11.58 C 5.475 km/h
1154 09-06-2020 01:00:00 10.75833 C 8.71 g/m*3 10.76 C 0.8 km/h
1155 09-06-2020 02:00:00 9.975 C 8.55 g/m*3 9.98 C 0.13333 km/h
1156 09-06-2020 03:00:00 9.8 C 8.61 g/m*3 9.8 C 0.53333 km/h
1157 09-06-2020 04:00:00 9.89167 C 8.78 g/m*3 9.89 C 2.26667 km/h
1158 09-06-2020 05:00:00 10.7 C 9.33 g/m*3 10.7 C 3.2 km/h
1159 09-06-2020 06:00:00 11.39167 C 9.72 g/m*3 11.39 C 1.06667 km/h
1160 09-06-2020 07:00:00 11.85833 C 9.86 g/m*3 11.86 C 1.46667 km/h
1161 09-06-2020 08:00:00 12.5 C 10.05 g/m*3 12.5 C 3.60833 km/h
1162 09-06-2020 09:00:00 13.3 C 10.21 g/m*3 13.3 C 4.66667 km/h
1163 09-06-2020 10:00:00 15.29167 C 10.65 g/m*3 15.29 C 5.08333 km/h
1164 09-06-2020 11:00:00 16.95 C 10.93 g/m*3 16.95 C 8.88333 km/h
1165 09-06-2020 12:00:00 18.35 C 11.16 g/m*3 18.35 C 9.68333 km/h
1166 09-06-2020 13:00:00 18.45 C 12.76 g/m*3 18.45 C 5.9 km/h
1167 09-06-2020 14:00:00 18.38333 C 12.18 g/m*3 18.38 C 10.75 km/h
1168 09-06-2020 15:00:00 17.875 C 11.43 g/m*3 17.88 C 8.58333 km/h
1169 09-06-2020 16:00:00 15.875 C 12.08 g/m*3 15.88 C 3.20833 km/h
1170 09-06-2020 17:00:00 16.05833 C 12.64 g/m*3 16.06 C 1.06667 km/h
1171 09-06-2020 18:00:00 16.35 C 12.77 g/m*3 16.35 C 0.53333 km/h
1172 09-06-2020 19:00:00 15.59167 C 12.23 g/m*3 15.59 C 2.26667 km/h
1173 09-06-2020 20:00:00 14.39167 C 11.54 g/m*3 14.39 C 5.75 km/h
1174 09-06-2020 21:00:00 14.13333 C 11.55 g/m*3 14.13 C 5.33333 km/h
1175 09-06-2020 22:00:00 13.4 C 11.02 g/m*3 13.4 C 4.26667 km/h
Sensor: Nr:Datum:Temp:Abs-Feuchte:Windchill:Wind:
Aussen-T/F 1176 09-06-2020 23:00:00 12.96667 C 10.81 g/m*3 12.97 C 4.13333 km/h
1177 10-06-2020 00:00:00 12.9 C 10.79 g/m*3 12.9 C 0.8 km/h
1178 10-06-2020 01:00:00 12.56667 C 10.58 g/m*3 12.57 C 0.66667 km/h
1179 10-06-2020 02:00:00 12.30833 C 10.43 g/m*3 12.31 C 0.66667 km/h
1180 10-06-2020 03:00:00 12.56667 C 10.6 g/m*3 12.57 C 0 km/h
1181 10-06-2020 04:00:00 12.6 C 10.62 g/m*3 12.6 C 0.13333 km/h
1182 10-06-2020 05:00:00 12.68333 C 10.68 g/m*3 12.68 C 0 km/h
1183 10-06-2020 06:00:00 12.95 C 10.97 g/m*3 12.95 C 0.13333 km/h
1184 10-06-2020 07:00:00 13.375 C 11.21 g/m*3 13.38 C 0.4 km/h
1185 10-06-2020 08:00:00 13.85833 C 11.46 g/m*3 13.86 C 0.26667 km/h
1186 10-06-2020 09:00:00 14.83333 C 11.68 g/m*3 14.83 C 2.53333 km/h
1187 10-06-2020 10:00:00 15.54167 C 11.58 g/m*3 15.54 C 3.06667 km/h
1188 10-06-2020 11:00:00 15.75 C 11.63 g/m*3 15.75 C 1.73333 km/h
1189 10-06-2020 12:00:00 15.475 C 11.31 g/m*3 15.48 C 8.06667 km/h
1190 10-06-2020 13:00:00 15.55 C 11.25 g/m*3 15.55 C 8.475 km/h
1191 10-06-2020 14:00:00 16.36667 C 11.02 g/m*3 16.37 C 4.13333 km/h
1192 10-06-2020 15:00:00 17.1 C 11.1 g/m*3 17.1 C 1.20833 km/h
1193 10-06-2020 16:00:00 18.65 C 11.47 g/m*3 18.65 C 3.6 km/h
1194 10-06-2020 17:00:00 19.625 C 11.44 g/m*3 19.63 C 4.40833 km/h
1195 10-06-2020 18:00:00 19.81667 C 10.94 g/m*3 19.82 C 7.65 km/h
1196 10-06-2020 19:00:00 19.275 C 11.97 g/m*3 19.27 C 1.34167 km/h
1197 10-06-2020 20:00:00 18.49167 C 12.47 g/m*3 18.49 C 0.8 km/h
1198 10-06-2020 21:00:00 16.675 C 11.26 g/m*3 16.68 C 4.40833 km/h
1199 10-06-2020 22:00:00 15.41667 C 10.78 g/m*3 15.42 C 2.66667 km/h
1200 10-06-2020 23:00:00 15.225 C 11.02 g/m*3 15.23 C 1.875 km/h
Sensor: Nr:Datum:Temp:Abs-Feuchte:Windchill:Wind:
Aussen-T/F 1201 11-06-2020 00:00:00 15.3 C 11.25 g/m*3 15.3 C 1.73333 km/h
1202 11-06-2020 01:00:00 14.2 C 11.02 g/m*3 14.2 C 0.53333 km/h
1203 11-06-2020 02:00:00 13.84167 C 11.03 g/m*3 13.84 C 0 km/h
1204 11-06-2020 03:00:00 13.38333 C 10.8 g/m*3 13.38 C 0.4 km/h
1205 11-06-2020 04:00:00 12.775 C 10.49 g/m*3 12.78 C 0.4 km/h
1206 11-06-2020 05:00:00 12.35833 C 10.27 g/m*3 12.36 C 0.26667 km/h
1207 11-06-2020 06:00:00 12.74167 C 10.6 g/m*3 12.74 C 0 km/h
1208 11-06-2020 07:00:00 13.425 C 11.09 g/m*3 13.43 C 0.26667 km/h
1209 11-06-2020 08:00:00 14.05 C 11.46 g/m*3 14.05 C 0 km/h
1210 11-06-2020 09:00:00 14.73333 C 11.75 g/m*3 14.73 C 1.6 km/h
1211 11-06-2020 10:00:00 15.5 C 12.03 g/m*3 15.5 C 1.86667 km/h
1212 11-06-2020 11:00:00 16.90833 C 12.27 g/m*3 16.91 C 4.13333 km/h
1213 11-06-2020 12:00:00 17.45 C 11.87 g/m*3 17.45 C 4.54167 km/h
1214 11-06-2020 13:00:00 18.38333 C 11.94 g/m*3 18.38 C 5.76667 km/h
1215 11-06-2020 14:00:00 19.3 C 11.79 g/m*3 19.3 C 6.98333 km/h
1216 11-06-2020 15:00:00 18.73333 C 12.03 g/m*3 18.73 C 3.21667 km/h
1217 11-06-2020 16:00:00 18.99167 C 11.05 g/m*3 18.99 C 6.28333 km/h
1218 11-06-2020 17:00:00 19.18333 C 11.33 g/m*3 19.18 C 4.68333 km/h
1219 11-06-2020 18:00:00 18.20833 C 12.45 g/m*3 18.21 C 0.8 km/h
1220 11-06-2020 19:00:00 17.66667 C 12.01 g/m*3 17.67 C 2.13333 km/h
1221 11-06-2020 20:00:00 17.14167 C 12.37 g/m*3 17.14 C 0 km/h
1222 11-06-2020 21:00:00 15.93333 C 11.65 g/m*3 15.93 C 0 km/h
1223 11-06-2020 22:00:00 14.25833 C 10.93 g/m*3 14.26 C 1.73333 km/h
1224 11-06-2020 23:00:00 13.35833 C 10.62 g/m*3 13.36 C 0.66667 km/h
1225 12-06-2020 00:00:00 12.45 C 10.19 g/m*3 12.45 C 0 km/h
Sensor: Nr:Datum:Temp:Abs-Feuchte:Windchill:Wind:
Aussen-T/F 1226 12-06-2020 01:00:00 11.73333 C 9.85 g/m*3 11.73 C 0 km/h
1227 12-06-2020 02:00:00 11.2 C 9.62 g/m*3 11.2 C 0 km/h
1228 12-06-2020 03:00:00 10.61667 C 9.28 g/m*3 10.62 C 0 km/h
1229 12-06-2020 04:00:00 10.34167 C 9.19 g/m*3 10.34 C 0 km/h
1230 12-06-2020 05:00:00 10.80833 C 9.51 g/m*3 10.81 C 0 km/h
1231 12-06-2020 06:00:00 11.74167 C 10.17 g/m*3 11.74 C 1.2 km/h
1232 12-06-2020 07:00:00 12.51667 C 10.68 g/m*3 12.52 C 0.13333 km/h
1233 12-06-2020 08:00:00 13.81667 C 11.56 g/m*3 13.82 C 1.86667 km/h
1234 12-06-2020 09:00:00 16.06667 C 12.49 g/m*3 16.07 C 7.525 km/h
1235 12-06-2020 10:00:00 18.14167 C 12.88 g/m*3 18.14 C 11.29167 km/h
1236 12-06-2020 11:00:00 20.41667 C 13.52 g/m*3 20.42 C 8.33333 km/h
1237 12-06-2020 12:00:00 22.34167 C 13.92 g/m*3 22.34 C 10.08333 km/h
1238 12-06-2020 13:00:00 24.48333 C 13.15 g/m*3 24.48 C 11.95833 km/h
1239 12-06-2020 14:00:00 26.18333 C 12.22 g/m*3 26.18 C 10.89167 km/h
1240 12-06-2020 15:00:00 27.825 C 11.85 g/m*3 27.83 C 13.03333 km/h
1241 12-06-2020 16:00:00 29.69167 C 11.63 g/m*3 29.69 C 11.55833 km/h
1242 12-06-2020 17:00:00 29.5 C 11.36 g/m*3 29.5 C 12.49167 km/h
1243 12-06-2020 18:00:00 29.59167 C 11.4 g/m*3 29.59 C 10.75833 km/h
1244 12-06-2020 19:00:00 28.31667 C 12.04 g/m*3 28.32 C 6.84167 km/h
1245 12-06-2020 20:00:00 26.89167 C 13.73 g/m*3 26.89 C 4.53333 km/h
1246 12-06-2020 21:00:00 22.31667 C 13.19 g/m*3 22.32 C 5.35833 km/h
1247 12-06-2020 22:00:00 20.35833 C 12.94 g/m*3 20.36 C 4.14167 km/h
1248 12-06-2020 23:00:00 18.75 C 12.79 g/m*3 18.75 C 1.2 km/h
1249 13-06-2020 00:00:00 17.93333 C 12.61 g/m*3 17.93 C 4.70833 km/h
1250 13-06-2020 01:00:00 19.29167 C 12.85 g/m*3 19.29 C 13.29167 km/h
Sensor: Nr:Datum:Temp:Abs-Feuchte:Windchill:Wind:
Aussen-T/F 1251 13-06-2020 02:00:00 19.25 C 11.91 g/m*3 19.25 C 6.83333 km/h
1252 13-06-2020 03:00:00 18.31667 C 11.69 g/m*3 18.32 C 3.2 km/h
1253 13-06-2020 04:00:00 17.41667 C 11.88 g/m*3 17.42 C 2.53333 km/h
1254 13-06-2020 05:00:00 16.55833 C 11.87 g/m*3 16.56 C 0.8 km/h
1255 13-06-2020 06:00:00 16.10833 C 12 g/m*3 16.11 C 0.26667 km/h
1256 13-06-2020 07:00:00 16.85833 C 12.41 g/m*3 16.86 C 2.41667 km/h
1257 13-06-2020 08:00:00 17.51667 C 12.82 g/m*3 17.52 C 0.4 km/h
1258 13-06-2020 09:00:00 20.375 C 13.54 g/m*3 20.38 C 5.35 km/h
1259 13-06-2020 10:00:00 20.375 C 13.73 g/m*3 20.38 C 4.675 km/h
1260 13-06-2020 11:00:00 20.69167 C 13.09 g/m*3 20.69 C 6.29167 km/h
1261 13-06-2020 12:00:00 20.90833 C 13.61 g/m*3 20.91 C 1.86667 km/h
1262 13-06-2020 13:00:00 20.34167 C 14.31 g/m*3 20.34 C 0 km/h
1263 13-06-2020 14:00:00 21.53333 C 13.71 g/m*3 21.53 C 2.26667 km/h
1264 13-06-2020 15:00:00 23.25 C 13.52 g/m*3 23.25 C 6.55833 km/h
1265 13-06-2020 16:00:00 25.75 C 13.94 g/m*3 25.75 C 7.925 km/h
1266 13-06-2020 17:00:00 27.09167 C 12.22 g/m*3 27.09 C 6.175 km/h
1267 13-06-2020 18:00:00 28.60833 C 11.15 g/m*3 28.61 C 7.925 km/h
1268 13-06-2020 19:00:00 26.675 C 11.67 g/m*3 26.68 C 6.85 km/h
1269 13-06-2020 20:00:00 24.60833 C 12.37 g/m*3 24.61 C 2.80833 km/h
1270 13-06-2020 21:00:00 22.54167 C 12.53 g/m*3 22.54 C 5.35833 km/h
1271 13-06-2020 22:00:00 20.99167 C 12.73 g/m*3 20.99 C 6.84167 km/h
1272 13-06-2020 23:00:00 20 C 12.46 g/m*3 20 C 3.06667 km/h
1273 14-06-2020 00:00:00 18.375 C 12.38 g/m*3 18.38 C 1.33333 km/h
1274 14-06-2020 01:00:00 17.81667 C 12.53 g/m*3 17.82 C 0 km/h
1275 14-06-2020 02:00:00 17.675 C 12.71 g/m*3 17.68 C 0 km/h
Sensor: Nr:Datum:Temp:Abs-Feuchte:Windchill:Wind:
Aussen-T/F 1276 14-06-2020 03:00:00 17.25833 C 12.47 g/m*3 17.26 C 0 km/h
1277 14-06-2020 04:00:00 17.39167 C 12.38 g/m*3 17.39 C 4.825 km/h
1278 14-06-2020 05:00:00 17.71667 C 12.45 g/m*3 17.72 C 5.33333 km/h
1279 14-06-2020 06:00:00 17.80833 C 12.53 g/m*3 17.81 C 7.525 km/h
1280 14-06-2020 07:00:00 18.56667 C 12.79 g/m*3 18.57 C 3.86667 km/h
1281 14-06-2020 08:00:00 19.075 C 12.89 g/m*3 19.08 C 2.93333 km/h
1282 14-06-2020 09:00:00 19.05833 C 13.48 g/m*3 19.06 C 1.73333 km/h
1283 14-06-2020 10:00:00 18.86667 C 13.1 g/m*3 18.87 C 3.875 km/h
1284 14-06-2020 11:00:00 18.95833 C 13.06 g/m*3 18.96 C 7.125 km/h
1285 14-06-2020 12:00:00 19.53333 C 12.61 g/m*3 19.53 C 8.18333 km/h
1286 14-06-2020 13:00:00 19.725 C 12.92 g/m*3 19.73 C 8.75833 km/h
1287 14-06-2020 14:00:00 20.2 C 13.07 g/m*3 20.2 C 5.21667 km/h
1288 14-06-2020 15:00:00 20.61667 C 13.15 g/m*3 20.62 C 1.6 km/h
1289 14-06-2020 16:00:00 21.19167 C 14.08 g/m*3 21.19 C 0.13333 km/h
1290 14-06-2020 17:00:00 21.33333 C 12.82 g/m*3 21.33 C 3.875 km/h
1291 14-06-2020 18:00:00 20.58333 C 13.48 g/m*3 20.58 C 4.95 km/h
1292 14-06-2020 19:00:00 19.84167 C 13.64 g/m*3 19.84 C 4.025 km/h
1293 14-06-2020 20:00:00 18.65833 C 13.4 g/m*3 18.66 C 5.9 km/h
1294 14-06-2020 21:00:00 17.8 C 13.38 g/m*3 17.8 C 3.60833 km/h
1295 14-06-2020 22:00:00 17.825 C 13.3 g/m*3 17.83 C 2.94167 km/h
1296 14-06-2020 23:00:00 17.225 C 13.19 g/m*3 17.23 C 1.33333 km/h
1297 15-06-2020 00:00:00 17.28333 C 12.87 g/m*3 17.28 C 5.48333 km/h
1298 15-06-2020 01:00:00 16.86667 C 12.49 g/m*3 16.87 C 2.66667 km/h
1299 15-06-2020 02:00:00 16.625 C 12.56 g/m*3 16.63 C 2.13333 km/h
1300 15-06-2020 03:00:00 16.575 C 12.55 g/m*3 16.58 C 1.6 km/h
Sensor: Nr:Datum:Temp:Abs-Feuchte:Windchill:Wind:
Aussen-T/F 1301 15-06-2020 04:00:00 16.64167 C 12.66 g/m*3 16.64 C 4.40833 km/h
1302 15-06-2020 05:00:00 16.54167 C 12.66 g/m*3 16.54 C 2.80833 km/h
1303 15-06-2020 06:00:00 16.6 C 12.71 g/m*3 16.6 C 1.6 km/h
1304 15-06-2020 07:00:00 16.80833 C 12.87 g/m*3 16.81 C 1.2 km/h
1305 15-06-2020 08:00:00 17.54167 C 13.15 g/m*3 17.54 C 3.6 km/h
1306 15-06-2020 09:00:00 18.325 C 13.34 g/m*3 18.33 C 5.35 km/h
1307 15-06-2020 10:00:00 19.40833 C 13.7 g/m*3 19.41 C 6.56667 km/h
1308 15-06-2020 11:00:00 20.11667 C 13.62 g/m*3 20.12 C 5.48333 km/h
1309 15-06-2020 12:00:00 20.575 C 12.52 g/m*3 20.58 C 6.575 km/h
1310 15-06-2020 13:00:00 20.44167 C 12.03 g/m*3 20.44 C 6.30833 km/h
1311 15-06-2020 14:00:00 20.51667 C 12.26 g/m*3 20.52 C 3.075 km/h
1312 15-06-2020 15:00:00 20.55833 C 13.08 g/m*3 20.56 C 0 km/h
1313 15-06-2020 16:00:00 20.98333 C 12.93 g/m*3 20.98 C 0 km/h
1314 15-06-2020 17:00:00 21.1 C 12.23 g/m*3 21.1 C 2.88 km/h
1315 15-06-2020 18:00:00 21.29167 C 12.31 g/m*3 21.29 C 0.8 km/h
1316 15-06-2020 19:00:00 21.325 C 13.27 g/m*3 21.33 C 0.53333 km/h
1317 15-06-2020 20:00:00 19.58333 C 12.75 g/m*3 19.58 C 2.93333 km/h
1318 15-06-2020 21:00:00 18.6 C 12.47 g/m*3 18.6 C 4.13333 km/h
1319 15-06-2020 22:00:00 17.64167 C 12.34 g/m*3 17.64 C 0.26667 km/h
1320 15-06-2020 23:00:00 17.16667 C 12.34 g/m*3 17.17 C 0 km/h
1321 16-06-2020 00:00:00 17.11667 C 12.6 g/m*3 17.12 C 0 km/h
1322 16-06-2020 01:00:00 16.875 C 13.05 g/m*3 16.88 C 0 km/h
1323 16-06-2020 02:00:00 16.45833 C 13.01 g/m*3 16.46 C 0 km/h
1324 16-06-2020 03:00:00 16.2 C 12.97 g/m*3 16.2 C 0 km/h
1325 16-06-2020 04:00:00 16.11667 C 13.03 g/m*3 16.12 C 0 km/h
Sensor: Nr:Datum:Temp:Abs-Feuchte:Windchill:Wind:
Aussen-T/F 1326 16-06-2020 05:00:00 16.05833 C 12.99 g/m*3 16.06 C 0.26667 km/h
1327 16-06-2020 06:00:00 15.94167 C 12.98 g/m*3 15.94 C 0.4 km/h
1328 16-06-2020 07:00:00 16.18333 C 13.23 g/m*3 16.18 C 0.13333 km/h
1329 16-06-2020 08:00:00 16.68333 C 13.63 g/m*3 16.68 C 2.13333 km/h
1330 16-06-2020 09:00:00 17.125 C 14 g/m*3 17.13 C 2.66667 km/h
1331 16-06-2020 10:00:00 17.93333 C 14.51 g/m*3 17.93 C 0.26667 km/h
1332 16-06-2020 11:00:00 19.01667 C 14.61 g/m*3 19.02 C 1.86667 km/h
1333 16-06-2020 12:00:00 19.91667 C 14.26 g/m*3 19.92 C 3.73333 km/h
1334 16-06-2020 13:00:00 20.48333 C 13.87 g/m*3 20.48 C 6.55833 km/h
1335 16-06-2020 14:00:00 21.13333 C 14.25 g/m*3 21.13 C 2.14167 km/h
1336 16-06-2020 15:00:00 21.375 C 14.38 g/m*3 21.38 C 3.34167 km/h
1337 16-06-2020 16:00:00 19.025 C 13.79 g/m*3 19.02 C 2.8 km/h
1338 16-06-2020 17:00:00 18.39167 C 13.98 g/m*3 18.39 C 0.53333 km/h
1339 16-06-2020 18:00:00 18.83333 C 14.33 g/m*3 18.83 C 2.4 km/h
1340 16-06-2020 19:00:00 20.31667 C 14.92 g/m*3 20.32 C 6.13333 km/h
1341 16-06-2020 20:00:00 20.65 C 14.66 g/m*3 20.65 C 2.01667 km/h
1342 16-06-2020 21:00:00 19.10833 C 14 g/m*3 19.11 C 2.53333 km/h
1343 16-06-2020 22:00:00 16.69167 C 12.83 g/m*3 16.69 C 1.46667 km/h
1344 16-06-2020 23:00:00 15.40833 C 12.17 g/m*3 15.41 C 0.13333 km/h
1345 17-06-2020 00:00:00 14.6 C 11.77 g/m*3 14.6 C 0 km/h
1346 17-06-2020 01:00:00 14 C 11.46 g/m*3 14 C 0 km/h
1347 17-06-2020 02:00:00 14.46667 C 11.91 g/m*3 14.47 C 0.26667 km/h
1348 17-06-2020 03:00:00 14.55 C 11.99 g/m*3 14.55 C 0.8 km/h
1349 17-06-2020 04:00:00 14.21667 C 11.85 g/m*3 14.22 C 0 km/h
1350 17-06-2020 05:00:00 14.16667 C 11.82 g/m*3 14.17 C 0 km/h
Sensor: Nr:Datum:Temp:Abs-Feuchte:Windchill:Wind:
Aussen-T/F 1351 17-06-2020 06:00:00 14.34167 C 11.95 g/m*3 14.34 C 0 km/h
1352 17-06-2020 07:00:00 14.61667 C 12.15 g/m*3 14.62 C 0 km/h
1353 17-06-2020 08:00:00 14.91667 C 12.38 g/m*3 14.92 C 0 km/h
1354 17-06-2020 09:00:00 15.43333 C 12.77 g/m*3 15.43 C 0 km/h
1355 17-06-2020 10:00:00 16.63333 C 13.44 g/m*3 16.63 C 2 km/h
1356 17-06-2020 11:00:00 18.50833 C 13.86 g/m*3 18.51 C 5.34167 km/h
1357 17-06-2020 12:00:00 20.51667 C 14.1 g/m*3 20.52 C 5.35 km/h
1358 17-06-2020 13:00:00 21.81667 C 14.26 g/m*3 21.82 C 5.08333 km/h
1359 17-06-2020 14:00:00 22.75 C 14.25 g/m*3 22.75 C 3.6 km/h
1360 17-06-2020 15:00:00 23.05833 C 15.09 g/m*3 23.06 C 5.35 km/h
1361 17-06-2020 16:00:00 20.49167 C 15.93 g/m*3 20.49 C 2.4 km/h
1362 17-06-2020 17:00:00 21.50833 C 16.6 g/m*3 21.51 C 1.06667 km/h
1363 17-06-2020 18:00:00 23.34167 C 15.4 g/m*3 23.34 C 3.6 km/h
1364 17-06-2020 19:00:00 19.65 C 13.91 g/m*3 19.65 C 4.84167 km/h
1365 17-06-2020 20:00:00 17.175 C 13.49 g/m*3 17.18 C 1.06667 km/h
1366 17-06-2020 21:00:00 16.54167 C 13.28 g/m*3 16.54 C 4.13333 km/h
1367 17-06-2020 22:00:00 16.18333 C 13.09 g/m*3 16.18 C 1.73333 km/h
1368 17-06-2020 23:00:00 15.53333 C 12.58 g/m*3 15.53 C 4.41667 km/h
1369 18-06-2020 00:00:00 15.11667 C 12.35 g/m*3 15.12 C 1.06667 km/h
1370 18-06-2020 01:00:00 14.76667 C 12.08 g/m*3 14.77 C 2.93333 km/h
1371 18-06-2020 02:00:00 14.41667 C 11.87 g/m*3 14.42 C 3.20833 km/h
1372 18-06-2020 03:00:00 14.4 C 11.87 g/m*3 14.4 C 6.56667 km/h
1373 18-06-2020 04:00:00 14.3 C 11.79 g/m*3 14.3 C 4.14167 km/h
1374 18-06-2020 05:00:00 14.1 C 11.65 g/m*3 14.1 C 2.53333 km/h
1375 18-06-2020 06:00:00 13.96667 C 11.56 g/m*3 13.97 C 4.13333 km/h
Sensor: Nr:Datum:Temp:Abs-Feuchte:Windchill:Wind:
Aussen-T/F 1376 18-06-2020 07:00:00 14.34167 C 11.82 g/m*3 14.34 C 2.13333 km/h
1377 18-06-2020 08:00:00 15.325 C 12.22 g/m*3 15.33 C 4.95833 km/h
1378 18-06-2020 09:00:00 16.45833 C 12.3 g/m*3 16.46 C 6.84167 km/h
1379 18-06-2020 10:00:00 17.675 C 12.44 g/m*3 17.68 C 6.85 km/h
1380 18-06-2020 11:00:00 18.75 C 12.5 g/m*3 18.75 C 6.175 km/h
1381 18-06-2020 12:00:00 19.71667 C 12.32 g/m*3 19.72 C 10.21667 km/h
1382 18-06-2020 13:00:00 20.79167 C 11.99 g/m*3 20.79 C 12.9 km/h
1383 18-06-2020 14:00:00 22.2 C 12.04 g/m*3 22.2 C 11.03333 km/h
1384 18-06-2020 15:00:00 23.54167 C 11.68 g/m*3 23.54 C 10.35 km/h
1385 18-06-2020 16:00:00 25.09167 C 11.49 g/m*3 25.09 C 11.56667 km/h
1386 18-06-2020 17:00:00 24.875 C 11.28 g/m*3 24.88 C 15.83333 km/h
1387 18-06-2020 18:00:00 23.86667 C 10.89 g/m*3 23.87 C 15.03333 km/h
1388 18-06-2020 19:00:00 23.89167 C 11.55 g/m*3 23.89 C 10.76667 km/h
1389 18-06-2020 20:00:00 23.2 C 11.36 g/m*3 23.2 C 9.95 km/h
1390 18-06-2020 21:00:00 20.63333 C 12.46 g/m*3 20.63 C 3.875 km/h
1391 18-06-2020 22:00:00 17.20833 C 11.79 g/m*3 17.21 C 5.06667 km/h
1392 18-06-2020 23:00:00 15.73333 C 11.55 g/m*3 15.73 C 0.93333 km/h
1393 19-06-2020 00:00:00 15.21667 C 11.5 g/m*3 15.22 C 1.875 km/h
1394 19-06-2020 01:00:00 14.68333 C 11.17 g/m*3 14.68 C 0.26667 km/h
1395 19-06-2020 02:00:00 13.525 C 10.73 g/m*3 13.53 C 0.53333 km/h
1396 19-06-2020 03:00:00 12.875 C 10.47 g/m*3 12.88 C 0.4 km/h
1397 19-06-2020 04:00:00 12.33333 C 10.22 g/m*3 12.33 C 1.33333 km/h
1398 19-06-2020 05:00:00 12.225 C 10.23 g/m*3 12.23 C 1.06667 km/h
1399 19-06-2020 06:00:00 12.575 C 10.49 g/m*3 12.58 C 0.66667 km/h
1400 19-06-2020 07:00:00 13.64167 C 11.21 g/m*3 13.64 C 0.53333 km/h
Sensor: Nr:Datum:Temp:Abs-Feuchte:Windchill:Wind:
Aussen-T/F 1401 19-06-2020 08:00:00 15.75 C 11.83 g/m*3 15.75 C 8.475 km/h
1402 19-06-2020 09:00:00 17.55 C 11.91 g/m*3 17.55 C 9.81667 km/h
1403 19-06-2020 10:00:00 19.15833 C 12.35 g/m*3 19.16 C 5.75 km/h
1404 19-06-2020 11:00:00 20.85 C 12.12 g/m*3 20.85 C 9.94167 km/h
1405 19-06-2020 12:00:00 21.90833 C 11.94 g/m*3 21.91 C 11.96667 km/h
1406 19-06-2020 13:00:00 21.50833 C 12.14 g/m*3 21.51 C 6.30833 km/h
1407 19-06-2020 14:00:00 22.34167 C 11.58 g/m*3 22.34 C 8.71667 km/h
1408 19-06-2020 15:00:00 22.26667 C 11.45 g/m*3 22.27 C 13.96667 km/h
1409 19-06-2020 16:00:00 16.48333 C 12.44 g/m*3 16.48 C 9.4 km/h
1410 19-06-2020 17:00:00 16.29167 C 13.14 g/m*3 16.29 C 10.60833 km/h
1411 19-06-2020 18:00:00 18.11667 C 14.22 g/m*3 18.12 C 4.40833 km/h
1412 19-06-2020 19:00:00 18.90833 C 14.32 g/m*3 18.91 C 3.06667 km/h
1413 19-06-2020 20:00:00 18.16667 C 14.01 g/m*3 18.17 C 6.05833 km/h
1414 19-06-2020 21:00:00 16.075 C 12.53 g/m*3 16.08 C 7.40833 km/h
1415 19-06-2020 22:00:00 14.81667 C 11.89 g/m*3 14.82 C 3.73333 km/h
1416 19-06-2020 23:00:00 14.175 C 11.54 g/m*3 14.18 C 0.53333 km/h
1417 20-06-2020 00:00:00 13.58333 C 11.18 g/m*3 13.58 C 0.13333 km/h
1418 20-06-2020 01:00:00 13.475 C 11.21 g/m*3 13.48 C 0.13333 km/h
1419 20-06-2020 02:00:00 13.35833 C 11.13 g/m*3 13.36 C 0.66667 km/h
1420 20-06-2020 03:00:00 12.95833 C 10.86 g/m*3 12.96 C 0 km/h
1421 20-06-2020 04:00:00 12.59167 C 10.65 g/m*3 12.59 C 0.4 km/h
1422 20-06-2020 05:00:00 12.475 C 10.63 g/m*3 12.48 C 0.66667 km/h
1423 20-06-2020 06:00:00 12.64167 C 10.76 g/m*3 12.64 C 3.74167 km/h
1424 20-06-2020 07:00:00 13.05 C 11.03 g/m*3 13.05 C 4.00833 km/h
1425 20-06-2020 08:00:00 14.125 C 11.87 g/m*3 14.13 C 0.4 km/h
Sensor: Nr:Datum:Temp:Abs-Feuchte:Windchill:Wind:
Aussen-T/F 1426 20-06-2020 09:00:00 15.35833 C 12.66 g/m*3 15.36 C 0.8 km/h
1427 20-06-2020 10:00:00 17.56667 C 13.3 g/m*3 17.57 C 2.275 km/h
1428 20-06-2020 11:00:00 20.11667 C 12.86 g/m*3 20.12 C 6.3 km/h
1429 20-06-2020 12:00:00 19.76667 C 12.8 g/m*3 19.77 C 4.66667 km/h
1430 20-06-2020 13:00:00 19.59167 C 13.27 g/m*3 19.59 C 4 km/h
1431 20-06-2020 14:00:00 19.74167 C 12.84 g/m*3 19.74 C 3.075 km/h
1432 20-06-2020 15:00:00 20.20833 C 12.81 g/m*3 20.21 C 2.8 km/h
1433 20-06-2020 16:00:00 22.89167 C 12.07 g/m*3 22.89 C 6.96667 km/h
1434 20-06-2020 17:00:00 22.33333 C 11.36 g/m*3 22.33 C 5.90833 km/h
1435 20-06-2020 18:00:00 21.06667 C 12.86 g/m*3 21.07 C 7.65 km/h
1436 20-06-2020 19:00:00 19.625 C 12.88 g/m*3 19.63 C 5.9 km/h
1437 20-06-2020 20:00:00 19.04167 C 13.38 g/m*3 19.04 C 1.86667 km/h
1438 20-06-2020 21:00:00 18.36667 C 13.15 g/m*3 18.37 C 2.93333 km/h
1439 20-06-2020 22:00:00 17 C 12.64 g/m*3 17 C 2.53333 km/h
1440 20-06-2020 23:00:00 15.69167 C 11.88 g/m*3 15.69 C 2.26667 km/h
1441 21-06-2020 00:00:00 14.48333 C 11.37 g/m*3 14.48 C 0.66667 km/h
1442 21-06-2020 01:00:00 13.80833 C 11.14 g/m*3 13.81 C 0.53333 km/h
1443 21-06-2020 02:00:00 13.24167 C 10.84 g/m*3 13.24 C 0.8 km/h
1444 21-06-2020 03:00:00 12.53333 C 10.46 g/m*3 12.53 C 0.13333 km/h
1445 21-06-2020 04:00:00 11.80833 C 10.03 g/m*3 11.81 C 0 km/h
1446 21-06-2020 05:00:00 12.2 C 10.36 g/m*3 12.2 C 0.93333 km/h
1447 21-06-2020 06:00:00 12.36667 C 10.48 g/m*3 12.37 C 0.26667 km/h
1448 21-06-2020 07:00:00 12.7 C 10.74 g/m*3 12.7 C 4.26667 km/h
1449 21-06-2020 08:00:00 13.33333 C 11.21 g/m*3 13.33 C 2.13333 km/h
1450 21-06-2020 09:00:00 14.425 C 11.89 g/m*3 14.43 C 0 km/h
Sensor: Nr:Datum:Temp:Abs-Feuchte:Windchill:Wind:
Aussen-T/F 1451 21-06-2020 10:00:00 17.05 C 13.35 g/m*3 17.05 C 0 km/h
1452 21-06-2020 11:00:00 21.25 C 12.84 g/m*3 21.25 C 1.06667 km/h
1453 21-06-2020 12:00:00 22.64167 C 11.85 g/m*3 22.64 C 8.61667 km/h
1454 21-06-2020 13:00:00 23.65833 C 11.45 g/m*3 23.66 C 8.60833 km/h
1455 21-06-2020 14:00:00 24.55 C 11.65 g/m*3 24.55 C 10.34167 km/h
1456 21-06-2020 15:00:00 26.325 C 11.59 g/m*3 26.33 C 11.16667 km/h
1457 21-06-2020 16:00:00 27.7 C 11.37 g/m*3 27.7 C 13.28333 km/h
1458 21-06-2020 17:00:00 27.85 C 11.01 g/m*3 27.85 C 13.16667 km/h
1459 21-06-2020 18:00:00 26.84167 C 11.57 g/m*3 26.84 C 10.75833 km/h
1460 21-06-2020 19:00:00 25.79167 C 12.73 g/m*3 25.79 C 7 km/h
1461 21-06-2020 20:00:00 23.65 C 13.86 g/m*3 23.65 C 3.6 km/h
1462 21-06-2020 21:00:00 22.14167 C 13 g/m*3 22.14 C 4.40833 km/h
1463 21-06-2020 22:00:00 19.11667 C 12.44 g/m*3 19.12 C 5.2 km/h
1464 21-06-2020 23:00:00 17.8 C 12.45 g/m*3 17.8 C 2.93333 km/h
1465 22-06-2020 00:00:00 17.38333 C 12.46 g/m*3 17.38 C 0 km/h
1466 22-06-2020 01:00:00 16.58333 C 12.09 g/m*3 16.58 C 3.6 km/h
1467 22-06-2020 02:00:00 16.1 C 11.94 g/m*3 16.1 C 2.4 km/h
1468 22-06-2020 03:00:00 15.45833 C 11.73 g/m*3 15.46 C 1.33333 km/h
1469 22-06-2020 04:00:00 16.00833 C 12.05 g/m*3 16.01 C 0.8 km/h
1470 22-06-2020 05:00:00 16.46667 C 11.89 g/m*3 16.47 C 9.8 km/h
1471 22-06-2020 06:00:00 15.53333 C 11.28 g/m*3 15.53 C 5.075 km/h
1472 22-06-2020 07:00:00 15.29167 C 11.06 g/m*3 15.29 C 5.375 km/h
1473 22-06-2020 08:00:00 15.24167 C 11.12 g/m*3 15.24 C 4.41667 km/h
1474 22-06-2020 09:00:00 16.175 C 11.46 g/m*3 16.18 C 4.54167 km/h
1475 22-06-2020 10:00:00 16.90833 C 11.64 g/m*3 16.91 C 7.11667 km/h
Sensor: Nr:Datum:Temp:Abs-Feuchte:Windchill:Wind:
Aussen-T/F 1476 22-06-2020 11:00:00 17.59167 C 12 g/m*3 17.59 C 6.56667 km/h
1477 22-06-2020 12:00:00 18.625 C 12.31 g/m*3 18.63 C 5.88333 km/h
1478 22-06-2020 13:00:00 19.825 C 12.67 g/m*3 19.83 C 8.05833 km/h
1479 22-06-2020 14:00:00 21.15 C 12.58 g/m*3 21.15 C 9.95833 km/h
1480 22-06-2020 15:00:00 22.96667 C 12.33 g/m*3 22.97 C 9.825 km/h
1481 22-06-2020 16:00:00 23.14167 C 11.85 g/m*3 23.14 C 8.74167 km/h
1482 22-06-2020 17:00:00 24.55833 C 10.14 g/m*3 24.56 C 9.80833 km/h
1483 22-06-2020 18:00:00 25.1 C 9.16 g/m*3 25.1 C 9.81667 km/h
1484 22-06-2020 19:00:00 24.74167 C 9.57 g/m*3 24.74 C 6.95833 km/h
1485 22-06-2020 20:00:00 23.83333 C 9.68 g/m*3 23.83 C 3.6 km/h
1486 22-06-2020 21:00:00 20.88333 C 10.93 g/m*3 20.88 C 3.06667 km/h
1487 22-06-2020 22:00:00 17.19167 C 10.43 g/m*3 17.19 C 6.33333 km/h
1488 22-06-2020 23:00:00 15.35 C 10.42 g/m*3 15.35 C 0 km/h
1489 23-06-2020 00:00:00 13.80833 C 10.05 g/m*3 13.81 C 0 km/h
1490 23-06-2020 01:00:00 12.825 C 9.84 g/m*3 12.83 C 0 km/h
1491 23-06-2020 02:00:00 12.29167 C 9.72 g/m*3 12.29 C 0 km/h
1492 23-06-2020 03:00:00 11.875 C 9.6 g/m*3 11.88 C 0.13333 km/h
1493 23-06-2020 04:00:00 11.28333 C 9.37 g/m*3 11.28 C 0 km/h
1494 23-06-2020 05:00:00 10.81667 C 9.22 g/m*3 10.82 C 0 km/h
1495 23-06-2020 06:00:00 10.94167 C 9.4 g/m*3 10.94 C 0 km/h
1496 23-06-2020 07:00:00 11.55 C 9.84 g/m*3 11.55 C 0 km/h
1497 23-06-2020 08:00:00 12.75 C 10.61 g/m*3 12.75 C 0 km/h
1498 23-06-2020 09:00:00 14.55 C 11.7 g/m*3 14.55 C 0 km/h
1499 23-06-2020 10:00:00 18.63333 C 12.85 g/m*3 18.63 C 1.73333 km/h
1500 23-06-2020 11:00:00 22.6 C 11.82 g/m*3 22.6 C 4.94167 km/h
Sensor: Nr:Datum:Temp:Abs-Feuchte:Windchill:Wind:
Aussen-T/F 1501 23-06-2020 12:00:00 23.39167 C 11.14 g/m*3 23.39 C 7.375 km/h
1502 23-06-2020 13:00:00 24.44167 C 10.56 g/m*3 24.44 C 9.69167 km/h
1503 23-06-2020 14:00:00 25.49167 C 10.12 g/m*3 25.49 C 10.63333 km/h
1504 23-06-2020 15:00:00 27.05833 C 10.65 g/m*3 27.06 C 9.81667 km/h
1505 23-06-2020 16:00:00 28.29167 C 10.71 g/m*3 28.29 C 10.36667 km/h
1506 23-06-2020 17:00:00 29.35833 C 11.47 g/m*3 29.36 C 7.1 km/h
1507 23-06-2020 18:00:00 29.2 C 11.57 g/m*3 29.2 C 9.15833 km/h
1508 23-06-2020 19:00:00 28.45833 C 11.69 g/m*3 28.46 C 8.34167 km/h
1509 23-06-2020 20:00:00 27.425 C 12.73 g/m*3 27.43 C 4.68333 km/h
1510 23-06-2020 21:00:00 23.875 C 13.2 g/m*3 23.88 C 3.73333 km/h
1511 23-06-2020 22:00:00 20.55 C 11.91 g/m*3 20.55 C 6.275 km/h
1512 23-06-2020 23:00:00 18.83333 C 11.82 g/m*3 18.83 C 3.06667 km/h
1513 24-06-2020 00:00:00 17.66667 C 11.52 g/m*3 17.67 C 2.8 km/h
1514 24-06-2020 01:00:00 17.03333 C 11.16 g/m*3 17.03 C 2.53333 km/h
1515 24-06-2020 02:00:00 16.04167 C 10.88 g/m*3 16.04 C 0.4 km/h
1516 24-06-2020 03:00:00 14.64167 C 10.62 g/m*3 14.64 C 0 km/h
1517 24-06-2020 04:00:00 13.6 C 10.32 g/m*3 13.6 C 0 km/h
1518 24-06-2020 05:00:00 12.9 C 10.11 g/m*3 12.9 C 0 km/h
1519 24-06-2020 06:00:00 12.78333 C 10.25 g/m*3 12.78 C 0 km/h
1520 24-06-2020 07:00:00 13.375 C 10.77 g/m*3 13.38 C 0 km/h
1521 24-06-2020 08:00:00 14.59167 C 11.5 g/m*3 14.59 C 0 km/h
1522 24-06-2020 09:00:00 17.15 C 12.18 g/m*3 17.15 C 2 km/h
1523 24-06-2020 10:00:00 21.9 C 11.66 g/m*3 21.9 C 6.30833 km/h
1524 24-06-2020 11:00:00 24.74167 C 10.46 g/m*3 24.74 C 13.025 km/h
1525 24-06-2020 12:00:00 25.44167 C 10.21 g/m*3 25.44 C 15.03333 km/h
Sensor: Nr:Datum:Temp:Abs-Feuchte:Windchill:Wind:
Aussen-T/F 1526 24-06-2020 13:00:00 26.3 C 9.84 g/m*3 26.3 C 16.23333 km/h
1527 24-06-2020 14:00:00 27.05 C 9.7 g/m*3 27.05 C 15.7 km/h
1528 24-06-2020 15:00:00 27.85 C 9.22 g/m*3 27.85 C 17.575 km/h
1529 24-06-2020 16:00:00 28.68333 C 8.28 g/m*3 28.68 C 17.96667 km/h
1530 24-06-2020 17:00:00 28.83333 C 7.8 g/m*3 28.83 C 15.3 km/h
1531 24-06-2020 18:00:00 28.81667 C 7.37 g/m*3 28.82 C 14.5 km/h
1532 24-06-2020 19:00:00 27.825 C 8.08 g/m*3 27.83 C 13.96667 km/h
1533 24-06-2020 20:00:00 27.20833 C 9.52 g/m*3 27.21 C 6.325 km/h
1534 24-06-2020 21:00:00 24.25833 C 11.33 g/m*3 24.26 C 3.73333 km/h
1535 24-06-2020 22:00:00 20.86667 C 11.39 g/m*3 20.87 C 2.40833 km/h
1536 24-06-2020 23:00:00 19.75833 C 11.22 g/m*3 19.76 C 1.73333 km/h
1537 25-06-2020 00:00:00 18.66667 C 11.04 g/m*3 18.67 C 2.13333 km/h
1538 25-06-2020 01:00:00 18.20833 C 11.02 g/m*3 18.21 C 1.6 km/h
1539 25-06-2020 02:00:00 17.09167 C 10.9 g/m*3 17.09 C 0.13333 km/h
1540 25-06-2020 03:00:00 15.925 C 10.81 g/m*3 15.93 C 1.73333 km/h
1541 25-06-2020 04:00:00 15.2 C 10.76 g/m*3 15.2 C 1.46667 km/h
1542 25-06-2020 05:00:00 14.60833 C 10.81 g/m*3 14.61 C 1.33333 km/h
1543 25-06-2020 06:00:00 14.675 C 11.11 g/m*3 14.68 C 2.53333 km/h
1544 25-06-2020 07:00:00 15.9 C 11.74 g/m*3 15.9 C 2.13333 km/h
1545 25-06-2020 08:00:00 17.25833 C 12.26 g/m*3 17.26 C 2.80833 km/h
1546 25-06-2020 09:00:00 20.175 C 12.51 g/m*3 20.18 C 8.19167 km/h
1547 25-06-2020 10:00:00 23.33333 C 12.66 g/m*3 23.33 C 11.16667 km/h
1548 25-06-2020 11:00:00 24.675 C 12.75 g/m*3 24.68 C 13.56667 km/h
1549 25-06-2020 12:00:00 25.45833 C 12.75 g/m*3 25.46 C 13.29167 km/h
1550 25-06-2020 13:00:00 26.75833 C 13.12 g/m*3 26.76 C 13.96667 km/h
Sensor: Nr:Datum:Temp:Abs-Feuchte:Windchill:Wind:
Aussen-T/F 1551 25-06-2020 14:00:00 27.05 C 13.38 g/m*3 27.05 C 14.1 km/h
1552 25-06-2020 15:00:00 26.73333 C 14.01 g/m*3 26.73 C 9.55 km/h
1553 25-06-2020 16:00:00 26.15 C 14.36 g/m*3 26.15 C 7.675 km/h
1554 25-06-2020 17:00:00 26.225 C 14.63 g/m*3 26.23 C 10.1 km/h
1555 25-06-2020 18:00:00 26.66667 C 14.91 g/m*3 26.67 C 8.18333 km/h
1556 25-06-2020 19:00:00 27.66667 C 14.55 g/m*3 27.67 C 8.48333 km/h
1557 25-06-2020 20:00:00 26.66667 C 14.32 g/m*3 26.67 C 6.29167 km/h
1558 25-06-2020 21:00:00 24.66667 C 14.84 g/m*3 24.67 C 2.13333 km/h
1559 25-06-2020 22:00:00 21.51667 C 13.53 g/m*3 21.52 C 3.06667 km/h
1560 25-06-2020 23:00:00 19.59167 C 13.03 g/m*3 19.59 C 4.4 km/h
1561 26-06-2020 00:00:00 18.05833 C 12.55 g/m*3 18.06 C 0.8 km/h
1562 26-06-2020 01:00:00 16.56667 C 11.96 g/m*3 16.57 C 0.13333 km/h
1563 26-06-2020 02:00:00 15.73333 C 11.74 g/m*3 15.73 C 0.13333 km/h
1564 26-06-2020 03:00:00 15.05833 C 11.42 g/m*3 15.06 C 0.4 km/h
1565 26-06-2020 04:00:00 14.43333 C 11.21 g/m*3 14.43 C 0.13333 km/h
1566 26-06-2020 05:00:00 13.88333 C 10.98 g/m*3 13.88 C 0 km/h
1567 26-06-2020 06:00:00 13.81667 C 11.09 g/m*3 13.82 C 0.26667 km/h
1568 26-06-2020 07:00:00 14.56667 C 11.74 g/m*3 14.57 C 0.4 km/h
1569 26-06-2020 08:00:00 15.825 C 12.56 g/m*3 15.83 C 1.06667 km/h
1570 26-06-2020 09:00:00 18.29167 C 13.27 g/m*3 18.29 C 3.75833 km/h
1571 26-06-2020 10:00:00 23.24167 C 13.56 g/m*3 23.24 C 6.85 km/h
1572 26-06-2020 11:00:00 25.975 C 12.52 g/m*3 25.98 C 9.00833 km/h
1573 26-06-2020 12:00:00 26.65 C 11.97 g/m*3 26.65 C 8.59167 km/h
1574 26-06-2020 13:00:00 27.28333 C 12.42 g/m*3 27.28 C 11.025 km/h
1575 26-06-2020 14:00:00 28.46667 C 12.86 g/m*3 28.47 C 9.95833 km/h
Sensor: Nr:Datum:Temp:Abs-Feuchte:Windchill:Wind:
Aussen-T/F 1576 26-06-2020 15:00:00 30.15833 C 12.95 g/m*3 30.16 C 9.28333 km/h
1577 26-06-2020 16:00:00 31.70833 C 13.05 g/m*3 31.71 C 11.80833 km/h
1578 26-06-2020 17:00:00 31.23333 C 13.69 g/m*3 31.23 C 5.1 km/h
1579 26-06-2020 18:00:00 28.06667 C 15.1 g/m*3 28.07 C 3.90833 km/h
1580 26-06-2020 19:00:00 25.25 C 14.26 g/m*3 25.25 C 15.29167 km/h
1581 26-06-2020 20:00:00 23.20833 C 14.56 g/m*3 23.21 C 4.55 km/h
1582 26-06-2020 21:00:00 21.55833 C 14.79 g/m*3 21.56 C 4.55833 km/h
1583 26-06-2020 22:00:00 21.00833 C 14.81 g/m*3 21.01 C 2.95 km/h
1584 26-06-2020 23:00:00 20.21667 C 14.56 g/m*3 20.22 C 2 km/h
1585 27-06-2020 00:00:00 20.35833 C 14.28 g/m*3 20.36 C 6.85833 km/h
1586 27-06-2020 01:00:00 19.39167 C 13.92 g/m*3 19.39 C 0.53333 km/h
1587 27-06-2020 02:00:00 18.29167 C 13.64 g/m*3 18.29 C 0.4 km/h
1588 27-06-2020 03:00:00 18.29167 C 13.96 g/m*3 18.29 C 0.13333 km/h
1589 27-06-2020 04:00:00 18.13333 C 13.83 g/m*3 18.13 C 0.4 km/h
1590 27-06-2020 05:00:00 17.46667 C 13.61 g/m*3 17.47 C 0.53333 km/h
1591 27-06-2020 06:00:00 18.24167 C 14.31 g/m*3 18.24 C 2.26667 km/h
1592 27-06-2020 07:00:00 19.68333 C 14.89 g/m*3 19.68 C 6.45 km/h
1593 27-06-2020 08:00:00 21 C 14.84 g/m*3 21 C 13.83333 km/h
1594 27-06-2020 09:00:00 21.7 C 14.78 g/m*3 21.7 C 4.55 km/h
1595 27-06-2020 10:00:00 23 C 14.75 g/m*3 23 C 8.46667 km/h
1596 27-06-2020 11:00:00 23.09167 C 14.62 g/m*3 23.09 C 7.8 km/h
1597 27-06-2020 12:00:00 22.55833 C 15 g/m*3 22.56 C 5.88333 km/h
1598 27-06-2020 13:00:00 23.075 C 15.55 g/m*3 23.08 C 5.75833 km/h
1599 27-06-2020 14:00:00 25.38333 C 15.19 g/m*3 25.38 C 15.83333 km/h
1600 27-06-2020 15:00:00 27.83333 C 14.35 g/m*3 27.83 C 19.16667 km/h
Sensor: Nr:Datum:Temp:Abs-Feuchte:Windchill:Wind:
Aussen-T/F 1601 27-06-2020 16:00:00 28.875 C 14.62 g/m*3 28.88 C 17.96667 km/h
1602 27-06-2020 17:00:00 28.89167 C 14.42 g/m*3 28.89 C 15.56667 km/h
1603 27-06-2020 18:00:00 28.04167 C 14.08 g/m*3 28.04 C 13.425 km/h
1604 27-06-2020 19:00:00 26.70833 C 13.7 g/m*3 26.71 C 11.425 km/h
1605 27-06-2020 20:00:00 25.525 C 13.55 g/m*3 25.53 C 8.875 km/h
1606 27-06-2020 21:00:00 24.375 C 13.67 g/m*3 24.38 C 5.625 km/h
1607 27-06-2020 22:00:00 22.85 C 13.93 g/m*3 22.85 C 3.46667 km/h
1608 27-06-2020 23:00:00 21.74167 C 14.12 g/m*3 21.74 C 1.6 km/h
1609 28-06-2020 00:00:00 20.975 C 14.01 g/m*3 20.98 C 0.53333 km/h
1610 28-06-2020 01:00:00 20.04167 C 13.95 g/m*3 20.04 C 0 km/h
1611 28-06-2020 02:00:00 20.36667 C 14.2 g/m*3 20.37 C 0.4 km/h
1612 28-06-2020 03:00:00 20.075 C 14.9 g/m*3 20.08 C 2.94167 km/h
1613 28-06-2020 04:00:00 19.375 C 14.84 g/m*3 19.38 C 0.66667 km/h
1614 28-06-2020 05:00:00 19.11667 C 14.67 g/m*3 19.12 C 1.06667 km/h
1615 28-06-2020 06:00:00 19.14167 C 14.15 g/m*3 19.14 C 3.20833 km/h
1616 28-06-2020 07:00:00 19.94167 C 13.84 g/m*3 19.94 C 7.38333 km/h
1617 28-06-2020 08:00:00 20.65833 C 13.51 g/m*3 20.66 C 13.16667 km/h
1618 28-06-2020 09:00:00 20.225 C 12.16 g/m*3 20.23 C 13.43333 km/h
1619 28-06-2020 10:00:00 19.9 C 11.54 g/m*3 19.9 C 13.96667 km/h
1620 28-06-2020 11:00:00 20.425 C 11.81 g/m*3 20.43 C 8.6 km/h
1621 28-06-2020 12:00:00 20.56667 C 11.19 g/m*3 20.57 C 9.15833 km/h
1622 28-06-2020 13:00:00 21.83333 C 10.97 g/m*3 21.83 C 12.9 km/h
1623 28-06-2020 14:00:00 20.24167 C 11.47 g/m*3 20.24 C 8.73333 km/h
1624 28-06-2020 15:00:00 19.45833 C 11.51 g/m*3 19.46 C 6.56667 km/h
1625 28-06-2020 16:00:00 20.45833 C 11.21 g/m*3 20.46 C 11.95 km/h
Sensor: Nr:Datum:Temp:Abs-Feuchte:Windchill:Wind:
Aussen-T/F 1626 28-06-2020 17:00:00 20.71667 C 11.22 g/m*3 20.72 C 8.325 km/h
1627 28-06-2020 18:00:00 20.89167 C 11.13 g/m*3 20.89 C 8.60833 km/h
1628 28-06-2020 19:00:00 20.45833 C 11.12 g/m*3 20.46 C 5.89167 km/h
1629 28-06-2020 20:00:00 20.175 C 11.17 g/m*3 20.18 C 6.975 km/h
1630 28-06-2020 21:00:00 19.43333 C 11.21 g/m*3 19.43 C 5.09167 km/h
1631 28-06-2020 22:00:00 16.975 C 10.9 g/m*3 16.98 C 3.2 km/h
1632 28-06-2020 23:00:00 15.425 C 10.76 g/m*3 15.43 C 4.26667 km/h
1633 29-06-2020 00:00:00 15.06667 C 10.83 g/m*3 15.07 C 3.86667 km/h
1634 29-06-2020 01:00:00 14.7 C 10.75 g/m*3 14.7 C 1.06667 km/h
1635 29-06-2020 02:00:00 13.85 C 10.63 g/m*3 13.85 C 1.6 km/h
1636 29-06-2020 03:00:00 13.96667 C 10.86 g/m*3 13.97 C 1.46667 km/h
1637 29-06-2020 04:00:00 14.1 C 11.04 g/m*3 14.1 C 0.8 km/h
1638 29-06-2020 05:00:00 14.90833 C 11.34 g/m*3 14.91 C 3.2 km/h
1639 29-06-2020 06:00:00 15.41667 C 11.41 g/m*3 15.42 C 4.14167 km/h
1640 29-06-2020 07:00:00 16.38333 C 11.76 g/m*3 16.38 C 1.73333 km/h
1641 29-06-2020 08:00:00 16.51667 C 11.15 g/m*3 16.52 C 10.45833 km/h
1642 29-06-2020 09:00:00 12.51667 C 9.99 g/m*3 12.52 C 7.375 km/h
1643 29-06-2020 10:00:00 13.25833 C 10.78 g/m*3 13.26 C 2.8 km/h
1644 29-06-2020 11:00:00 15.76667 C 11.61 g/m*3 15.77 C 6.43333 km/h
1645 29-06-2020 12:00:00 17.65833 C 11.86 g/m*3 17.66 C 8.48333 km/h
1646 29-06-2020 13:00:00 20.00833 C 12.03 g/m*3 20.01 C 13.43333 km/h
1647 29-06-2020 14:00:00 21.44167 C 11.56 g/m*3 21.44 C 15.96667 km/h
1648 29-06-2020 15:00:00 22.74167 C 9.79 g/m*3 22.74 C 18.36667 km/h
1649 29-06-2020 16:00:00 23.84167 C 9.61 g/m*3 23.84 C 17.03333 km/h
1650 29-06-2020 17:00:00 24.025 C 9.75 g/m*3 24.03 C 14.9 km/h
Sensor: Nr:Datum:Temp:Abs-Feuchte:Windchill:Wind:
Aussen-T/F 1651 29-06-2020 18:00:00 23.36667 C 9.23 g/m*3 23.37 C 13.56667 km/h
1652 29-06-2020 19:00:00 22.15 C 8.99 g/m*3 22.15 C 13.15833 km/h
1653 29-06-2020 20:00:00 20.75833 C 8.79 g/m*3 20.76 C 9.275 km/h
1654 29-06-2020 21:00:00 19.43333 C 9.08 g/m*3 19.43 C 5.75833 km/h
1655 29-06-2020 22:00:00 17.28333 C 9.14 g/m*3 17.28 C 4.40833 km/h
1656 29-06-2020 23:00:00 15.59167 C 9.01 g/m*3 15.59 C 4.93333 km/h
1657 30-06-2020 00:00:00 13.73333 C 9.05 g/m*3 13.73 C 2.13333 km/h
1658 30-06-2020 01:00:00 13.04167 C 8.97 g/m*3 13.04 C 0 km/h
1659 30-06-2020 02:00:00 11.975 C 8.8 g/m*3 11.98 C 0 km/h
1660 30-06-2020 03:00:00 11.075 C 8.72 g/m*3 11.08 C 0 km/h
1661 30-06-2020 04:00:00 10.61667 C 8.66 g/m*3 10.62 C 0 km/h
1662 30-06-2020 05:00:00 9.99167 C 8.48 g/m*3 9.99 C 0 km/h
1663 30-06-2020 06:00:00 9.83333 C 8.56 g/m*3 9.83 C 0 km/h
1664 30-06-2020 07:00:00 11.08333 C 9.22 g/m*3 11.08 C 0.13333 km/h
1665 30-06-2020 08:00:00 13.675 C 9.97 g/m*3 13.68 C 0.13333 km/h
1666 30-06-2020 09:00:00 15.98333 C 10.08 g/m*3 15.98 C 0 km/h
1667 30-06-2020 10:00:00 17.325 C 9.95 g/m*3 17.33 C 7.51667 km/h
1668 30-06-2020 11:00:00 17.8 C 9.98 g/m*3 17.8 C 7.78333 km/h
1669 30-06-2020 12:00:00 18.24167 C 10.21 g/m*3 18.24 C 10.075 km/h
1670 30-06-2020 13:00:00 19.69167 C 10.45 g/m*3 19.69 C 12.36667 km/h
1671 30-06-2020 14:00:00 20.9 C 10.43 g/m*3 20.9 C 16.36667 km/h
1672 30-06-2020 15:00:00 21.525 C 10.54 g/m*3 21.53 C 16.23333 km/h
1673 30-06-2020 16:00:00 22.15833 C 10.89 g/m*3 22.16 C 15.3 km/h
1674 30-06-2020 17:00:00 23.20833 C 10.82 g/m*3 23.21 C 15.025 km/h
1675 30-06-2020 18:00:00 22.73333 C 10.78 g/m*3 22.73 C 15.3 km/h
Sensor: Nr:Datum:Temp:Abs-Feuchte:Windchill:Wind:
Aussen-T/F 1676 30-06-2020 19:00:00 21.325 C 11.01 g/m*3 21.33 C 12.5 km/h
1677 30-06-2020 20:00:00 20.94167 C 11.33 g/m*3 20.94 C 11.69167 km/h
1678 30-06-2020 21:00:00 20.05833 C 11.56 g/m*3 20.06 C 6.175 km/h
1679 30-06-2020 22:00:00 19.04167 C 11.72 g/m*3 19.04 C 4.95833 km/h
1680 30-06-2020 23:00:00 19.20833 C 11.74 g/m*3 19.21 C 7.25 km/h
1681 01-07-2020 00:00:00 19.40833 C 11.75 g/m*3 19.41 C 9.54167 km/h
1682 01-07-2020 01:00:00 19.025 C 11.86 g/m*3 19.02 C 5.75833 km/h
1683 01-07-2020 02:00:00 18.175 C 11.78 g/m*3 18.18 C 7.1 km/h
1684 01-07-2020 03:00:00 17.78333 C 11.85 g/m*3 17.78 C 3.33333 km/h
1685 01-07-2020 04:00:00 17.15833 C 11.8 g/m*3 17.16 C 2 km/h
1686 01-07-2020 05:00:00 16.54167 C 11.72 g/m*3 16.54 C 0.53333 km/h
1687 01-07-2020 06:00:00 15.71667 C 11.69 g/m*3 15.72 C 1.33333 km/h
1688 01-07-2020 07:00:00 16.675 C 12.4 g/m*3 16.68 C 4.28333 km/h
1689 01-07-2020 08:00:00 19.09167 C 12.85 g/m*3 19.09 C 9.825 km/h
1690 01-07-2020 09:00:00 20.89167 C 13.53 g/m*3 20.89 C 9.26667 km/h
1691 01-07-2020 10:00:00 21.55 C 13.84 g/m*3 21.55 C 13.43333 km/h
1692 01-07-2020 11:00:00 22.125 C 13.9 g/m*3 22.13 C 11.96667 km/h
1693 01-07-2020 12:00:00 23.56667 C 13.87 g/m*3 23.57 C 17.7 km/h
1694 01-07-2020 13:00:00 24.09167 C 14.01 g/m*3 24.09 C 19.03333 km/h
1695 01-07-2020 14:00:00 24.7 C 14.07 g/m*3 24.7 C 19.84167 km/h
1696 01-07-2020 15:00:00 24.725 C 14.15 g/m*3 24.73 C 18.36667 km/h
1697 01-07-2020 16:00:00 25.20833 C 14.32 g/m*3 25.21 C 16.23333 km/h
1698 01-07-2020 17:00:00 25.61667 C 14.16 g/m*3 25.62 C 17.3 km/h
1699 01-07-2020 18:00:00 25.05833 C 13.82 g/m*3 25.06 C 14.23333 km/h
1700 01-07-2020 19:00:00 24.51667 C 13.93 g/m*3 24.52 C 13.56667 km/h
Sensor: Nr:Datum:Temp:Abs-Feuchte:Windchill:Wind:
Aussen-T/F 1701 01-07-2020 20:00:00 24.53333 C 14.03 g/m*3 24.53 C 11.95833 km/h
1702 01-07-2020 21:00:00 23.34167 C 13.78 g/m*3 23.34 C 9.95 km/h
1703 01-07-2020 22:00:00 22.125 C 13.9 g/m*3 22.13 C 3.075 km/h
1704 01-07-2020 23:00:00 19.55 C 14.17 g/m*3 19.55 C 10.2 km/h
1705 02-07-2020 00:00:00 17.83333 C 14.09 g/m*3 17.83 C 0.26667 km/h
1706 02-07-2020 01:00:00 17.71667 C 14.17 g/m*3 17.72 C 0 km/h
1707 02-07-2020 02:00:00 17.46667 C 14.02 g/m*3 17.47 C 0.66667 km/h
1708 02-07-2020 03:00:00 16.525 C 13.31 g/m*3 16.52 C 3.6 km/h
1709 02-07-2020 04:00:00 15.71667 C 12.72 g/m*3 15.72 C 2.8 km/h
1710 02-07-2020 05:00:00 15.05 C 12.24 g/m*3 15.05 C 0.13333 km/h
1711 02-07-2020 06:00:00 15.575 C 12.77 g/m*3 15.58 C 0 km/h
1712 02-07-2020 07:00:00 16.475 C 13.56 g/m*3 16.48 C 0 km/h
1713 02-07-2020 08:00:00 16.56667 C 13.59 g/m*3 16.57 C 0 km/h
1714 02-07-2020 09:00:00 17.98333 C 14.88 g/m*3 17.98 C 1.2 km/h
1715 02-07-2020 10:00:00 18.85833 C 15.16 g/m*3 18.86 C 5.625 km/h
1716 02-07-2020 11:00:00 21.075 C 14.03 g/m*3 21.08 C 12.89167 km/h
1717 02-07-2020 12:00:00 21.9 C 12.41 g/m*3 21.9 C 14.63333 km/h
1718 02-07-2020 13:00:00 22.575 C 12.39 g/m*3 22.58 C 14.9 km/h
1719 02-07-2020 14:00:00 20.58333 C 13.26 g/m*3 20.58 C 4.29167 km/h
1720 02-07-2020 15:00:00 21.075 C 12.85 g/m*3 21.08 C 8.6 km/h
1721 02-07-2020 16:00:00 21.825 C 12.99 g/m*3 21.83 C 2.93333 km/h
1722 02-07-2020 17:00:00 22.85833 C 12.22 g/m*3 22.86 C 13.81667 km/h
1723 02-07-2020 18:00:00 21.40833 C 11.94 g/m*3 21.41 C 14.63333 km/h
1724 02-07-2020 19:00:00 19.16667 C 11.97 g/m*3 19.17 C 8.2 km/h
1725 02-07-2020 20:00:00 19.13333 C 11.72 g/m*3 19.13 C 6.30833 km/h
Sensor: Nr:Datum:Temp:Abs-Feuchte:Windchill:Wind:
Aussen-T/F 1726 02-07-2020 21:00:00 18.85833 C 11.72 g/m*3 18.86 C 4.15 km/h
1727 02-07-2020 22:00:00 17.43333 C 11.74 g/m*3 17.43 C 4.40833 km/h
1728 02-07-2020 23:00:00 15.89167 C 11.29 g/m*3 15.89 C 3.46667 km/h
1729 03-07-2020 00:00:00 14.88333 C 11.08 g/m*3 14.88 C 2.13333 km/h
1730 03-07-2020 01:00:00 14.03333 C 10.79 g/m*3 14.03 C 1.73333 km/h
1731 03-07-2020 02:00:00 13.31667 C 10.47 g/m*3 13.32 C 0.4 km/h
1732 03-07-2020 03:00:00 12.45 C 10.11 g/m*3 12.45 C 0.26667 km/h
1733 03-07-2020 04:00:00 11.875 C 9.86 g/m*3 11.88 C 1.33333 km/h
1734 03-07-2020 05:00:00 11.39167 C 9.64 g/m*3 11.39 C 0.66667 km/h
1735 03-07-2020 06:00:00 11.33333 C 9.68 g/m*3 11.33 C 0.26667 km/h
1736 03-07-2020 07:00:00 11.79167 C 10.02 g/m*3 11.79 C 1.2 km/h
1737 03-07-2020 08:00:00 13.74167 C 10.52 g/m*3 13.74 C 5.36667 km/h
1738 03-07-2020 09:00:00 15.85 C 10.68 g/m*3 15.85 C 5.35 km/h
1739 03-07-2020 10:00:00 18.13333 C 11.29 g/m*3 18.13 C 6.84167 km/h
1740 03-07-2020 11:00:00 19.875 C 11.37 g/m*3 19.88 C 8.73333 km/h
1741 03-07-2020 12:00:00 20.14167 C 11.17 g/m*3 20.14 C 7.78333 km/h
1742 03-07-2020 13:00:00 21.05833 C 11.06 g/m*3 21.06 C 7.65833 km/h
1743 03-07-2020 14:00:00 22.25 C 10.91 g/m*3 22.25 C 10.475 km/h
1744 03-07-2020 15:00:00 23.49167 C 10.9 g/m*3 23.49 C 13.29167 km/h
1745 03-07-2020 16:00:00 24.025 C 10.46 g/m*3 24.03 C 12.89167 km/h
1746 03-07-2020 17:00:00 24.09167 C 10.46 g/m*3 24.09 C 13.16667 km/h
1747 03-07-2020 18:00:00 23.98333 C 10.38 g/m*3 23.98 C 10.20833 km/h
1748 03-07-2020 19:00:00 23.86667 C 10.04 g/m*3 23.87 C 11.425 km/h
1749 03-07-2020 20:00:00 22.20833 C 10 g/m*3 22.21 C 10.86667 km/h
1750 03-07-2020 21:00:00 19.60833 C 10.81 g/m*3 19.61 C 4.26667 km/h
Sensor: Nr:Datum:Temp:Abs-Feuchte:Windchill:Wind:
Aussen-T/F 1751 03-07-2020 22:00:00 16.91667 C 10.57 g/m*3 16.92 C 3.86667 km/h
1752 03-07-2020 23:00:00 15.43333 C 10.41 g/m*3 15.43 C 1.46667 km/h
1753 04-07-2020 00:00:00 14.35833 C 10.25 g/m*3 14.36 C 0 km/h
1754 04-07-2020 01:00:00 13.55833 C 10.08 g/m*3 13.56 C 1.86667 km/h
1755 04-07-2020 02:00:00 13.24167 C 9.97 g/m*3 13.24 C 2.41667 km/h
1756 04-07-2020 03:00:00 12.84167 C 9.84 g/m*3 12.84 C 1.46667 km/h
1757 04-07-2020 04:00:00 12.53333 C 9.77 g/m*3 12.53 C 2.94167 km/h
1758 04-07-2020 05:00:00 12.65833 C 9.72 g/m*3 12.66 C 1.60833 km/h
1759 04-07-2020 06:00:00 12.80833 C 10 g/m*3 12.81 C 2 km/h
1760 04-07-2020 07:00:00 14.11667 C 10.4 g/m*3 14.12 C 0.26667 km/h
1761 04-07-2020 08:00:00 15.375 C 10.8 g/m*3 15.38 C 0 km/h
1762 04-07-2020 09:00:00 17.14167 C 10.93 g/m*3 17.14 C 8.05833 km/h
1763 04-07-2020 10:00:00 20.19167 C 10.94 g/m*3 20.19 C 13.16667 km/h
1764 04-07-2020 11:00:00 21.70833 C 10.81 g/m*3 21.71 C 18.36667 km/h
1765 04-07-2020 12:00:00 22.21667 C 10.96 g/m*3 22.22 C 17.43333 km/h
1766 04-07-2020 13:00:00 22.39167 C 11.02 g/m*3 22.39 C 17.85 km/h
1767 04-07-2020 14:00:00 23.1 C 10.89 g/m*3 23.1 C 17.04167 km/h
1768 04-07-2020 15:00:00 23.31667 C 10.52 g/m*3 23.32 C 16.1 km/h
1769 04-07-2020 16:00:00 24.075 C 11.18 g/m*3 24.08 C 13.56667 km/h
1770 04-07-2020 17:00:00 24.90833 C 11.47 g/m*3 24.91 C 14.23333 km/h
1771 04-07-2020 18:00:00 24.61667 C 11.79 g/m*3 24.62 C 15.3 km/h
1772 04-07-2020 19:00:00 24.78333 C 12.2 g/m*3 24.78 C 14.89167 km/h
1773 04-07-2020 20:00:00 23.03333 C 11.77 g/m*3 23.03 C 13.95833 km/h
1774 04-07-2020 21:00:00 22.25833 C 12.1 g/m*3 22.26 C 10.09167 km/h
1775 04-07-2020 22:00:00 21.71667 C 12.33 g/m*3 21.72 C 6.04167 km/h
Sensor: Nr:Datum:Temp:Abs-Feuchte:Windchill:Wind:
Aussen-T/F 1776 04-07-2020 23:00:00 21.40833 C 12.77 g/m*3 21.41 C 8.19167 km/h
1777 05-07-2020 00:00:00 21.31667 C 13.5 g/m*3 21.32 C 9.125 km/h
1778 05-07-2020 01:00:00 21.11667 C 13.76 g/m*3 21.12 C 9.675 km/h
1779 05-07-2020 02:00:00 20.99167 C 13.87 g/m*3 20.99 C 8.31667 km/h
1780 05-07-2020 03:00:00 20.975 C 13.72 g/m*3 20.98 C 10.34167 km/h
1781 05-07-2020 04:00:00 21.05833 C 13.86 g/m*3 21.06 C 10.19167 km/h
1782 05-07-2020 05:00:00 21.1 C 13.97 g/m*3 21.1 C 13.16667 km/h
1783 05-07-2020 06:00:00 20.93333 C 13.94 g/m*3 20.93 C 12.36667 km/h
1784 05-07-2020 07:00:00 21.05 C 14.22 g/m*3 21.05 C 17.84167 km/h
1785 05-07-2020 08:00:00 21.39167 C 14.57 g/m*3 21.39 C 16.23333 km/h
1786 05-07-2020 09:00:00 22 C 14.83 g/m*3 22 C 15.575 km/h
1787 05-07-2020 10:00:00 22.35833 C 14.73 g/m*3 22.36 C 19.70833 km/h
1788 05-07-2020 11:00:00 23.04167 C 14.73 g/m*3 23.04 C 19.70833 km/h
1789 05-07-2020 12:00:00 23.46667 C 14.92 g/m*3 23.47 C 19.3 km/h
1790 05-07-2020 13:00:00 23.93333 C 15.03 g/m*3 23.93 C 18.9 km/h
1791 05-07-2020 14:00:00 25.60833 C 14.63 g/m*3 25.61 C 18.1 km/h
1792 05-07-2020 15:00:00 25.425 C 14.36 g/m*3 25.43 C 15.16667 km/h
1793 05-07-2020 16:00:00 25.925 C 14.79 g/m*3 25.93 C 14.76667 km/h
1794 05-07-2020 17:00:00 25.50833 C 14.67 g/m*3 25.51 C 15.96667 km/h
1795 05-07-2020 18:00:00 25.63333 C 14.89 g/m*3 25.63 C 20.375 km/h
1796 05-07-2020 19:00:00 25.525 C 14.82 g/m*3 25.53 C 17.70833 km/h
1797 05-07-2020 20:00:00 24.20833 C 14.66 g/m*3 24.21 C 15.29167 km/h
1798 05-07-2020 21:00:00 22.58333 C 14.55 g/m*3 22.58 C 11.95833 km/h
1799 05-07-2020 22:00:00 21.45833 C 14.31 g/m*3 21.46 C 11.56667 km/h
1800 05-07-2020 23:00:00 20.65 C 14.09 g/m*3 20.65 C 5.08333 km/h
Sensor: Nr:Datum:Temp:Abs-Feuchte:Windchill:Wind:
Aussen-T/F 1801 06-07-2020 00:00:00 19.525 C 13.95 g/m*3 19.52 C 3.20833 km/h
1802 06-07-2020 01:00:00 19.36667 C 13.36 g/m*3 19.37 C 9.39167 km/h
1803 06-07-2020 02:00:00 18.96667 C 11.59 g/m*3 18.97 C 10.36667 km/h
1804 06-07-2020 03:00:00 17.1 C 8.93 g/m*3 17.1 C 16.225 km/h
1805 06-07-2020 04:00:00 14.90833 C 8.67 g/m*3 14.91 C 7.24167 km/h
1806 06-07-2020 05:00:00 13.55833 C 8.64 g/m*3 13.56 C 3.89167 km/h
1807 06-07-2020 06:00:00 12.95833 C 8.75 g/m*3 12.96 C 4.675 km/h
1808 06-07-2020 07:00:00 14.05 C 9.07 g/m*3 14.05 C 8.6 km/h
1809 06-07-2020 08:00:00 15.13333 C 8.76 g/m*3 15.13 C 13.83333 km/h
1810 06-07-2020 09:00:00 15.84167 C 8.4 g/m*3 15.84 C 14.63333 km/h
1811 06-07-2020 10:00:00 17.025 C 8.38 g/m*3 17.02 C 14.1 km/h
1812 06-07-2020 11:00:00 18.15833 C 8.15 g/m*3 18.16 C 18.1 km/h
1813 06-07-2020 12:00:00 18.80833 C 7.96 g/m*3 18.81 C 17.30833 km/h
1814 06-07-2020 13:00:00 19.275 C 7.94 g/m*3 19.27 C 15.3 km/h
1815 06-07-2020 14:00:00 19.925 C 7.71 g/m*3 19.93 C 16.9 km/h
1816 06-07-2020 15:00:00 17.58333 C 9.45 g/m*3 17.58 C 12.89167 km/h
1817 06-07-2020 16:00:00 15.88333 C 10.53 g/m*3 15.88 C 3.75 km/h
1818 06-07-2020 17:00:00 17.59167 C 9.24 g/m*3 17.59 C 11.00833 km/h
1819 06-07-2020 18:00:00 19.46667 C 9.6 g/m*3 19.47 C 13.85 km/h
1820 06-07-2020 19:00:00 17 C 9.22 g/m*3 17 C 5.24167 km/h
1821 06-07-2020 20:00:00 17.26667 C 9.46 g/m*3 17.27 C 2.40833 km/h
1822 06-07-2020 21:00:00 16.63333 C 9.44 g/m*3 16.63 C 1.2 km/h
1823 06-07-2020 22:00:00 14.08333 C 9.08 g/m*3 14.08 C 1.86667 km/h
1824 06-07-2020 23:00:00 13.00833 C 8.94 g/m*3 13.01 C 3.2 km/h
1825 07-07-2020 00:00:00 11.95833 C 8.87 g/m*3 11.96 C 1.46667 km/h
Sensor: Nr:Datum:Temp:Abs-Feuchte:Windchill:Wind:
Aussen-T/F 1826 07-07-2020 01:00:00 11.05833 C 8.73 g/m*3 11.06 C 0.93333 km/h
1827 07-07-2020 02:00:00 10.425 C 8.62 g/m*3 10.43 C 1.46667 km/h
1828 07-07-2020 03:00:00 10.025 C 8.58 g/m*3 10.03 C 1.33333 km/h
1829 07-07-2020 04:00:00 9.575 C 8.41 g/m*3 9.57 C 1.33333 km/h
1830 07-07-2020 05:00:00 8.89167 C 8.1 g/m*3 8.89 C 1.6 km/h
1831 07-07-2020 06:00:00 8.61667 C 8.03 g/m*3 8.62 C 1.06667 km/h
1832 07-07-2020 07:00:00 9.35833 C 8.45 g/m*3 9.36 C 4.26667 km/h
1833 07-07-2020 08:00:00 10.475 C 9.01 g/m*3 10.48 C 1.46667 km/h
1834 07-07-2020 09:00:00 12.4 C 9.92 g/m*3 12.4 C 0.8 km/h
1835 07-07-2020 10:00:00 15.875 C 9.66 g/m*3 15.88 C 3.73333 km/h
1836 07-07-2020 11:00:00 18.275 C 8.57 g/m*3 18.27 C 5.90833 km/h
1837 07-07-2020 12:00:00 19.65833 C 8.13 g/m*3 19.66 C 7.79167 km/h
1838 07-07-2020 13:00:00 19.91667 C 7.98 g/m*3 19.92 C 6.04167 km/h
1839 07-07-2020 14:00:00 20.50833 C 8.43 g/m*3 20.51 C 7.65 km/h
1840 07-07-2020 15:00:00 21.875 C 8.77 g/m*3 21.88 C 11.025 km/h
1841 07-07-2020 16:00:00 23.36667 C 8.8 g/m*3 23.37 C 11.16667 km/h
1842 07-07-2020 17:00:00 22.76667 C 8.64 g/m*3 22.77 C 10.20833 km/h
1843 07-07-2020 18:00:00 23.8 C 8.71 g/m*3 23.8 C 9.00833 km/h
1844 07-07-2020 19:00:00 22.08333 C 8.53 g/m*3 22.08 C 8.06667 km/h
1845 07-07-2020 20:00:00 21.1 C 8.94 g/m*3 21.1 C 4.00833 km/h
1846 07-07-2020 21:00:00 19.76667 C 9.65 g/m*3 19.77 C 1.06667 km/h
1847 07-07-2020 22:00:00 17.6 C 9.65 g/m*3 17.6 C 3.06667 km/h
1848 07-07-2020 23:00:00 16.975 C 9.78 g/m*3 16.98 C 4 km/h
1849 08-07-2020 00:00:00 16.31667 C 9.99 g/m*3 16.32 C 0.66667 km/h
1850 08-07-2020 01:00:00 15.8 C 10.03 g/m*3 15.8 C 0.13333 km/h
Sensor: Nr:Datum:Temp:Abs-Feuchte:Windchill:Wind:
Aussen-T/F 1851 08-07-2020 02:00:00 15.9 C 9.91 g/m*3 15.9 C 0.4 km/h
1852 08-07-2020 03:00:00 16.31667 C 9.69 g/m*3 16.32 C 2.14167 km/h
1853 08-07-2020 04:00:00 16.40833 C 9.72 g/m*3 16.41 C 1.06667 km/h
1854 08-07-2020 05:00:00 15.83333 C 10.18 g/m*3 15.83 C 0 km/h
1855 08-07-2020 06:00:00 15.38333 C 10.52 g/m*3 15.38 C 0.13333 km/h
1856 08-07-2020 07:00:00 15.05 C 11.1 g/m*3 15.05 C 0.26667 km/h
1857 08-07-2020 08:00:00 14.55833 C 10.13 g/m*3 14.56 C 6.16667 km/h
1858 08-07-2020 09:00:00 13.96667 C 10.07 g/m*3 13.97 C 4.40833 km/h
1859 08-07-2020 10:00:00 13.81667 C 10.61 g/m*3 13.82 C 2.4 km/h
1860 08-07-2020 11:00:00 14.05 C 11.16 g/m*3 14.05 C 3.74167 km/h
1861 08-07-2020 12:00:00 14.7 C 11.57 g/m*3 14.7 C 2.66667 km/h
1862 08-07-2020 13:00:00 15.11667 C 11.88 g/m*3 15.12 C 6.025 km/h
1863 08-07-2020 14:00:00 15.55 C 12.35 g/m*3 15.55 C 4.13333 km/h
1864 08-07-2020 15:00:00 16.13333 C 12.86 g/m*3 16.13 C 5.475 km/h
1865 08-07-2020 16:00:00 16.55 C 13.23 g/m*3 16.55 C 0.8 km/h
1866 08-07-2020 17:00:00 17.30833 C 13.73 g/m*3 17.31 C 5.36667 km/h
1867 08-07-2020 18:00:00 17.90833 C 13.84 g/m*3 17.91 C 2.53333 km/h
1868 08-07-2020 19:00:00 17.36667 C 13.71 g/m*3 17.37 C 0.66667 km/h
1869 08-07-2020 20:00:00 17.24167 C 13.65 g/m*3 17.24 C 0 km/h
1870 08-07-2020 21:00:00 16.86667 C 13.48 g/m*3 16.87 C 0 km/h
1871 08-07-2020 22:00:00 16.525 C 13.28 g/m*3 16.52 C 0.93333 km/h
1872 08-07-2020 23:00:00 16.36667 C 13.23 g/m*3 16.37 C 2.66667 km/h
1873 09-07-2020 00:00:00 16.5 C 13.43 g/m*3 16.5 C 1.06667 km/h
1874 09-07-2020 01:00:00 16.68333 C 13.63 g/m*3 16.68 C 2.93333 km/h
1875 09-07-2020 02:00:00 16.75833 C 13.69 g/m*3 16.76 C 1.73333 km/h
Sensor: Nr:Datum:Temp:Abs-Feuchte:Windchill:Wind:
Aussen-T/F 1876 09-07-2020 03:00:00 16.69167 C 13.64 g/m*3 16.69 C 2.4 km/h
1877 09-07-2020 04:00:00 16.76667 C 13.7 g/m*3 16.77 C 2.54167 km/h
1878 09-07-2020 05:00:00 16.84167 C 13.76 g/m*3 16.84 C 2.8 km/h
1879 09-07-2020 06:00:00 17.06667 C 13.85 g/m*3 17.07 C 4.00833 km/h
1880 09-07-2020 07:00:00 17.63333 C 13.96 g/m*3 17.63 C 6.03333 km/h
1881 09-07-2020 08:00:00 18.68333 C 14.14 g/m*3 18.68 C 6.7 km/h
1882 09-07-2020 09:00:00 19.7 C 14.38 g/m*3 19.7 C 9.69167 km/h
1883 09-07-2020 10:00:00 20.40833 C 14.53 g/m*3 20.41 C 9.41667 km/h
1884 09-07-2020 11:00:00 21.64167 C 14.8 g/m*3 21.64 C 11.425 km/h
1885 09-07-2020 12:00:00 23 C 14.8 g/m*3 23 C 11.3 km/h
1886 09-07-2020 13:00:00 24.51667 C 14.09 g/m*3 24.52 C 13.825 km/h
1887 09-07-2020 14:00:00 26.11667 C 13.48 g/m*3 26.12 C 15.7 km/h
1888 09-07-2020 15:00:00 27.08333 C 12.99 g/m*3 27.08 C 14.1 km/h
1889 09-07-2020 16:00:00 28.05 C 12.52 g/m*3 28.05 C 17.56667 km/h
1890 09-07-2020 17:00:00 27.83333 C 12.26 g/m*3 27.83 C 15.96667 km/h
1891 09-07-2020 18:00:00 27.76667 C 12.08 g/m*3 27.77 C 12.36667 km/h
1892 09-07-2020 19:00:00 27.28333 C 12.2 g/m*3 27.28 C 7.25833 km/h
1893 09-07-2020 20:00:00 26.325 C 12.81 g/m*3 26.33 C 5.225 km/h
1894 09-07-2020 21:00:00 23.525 C 14.14 g/m*3 23.53 C 0 km/h
1895 09-07-2020 22:00:00 21.425 C 14.08 g/m*3 21.43 C 0.53333 km/h
1896 09-07-2020 23:00:00 20.44167 C 13.91 g/m*3 20.44 C 0 km/h
1897 10-07-2020 00:00:00 18.96667 C 13.32 g/m*3 18.97 C 0 km/h
1898 10-07-2020 01:00:00 17.81667 C 12.99 g/m*3 17.82 C 0 km/h
1899 10-07-2020 02:00:00 16.96667 C 12.68 g/m*3 16.97 C 0 km/h
1900 10-07-2020 03:00:00 16.61667 C 12.59 g/m*3 16.62 C 0 km/h
Sensor: Nr:Datum:Temp:Abs-Feuchte:Windchill:Wind:
Aussen-T/F 1901 10-07-2020 04:00:00 16.2 C 12.42 g/m*3 16.2 C 0 km/h
1902 10-07-2020 05:00:00 16.15 C 12.47 g/m*3 16.15 C 1.20833 km/h
1903 10-07-2020 06:00:00 16.33333 C 12.55 g/m*3 16.33 C 1.075 km/h
1904 10-07-2020 07:00:00 17.38333 C 12.92 g/m*3 17.38 C 2.4 km/h
1905 10-07-2020 08:00:00 19.19167 C 13.46 g/m*3 19.19 C 5.5 km/h
1906 10-07-2020 09:00:00 20.26667 C 13.33 g/m*3 20.27 C 12.23333 km/h
1907 10-07-2020 10:00:00 20.69167 C 12.97 g/m*3 20.69 C 14.9 km/h
1908 10-07-2020 11:00:00 21.425 C 12.74 g/m*3 21.43 C 17.16667 km/h
1909 10-07-2020 12:00:00 21.98333 C 12.57 g/m*3 21.98 C 16.1 km/h
1910 10-07-2020 13:00:00 21.25833 C 12.15 g/m*3 21.26 C 16.5 km/h
1911 10-07-2020 14:00:00 20.95833 C 12.09 g/m*3 20.96 C 15.15833 km/h
1912 10-07-2020 15:00:00 19.3 C 13.19 g/m*3 19.3 C 10.075 km/h
1913 10-07-2020 16:00:00 18.33333 C 13.97 g/m*3 18.33 C 5.775 km/h
1914 10-07-2020 17:00:00 18.25833 C 14.31 g/m*3 18.26 C 5.89167 km/h
1915 10-07-2020 18:00:00 19.3 C 12.12 g/m*3 19.3 C 14.49167 km/h
1916 10-07-2020 19:00:00 19.65833 C 11.65 g/m*3 19.66 C 13.83333 km/h
1917 10-07-2020 20:00:00 18.58333 C 11.3 g/m*3 18.58 C 11.825 km/h
1918 10-07-2020 21:00:00 17.75 C 10.76 g/m*3 17.75 C 4.80833 km/h
1919 10-07-2020 22:00:00 17.18333 C 10.59 g/m*3 17.18 C 4.54167 km/h
1920 10-07-2020 23:00:00 16.63333 C 10.44 g/m*3 16.63 C 1.86667 km/h
1921 11-07-2020 00:00:00 15.58333 C 10.45 g/m*3 15.58 C 0.93333 km/h
1922 11-07-2020 01:00:00 14.3 C 10.06 g/m*3 14.3 C 2.53333 km/h
1923 11-07-2020 02:00:00 12.725 C 9.68 g/m*3 12.73 C 2.53333 km/h
1924 11-07-2020 03:00:00 11.88333 C 9.55 g/m*3 11.88 C 3.06667 km/h
1925 11-07-2020 04:00:00 11.20833 C 9.25 g/m*3 11.21 C 0 km/h
Sensor: Nr:Datum:Temp:Abs-Feuchte:Windchill:Wind:
Aussen-T/F 1926 11-07-2020 05:00:00 10.45 C 8.94 g/m*3 10.45 C 0.26667 km/h
1927 11-07-2020 06:00:00 10.41667 C 9.06 g/m*3 10.42 C 0 km/h
1928 11-07-2020 07:00:00 11.10833 C 9.59 g/m*3 11.11 C 0 km/h
1929 11-07-2020 08:00:00 13.51667 C 10.52 g/m*3 13.52 C 3.2 km/h
1930 11-07-2020 09:00:00 15.38333 C 10.1 g/m*3 15.38 C 5.1 km/h
1931 11-07-2020 10:00:00 16.6 C 9.42 g/m*3 16.6 C 6.71667 km/h
1932 11-07-2020 11:00:00 17.75 C 8.98 g/m*3 17.75 C 6.84167 km/h
1933 11-07-2020 12:00:00 18.4 C 8.81 g/m*3 18.4 C 9.40833 km/h
1934 11-07-2020 13:00:00 19.10833 C 8.64 g/m*3 19.11 C 8.60833 km/h
1935 11-07-2020 14:00:00 19.775 C 8.51 g/m*3 19.77 C 11.15833 km/h
1936 11-07-2020 15:00:00 21.2 C 7.95 g/m*3 21.2 C 11.275 km/h
1937 11-07-2020 16:00:00 22.05 C 7.85 g/m*3 22.05 C 10.9 km/h
1938 11-07-2020 17:00:00 22.38333 C 7.95 g/m*3 22.38 C 8.05833 km/h
1939 11-07-2020 18:00:00 21.99167 C 7.86 g/m*3 21.99 C 8.45 km/h
1940 11-07-2020 19:00:00 21.88333 C 8.03 g/m*3 21.88 C 8.05833 km/h
1941 11-07-2020 20:00:00 21.125 C 8.16 g/m*3 21.13 C 8.31667 km/h
1942 11-07-2020 21:00:00 17.93333 C 9.43 g/m*3 17.93 C 7.8 km/h
1943 11-07-2020 22:00:00 16.25 C 9.56 g/m*3 16.25 C 1.74167 km/h
1944 11-07-2020 23:00:00 14.75833 C 9.4 g/m*3 14.76 C 3.86667 km/h
1945 12-07-2020 00:00:00 13.35 C 9.25 g/m*3 13.35 C 4.93333 km/h
1946 12-07-2020 01:00:00 12.61667 C 9.27 g/m*3 12.62 C 2.53333 km/h
1947 12-07-2020 02:00:00 11.95833 C 9.14 g/m*3 11.96 C 0.66667 km/h
1948 12-07-2020 03:00:00 10.73333 C 8.71 g/m*3 10.73 C 0 km/h
1949 12-07-2020 04:00:00 9.91667 C 8.51 g/m*3 9.92 C 0 km/h
1950 12-07-2020 05:00:00 9.39167 C 8.35 g/m*3 9.39 C 0 km/h
Sensor: Nr:Datum:Temp:Abs-Feuchte:Windchill:Wind:
Aussen-T/F 1951 12-07-2020 06:00:00 9.25 C 8.37 g/m*3 9.25 C 0 km/h
1952 12-07-2020 07:00:00 9.70833 C 8.7 g/m*3 9.71 C 0 km/h
1953 12-07-2020 08:00:00 10.84167 C 9.41 g/m*3 10.84 C 0 km/h
1954 12-07-2020 09:00:00 12.76667 C 10.45 g/m*3 12.77 C 0.53333 km/h
1955 12-07-2020 10:00:00 16.29167 C 10.39 g/m*3 16.29 C 3.74167 km/h
1956 12-07-2020 11:00:00 19.2 C 9.7 g/m*3 19.2 C 8.33333 km/h
1957 12-07-2020 12:00:00 20.18333 C 9 g/m*3 20.18 C 7.78333 km/h
1958 12-07-2020 13:00:00 21.31667 C 8.4 g/m*3 21.32 C 9.275 km/h
1959 12-07-2020 14:00:00 21.93333 C 8.28 g/m*3 21.93 C 10.08333 km/h
1960 12-07-2020 15:00:00 23.325 C 8.08 g/m*3 23.33 C 9.54167 km/h
1961 12-07-2020 16:00:00 24.5 C 8.28 g/m*3 24.5 C 12.35833 km/h
1962 12-07-2020 17:00:00 24.33333 C 8.13 g/m*3 24.33 C 12.1 km/h
1963 12-07-2020 18:00:00 24.475 C 8.12 g/m*3 24.48 C 10.34167 km/h
1964 12-07-2020 19:00:00 22.85 C 8.42 g/m*3 22.85 C 6.84167 km/h
1965 12-07-2020 20:00:00 22.41667 C 8.42 g/m*3 22.42 C 11.16667 km/h
1966 12-07-2020 21:00:00 20.50833 C 8.99 g/m*3 20.51 C 4.025 km/h
1967 12-07-2020 22:00:00 17.125 C 8.97 g/m*3 17.13 C 3.6 km/h
1968 12-07-2020 23:00:00 15.5 C 9.18 g/m*3 15.5 C 2.13333 km/h
1969 13-07-2020 00:00:00 14.03333 C 9.01 g/m*3 14.03 C 0.13333 km/h
1970 13-07-2020 01:00:00 12.68333 C 8.77 g/m*3 12.68 C 0.26667 km/h
1971 13-07-2020 02:00:00 11.8 C 8.61 g/m*3 11.8 C 0 km/h
1972 13-07-2020 03:00:00 11.04167 C 8.51 g/m*3 11.04 C 0 km/h
1973 13-07-2020 04:00:00 10.31667 C 8.32 g/m*3 10.32 C 0 km/h
1974 13-07-2020 05:00:00 9.83333 C 8.27 g/m*3 9.83 C 0 km/h
1975 13-07-2020 06:00:00 10.01667 C 8.54 g/m*3 10.02 C 0.13333 km/h
Sensor: Nr:Datum:Temp:Abs-Feuchte:Windchill:Wind:
Aussen-T/F 1976 13-07-2020 07:00:00 10.58333 C 8.87 g/m*3 10.58 C 0 km/h
1977 13-07-2020 08:00:00 11.76667 C 9.58 g/m*3 11.77 C 0.26667 km/h
1978 13-07-2020 09:00:00 14.44167 C 10.32 g/m*3 14.44 C 1.86667 km/h
1979 13-07-2020 10:00:00 18.2 C 10.63 g/m*3 18.2 C 3.06667 km/h
1980 13-07-2020 11:00:00 21.71667 C 10.01 g/m*3 21.72 C 5.34167 km/h
1981 13-07-2020 12:00:00 23.29167 C 8.83 g/m*3 23.29 C 9.675 km/h
1982 13-07-2020 13:00:00 24.03333 C 8.66 g/m*3 24.03 C 9.55833 km/h
1983 13-07-2020 14:00:00 24.675 C 8.42 g/m*3 24.68 C 10.5 km/h
1984 13-07-2020 15:00:00 26.14167 C 8.32 g/m*3 26.14 C 9.00833 km/h
1985 13-07-2020 16:00:00 28.475 C 8.49 g/m*3 28.48 C 6.7 km/h
1986 13-07-2020 17:00:00 28.575 C 8.23 g/m*3 28.58 C 9.15 km/h
1987 13-07-2020 18:00:00 28.725 C 7.95 g/m*3 28.73 C 6.03333 km/h
1988 13-07-2020 19:00:00 28 C 7.61 g/m*3 28 C 6.71667 km/h
1989 13-07-2020 20:00:00 26.56667 C 7.94 g/m*3 26.57 C 5.61667 km/h
1990 13-07-2020 21:00:00 23.84167 C 9.56 g/m*3 23.84 C 1.73333 km/h
1991 13-07-2020 22:00:00 20.60833 C 9.65 g/m*3 20.61 C 3.73333 km/h
1992 13-07-2020 23:00:00 18.68333 C 9.53 g/m*3 18.68 C 4.26667 km/h
1993 14-07-2020 00:00:00 17.575 C 9.47 g/m*3 17.58 C 2.66667 km/h
1994 14-07-2020 01:00:00 16.525 C 9.53 g/m*3 16.52 C 1.86667 km/h
1995 14-07-2020 02:00:00 15.075 C 9.56 g/m*3 15.08 C 0 km/h
1996 14-07-2020 03:00:00 13.75 C 9.39 g/m*3 13.75 C 0 km/h
1997 14-07-2020 04:00:00 12.94167 C 9.29 g/m*3 12.94 C 0 km/h
1998 14-07-2020 05:00:00 12.4 C 9.22 g/m*3 12.4 C 0 km/h
1999 14-07-2020 06:00:00 12.38333 C 9.34 g/m*3 12.38 C 0 km/h
2000 14-07-2020 07:00:00 13.76667 C 9.95 g/m*3 13.77 C 0 km/h
Sensor: Nr:Datum:Temp:Abs-Feuchte:Windchill:Wind:
Aussen-T/F 2001 14-07-2020 08:00:00 14.95 C 10.33 g/m*3 14.95 C 0 km/h
2002 14-07-2020 09:00:00 15.875 C 10.83 g/m*3 15.88 C 0 km/h
2003 14-07-2020 10:00:00 19.15 C 10.95 g/m*3 19.15 C 0 km/h
2004 14-07-2020 11:00:00 22.39167 C 10.47 g/m*3 22.39 C 2.00833 km/h
2005 14-07-2020 12:00:00 23.85 C 9.94 g/m*3 23.85 C 7.11667 km/h
2006 14-07-2020 13:00:00 25.65833 C 9.3 g/m*3 25.66 C 9.40833 km/h
2007 14-07-2020 14:00:00 25.725 C 9.45 g/m*3 25.73 C 10.075 km/h
2008 14-07-2020 15:00:00 25.35 C 9.53 g/m*3 25.35 C 7.53333 km/h
2009 14-07-2020 16:00:00 25.64167 C 10.04 g/m*3 25.64 C 9.39167 km/h
2010 14-07-2020 17:00:00 24.83333 C 10.64 g/m*3 24.83 C 15.56667 km/h
2011 14-07-2020 18:00:00 21.80833 C 10.59 g/m*3 21.81 C 14.36667 km/h
2012 14-07-2020 19:00:00 19.96667 C 11.1 g/m*3 19.97 C 8.325 km/h
2013 14-07-2020 20:00:00 18.59167 C 12.02 g/m*3 18.59 C 6.83333 km/h
2014 14-07-2020 21:00:00 17.44167 C 12.59 g/m*3 17.44 C 1.06667 km/h
2015 14-07-2020 22:00:00 16.4 C 12.31 g/m*3 16.4 C 1.86667 km/h
2016 14-07-2020 23:00:00 15.84167 C 12.02 g/m*3 15.84 C 1.06667 km/h
2017 15-07-2020 00:00:00 15.70833 C 11.91 g/m*3 15.71 C 0 km/h
2018 15-07-2020 01:00:00 15.98333 C 11.64 g/m*3 15.98 C 2.53333 km/h
2019 15-07-2020 02:00:00 16.15 C 11.64 g/m*3 16.15 C 4.53333 km/h
2020 15-07-2020 03:00:00 15.85833 C 11.79 g/m*3 15.86 C 4.55833 km/h
2021 15-07-2020 04:00:00 15.475 C 12.02 g/m*3 15.48 C 0.53333 km/h
2022 15-07-2020 05:00:00 15.11667 C 12.1 g/m*3 15.12 C 1.33333 km/h
2023 15-07-2020 06:00:00 14.83333 C 11.93 g/m*3 14.83 C 2.94167 km/h
2024 15-07-2020 07:00:00 14.6 C 11.88 g/m*3 14.6 C 1.06667 km/h
2025 15-07-2020 08:00:00 14.80833 C 11.85 g/m*3 14.81 C 5.5 km/h
Sensor: Nr:Datum:Temp:Abs-Feuchte:Windchill:Wind:
Aussen-T/F 2026 15-07-2020 09:00:00 15.49167 C 11.34 g/m*3 15.49 C 9.68333 km/h
2027 15-07-2020 10:00:00 16.30833 C 10.53 g/m*3 16.31 C 11.425 km/h
2028 15-07-2020 11:00:00 17.8 C 9.94 g/m*3 17.8 C 12.23333 km/h
2029 15-07-2020 12:00:00 18.4 C 9.49 g/m*3 18.4 C 13.69167 km/h
2030 15-07-2020 13:00:00 19.2 C 9.59 g/m*3 19.2 C 12.9 km/h
2031 15-07-2020 14:00:00 20.05 C 9.55 g/m*3 20.05 C 13.7 km/h
2032 15-07-2020 15:00:00 20.94167 C 9.6 g/m*3 20.94 C 14.23333 km/h
2033 15-07-2020 16:00:00 21.59167 C 9.78 g/m*3 21.59 C 14.36667 km/h
2034 15-07-2020 17:00:00 21.28333 C 9.65 g/m*3 21.28 C 12.5 km/h
2035 15-07-2020 18:00:00 20.6 C 9.37 g/m*3 20.6 C 9.96667 km/h
2036 15-07-2020 19:00:00 20.225 C 9.24 g/m*3 20.23 C 9.025 km/h
2037 15-07-2020 20:00:00 19.74167 C 9.77 g/m*3 19.74 C 3.875 km/h
2038 15-07-2020 21:00:00 17.95833 C 10.44 g/m*3 17.96 C 2.13333 km/h
2039 15-07-2020 22:00:00 16.80833 C 10.13 g/m*3 16.81 C 6.425 km/h
2040 15-07-2020 23:00:00 16.31667 C 10.32 g/m*3 16.32 C 2.93333 km/h
2041 16-07-2020 00:00:00 15.775 C 10.36 g/m*3 15.78 C 0.4 km/h
2042 16-07-2020 01:00:00 14.93333 C 10.28 g/m*3 14.93 C 1.73333 km/h
2043 16-07-2020 02:00:00 15.31667 C 10.74 g/m*3 15.32 C 0.53333 km/h
2044 16-07-2020 03:00:00 15.20833 C 10.98 g/m*3 15.21 C 0 km/h
2045 16-07-2020 04:00:00 15.25833 C 11.32 g/m*3 15.26 C 1.2 km/h
2046 16-07-2020 05:00:00 14.99167 C 11.56 g/m*3 14.99 C 0.13333 km/h
2047 16-07-2020 06:00:00 14.525 C 11.47 g/m*3 14.53 C 3.475 km/h
2048 16-07-2020 07:00:00 14.39167 C 11.5 g/m*3 14.39 C 1.2 km/h
2049 16-07-2020 08:00:00 15 C 11.86 g/m*3 15 C 4.675 km/h
2050 16-07-2020 09:00:00 15.36667 C 12.08 g/m*3 15.37 C 5.21667 km/h
Sensor: Nr:Datum:Temp:Abs-Feuchte:Windchill:Wind:
Aussen-T/F 2051 16-07-2020 10:00:00 15.88333 C 12.2 g/m*3 15.88 C 3.33333 km/h
2052 16-07-2020 11:00:00 16.46667 C 12.38 g/m*3 16.47 C 3.6 km/h
2053 16-07-2020 12:00:00 16.51667 C 12.87 g/m*3 16.52 C 4.15 km/h
2054 16-07-2020 13:00:00 17.11667 C 13.02 g/m*3 17.12 C 6.425 km/h
2055 16-07-2020 14:00:00 17.18333 C 12.95 g/m*3 17.18 C 7.39167 km/h
2056 16-07-2020 15:00:00 17.34167 C 13.11 g/m*3 17.34 C 8.075 km/h
2057 16-07-2020 16:00:00 17.14167 C 13.47 g/m*3 17.14 C 3.475 km/h
2058 16-07-2020 17:00:00 17.96667 C 13.2 g/m*3 17.97 C 4 km/h
2059 16-07-2020 18:00:00 18.20833 C 13.49 g/m*3 18.21 C 0.93333 km/h
2060 16-07-2020 19:00:00 17.80833 C 13.5 g/m*3 17.81 C 1.73333 km/h
2061 16-07-2020 20:00:00 17.025 C 13.33 g/m*3 17.02 C 2.94167 km/h
2062 16-07-2020 21:00:00 15.93333 C 12.36 g/m*3 15.93 C 6.44167 km/h
2063 16-07-2020 22:00:00 15.475 C 12.31 g/m*3 15.48 C 3.46667 km/h
2064 16-07-2020 23:00:00 15.26667 C 12.33 g/m*3 15.27 C 1.2 km/h
2065 17-07-2020 00:00:00 15.14167 C 12.29 g/m*3 15.14 C 1.73333 km/h
2066 17-07-2020 01:00:00 15.1 C 12.32 g/m*3 15.1 C 0.8 km/h
2067 17-07-2020 02:00:00 15.125 C 12.4 g/m*3 15.13 C 0.53333 km/h
2068 17-07-2020 03:00:00 15.16667 C 12.44 g/m*3 15.17 C 1.33333 km/h
2069 17-07-2020 04:00:00 15.2 C 12.46 g/m*3 15.2 C 0 km/h
2070 17-07-2020 05:00:00 15.2 C 12.46 g/m*3 15.2 C 0 km/h
2071 17-07-2020 06:00:00 15.225 C 12.48 g/m*3 15.23 C 1.06667 km/h
2072 17-07-2020 07:00:00 15.34167 C 12.57 g/m*3 15.34 C 0.26667 km/h
2073 17-07-2020 08:00:00 15.575 C 12.83 g/m*3 15.58 C 0.53333 km/h
2074 17-07-2020 09:00:00 15.84167 C 12.96 g/m*3 15.84 C 4.00833 km/h
2075 17-07-2020 10:00:00 16.775 C 13.41 g/m*3 16.77 C 7.39167 km/h
Sensor: Nr:Datum:Temp:Abs-Feuchte:Windchill:Wind:
Aussen-T/F 2076 17-07-2020 11:00:00 18.16667 C 13.46 g/m*3 18.17 C 5.76667 km/h
2077 17-07-2020 12:00:00 19.275 C 13.31 g/m*3 19.27 C 3.2 km/h
2078 17-07-2020 13:00:00 20.54167 C 12.9 g/m*3 20.54 C 5.35 km/h
2079 17-07-2020 14:00:00 21.6 C 12.44 g/m*3 21.6 C 8.33333 km/h
2080 17-07-2020 15:00:00 22.95833 C 12.05 g/m*3 22.96 C 7.50833 km/h
2081 17-07-2020 16:00:00 23.825 C 12.78 g/m*3 23.83 C 4.83333 km/h
2082 17-07-2020 17:00:00 23.89167 C 11.28 g/m*3 23.89 C 9.93333 km/h
2083 17-07-2020 18:00:00 24.35833 C 11.32 g/m*3 24.36 C 10.75833 km/h
2084 17-07-2020 19:00:00 24.3 C 11.78 g/m*3 24.3 C 10.225 km/h
2085 17-07-2020 20:00:00 22.58333 C 11.82 g/m*3 22.58 C 6.56667 km/h
2086 17-07-2020 21:00:00 20.50833 C 12.11 g/m*3 20.51 C 3.2 km/h
2087 17-07-2020 22:00:00 17.84167 C 12.2 g/m*3 17.84 C 3.73333 km/h
2088 17-07-2020 23:00:00 16.525 C 12.06 g/m*3 16.52 C 4 km/h
2089 18-07-2020 00:00:00 15.45833 C 11.67 g/m*3 15.46 C 0.8 km/h
2090 18-07-2020 01:00:00 14.375 C 11.27 g/m*3 14.38 C 0 km/h
2091 18-07-2020 02:00:00 13.75 C 11.08 g/m*3 13.75 C 0 km/h
2092 18-07-2020 03:00:00 13.20833 C 10.8 g/m*3 13.21 C 0 km/h
2093 18-07-2020 04:00:00 12.84167 C 10.63 g/m*3 12.84 C 0 km/h
2094 18-07-2020 05:00:00 13.10833 C 10.86 g/m*3 13.11 C 0 km/h
2095 18-07-2020 06:00:00 13.475 C 11.21 g/m*3 13.48 C 0 km/h
2096 18-07-2020 07:00:00 13.8 C 11.37 g/m*3 13.8 C 0 km/h
2097 18-07-2020 08:00:00 14.09167 C 11.58 g/m*3 14.09 C 0 km/h
2098 18-07-2020 09:00:00 15.55 C 12.56 g/m*3 15.55 C 0 km/h
2099 18-07-2020 10:00:00 18.28333 C 13.65 g/m*3 18.28 C 0 km/h
2100 18-07-2020 11:00:00 21.925 C 13.09 g/m*3 21.93 C 2.96667 km/h
Sensor: Nr:Datum:Temp:Abs-Feuchte:Windchill:Wind:
Aussen-T/F 2101 18-07-2020 12:00:00 23 C 12.35 g/m*3 23 C 4.26667 km/h
2102 18-07-2020 13:00:00 23.84167 C 12.27 g/m*3 23.84 C 5.225 km/h
2103 18-07-2020 14:00:00 24.11667 C 12.96 g/m*3 24.12 C 3.60833 km/h
2104 18-07-2020 15:00:00 24.15 C 13.48 g/m*3 24.15 C 1.33333 km/h
2105 18-07-2020 16:00:00 26.45833 C 11.97 g/m*3 26.46 C 5.35 km/h
2106 18-07-2020 17:00:00 26.11667 C 11.88 g/m*3 26.12 C 4.81667 km/h
2107 18-07-2020 18:00:00 26.73333 C 11.86 g/m*3 26.73 C 4.96667 km/h
2108 18-07-2020 19:00:00 27.91667 C 11.62 g/m*3 27.92 C 6.04167 km/h
2109 18-07-2020 20:00:00 26.54167 C 12.65 g/m*3 26.54 C 3.6 km/h
2110 18-07-2020 21:00:00 21.56667 C 12.52 g/m*3 21.57 C 7.25 km/h
2111 18-07-2020 22:00:00 19.65833 C 12.31 g/m*3 19.66 C 6.425 km/h
2112 18-07-2020 23:00:00 18.5 C 12.22 g/m*3 18.5 C 2 km/h
2113 19-07-2020 00:00:00 17 C 11.96 g/m*3 17 C 0 km/h
2114 19-07-2020 01:00:00 15.85 C 11.53 g/m*3 15.85 C 0 km/h
2115 19-07-2020 02:00:00 14.975 C 11.18 g/m*3 14.98 C 0 km/h
2116 19-07-2020 03:00:00 14.45 C 11.1 g/m*3 14.45 C 0 km/h
2117 19-07-2020 04:00:00 14.6 C 11.26 g/m*3 14.6 C 0 km/h
2118 19-07-2020 05:00:00 14.76667 C 11.45 g/m*3 14.77 C 0 km/h
2119 19-07-2020 06:00:00 15.23333 C 11.74 g/m*3 15.23 C 0 km/h
2120 19-07-2020 07:00:00 15.89167 C 12.13 g/m*3 15.89 C 0 km/h
2121 19-07-2020 08:00:00 16.66667 C 12.61 g/m*3 16.67 C 0 km/h
2122 19-07-2020 09:00:00 18.80833 C 13.66 g/m*3 18.81 C 0 km/h
2123 19-07-2020 10:00:00 21.39167 C 13.77 g/m*3 21.39 C 0.53333 km/h
2124 19-07-2020 11:00:00 25.28333 C 12.06 g/m*3 25.28 C 8.31667 km/h
2125 19-07-2020 12:00:00 26.88333 C 11.49 g/m*3 26.88 C 11.69167 km/h
Sensor: Nr:Datum:Temp:Abs-Feuchte:Windchill:Wind:
Aussen-T/F 2126 19-07-2020 13:00:00 27.80833 C 11.44 g/m*3 27.81 C 10.225 km/h
2127 19-07-2020 14:00:00 28.33333 C 10.78 g/m*3 28.33 C 12.9 km/h
2128 19-07-2020 15:00:00 29.80833 C 10.23 g/m*3 29.81 C 10.35833 km/h
2129 19-07-2020 16:00:00 29.775 C 10.68 g/m*3 29.78 C 9.025 km/h
2130 19-07-2020 17:00:00 31.25 C 10.14 g/m*3 31.25 C 11.41667 km/h
2131 19-07-2020 18:00:00 30.59167 C 10.41 g/m*3 30.59 C 5.75833 km/h
2132 19-07-2020 19:00:00 29.16667 C 12.66 g/m*3 29.17 C 2.8 km/h
2133 19-07-2020 20:00:00 27.55 C 11.89 g/m*3 27.55 C 5.75833 km/h
2134 19-07-2020 21:00:00 24.98333 C 11.92 g/m*3 24.98 C 3.875 km/h
2135 19-07-2020 22:00:00 22.81667 C 10.93 g/m*3 22.82 C 5.075 km/h
2136 19-07-2020 23:00:00 21.425 C 10.26 g/m*3 21.43 C 4.95 km/h
2137 20-07-2020 00:00:00 19.93333 C 10.13 g/m*3 19.93 C 3.2 km/h
2138 20-07-2020 01:00:00 18.44167 C 10.38 g/m*3 18.44 C 3.2 km/h
2139 20-07-2020 02:00:00 18.2 C 11.2 g/m*3 18.2 C 3.875 km/h
2140 20-07-2020 03:00:00 17.625 C 11.77 g/m*3 17.63 C 1.86667 km/h
2141 20-07-2020 04:00:00 16.45833 C 11.84 g/m*3 16.46 C 0 km/h
2142 20-07-2020 05:00:00 15.90833 C 11.97 g/m*3 15.91 C 0.66667 km/h
2143 20-07-2020 06:00:00 16.38333 C 12.78 g/m*3 16.38 C 2.8 km/h
2144 20-07-2020 07:00:00 17.33333 C 13.37 g/m*3 17.33 C 0.66667 km/h
2145 20-07-2020 08:00:00 17.94167 C 13.44 g/m*3 17.94 C 6.58333 km/h
2146 20-07-2020 09:00:00 17.74167 C 13.31 g/m*3 17.74 C 5.09167 km/h
2147 20-07-2020 10:00:00 17.80833 C 13.08 g/m*3 17.81 C 1.46667 km/h
2148 20-07-2020 11:00:00 19.15 C 13.21 g/m*3 19.15 C 6.975 km/h
2149 20-07-2020 12:00:00 20.01667 C 12.84 g/m*3 20.02 C 11.43333 km/h
2150 20-07-2020 13:00:00 20.975 C 12.77 g/m*3 20.98 C 9.425 km/h
Sensor: Nr:Datum:Temp:Abs-Feuchte:Windchill:Wind:
Aussen-T/F 2151 20-07-2020 14:00:00 21.65833 C 12.62 g/m*3 21.66 C 12.1 km/h
2152 20-07-2020 15:00:00 22.53333 C 12.42 g/m*3 22.53 C 11.83333 km/h
2153 20-07-2020 16:00:00 23.25833 C 12.29 g/m*3 23.26 C 11.83333 km/h
2154 20-07-2020 17:00:00 23.925 C 11.83 g/m*3 23.93 C 12.5 km/h
2155 20-07-2020 18:00:00 23.83333 C 11.35 g/m*3 23.83 C 13.03333 km/h
2156 20-07-2020 19:00:00 22.625 C 10.8 g/m*3 22.63 C 10.89167 km/h
2157 20-07-2020 20:00:00 21.40833 C 10.1 g/m*3 21.41 C 8.74167 km/h
2158 20-07-2020 21:00:00 19.76667 C 10.11 g/m*3 19.77 C 1.33333 km/h
2159 20-07-2020 22:00:00 17.24167 C 10.01 g/m*3 17.24 C 3.2 km/h
2160 20-07-2020 23:00:00 16.08333 C 9.96 g/m*3 16.08 C 0.93333 km/h
2161 21-07-2020 00:00:00 14.75 C 9.53 g/m*3 14.75 C 3.33333 km/h
2162 21-07-2020 01:00:00 13.58333 C 9.3 g/m*3 13.58 C 2.26667 km/h
2163 21-07-2020 02:00:00 13.45833 C 9.18 g/m*3 13.46 C 3.33333 km/h
2164 21-07-2020 03:00:00 13.15833 C 9.16 g/m*3 13.16 C 3.46667 km/h
2165 21-07-2020 04:00:00 12.81667 C 9.09 g/m*3 12.82 C 1.46667 km/h
2166 21-07-2020 05:00:00 12.65833 C 8.99 g/m*3 12.66 C 2.8 km/h
2167 21-07-2020 06:00:00 11.625 C 8.75 g/m*3 11.63 C 2.4 km/h
2168 21-07-2020 07:00:00 11.675 C 8.99 g/m*3 11.68 C 2.66667 km/h
2169 21-07-2020 08:00:00 13.38333 C 9.45 g/m*3 13.38 C 3.2 km/h
2170 21-07-2020 09:00:00 14.85833 C 9.92 g/m*3 14.86 C 4.13333 km/h
2171 21-07-2020 10:00:00 17.225 C 10.3 g/m*3 17.23 C 5.35 km/h
2172 21-07-2020 11:00:00 19.325 C 9.8 g/m*3 19.33 C 11.025 km/h
2173 21-07-2020 12:00:00 20.26667 C 9.7 g/m*3 20.27 C 11.69167 km/h
2174 21-07-2020 13:00:00 20.68333 C 8.92 g/m*3 20.68 C 12.23333 km/h
2175 21-07-2020 14:00:00 21.51667 C 8.76 g/m*3 21.52 C 12.625 km/h
Sensor: Nr:Datum:Temp:Abs-Feuchte:Windchill:Wind:
Aussen-T/F 2176 21-07-2020 15:00:00 23.01667 C 8.8 g/m*3 23.02 C 13.83333 km/h
2177 21-07-2020 16:00:00 24.40833 C 8.72 g/m*3 24.41 C 13.16667 km/h
2178 21-07-2020 17:00:00 24.85833 C 8.32 g/m*3 24.86 C 12.9 km/h
2179 21-07-2020 18:00:00 24.80833 C 8.24 g/m*3 24.81 C 12.1 km/h
2180 21-07-2020 19:00:00 23.59167 C 7.85 g/m*3 23.59 C 10.89167 km/h
2181 21-07-2020 20:00:00 22.09167 C 7.61 g/m*3 22.09 C 7.675 km/h
2182 21-07-2020 21:00:00 18.99167 C 8.14 g/m*3 18.99 C 2.8 km/h
2183 21-07-2020 22:00:00 15.925 C 8.23 g/m*3 15.93 C 5.475 km/h
2184 21-07-2020 23:00:00 14.85833 C 8.48 g/m*3 14.86 C 3.06667 km/h

Maximal/Minimal-Werte vom 23.02.2003 - 03.08.2020

Sensor Min Max Avg
Temp
(Aussen-T/F)
-16.4 °C
20-12-2009  01:30:01
40.4 °C
25-07-2019  16:20:00
11.23 °C

Die Daten stammen von einer Davis Vantage Pro 2 Wetter-Station und werden unter Linux mit der Software wview2wettercgi und aufbereitet. Alle Angaben erfolgen ohne Gewähr für ihre Vollständigkeit oder Richtigkeit.
Kontakt: Rainer Krienke krienke@uni-koblenz.de . Meine Webseiten an der Uni Koblenz oder privat.
Version: $Revision: 0.78 $